<?xml version="1.0" encoding="UTF-8" standalone="no" ?>
<gpx xmlns="http://www.topografix.com/GPX/1/1" xmlns:xsi="http://www.w3.org/2001/XMLSchema-instance" xsi:schemaLocation="http://www.topografix.com/GPX/1/1 http://www.topografix.com/GPX/1/1/gpx.xsd" version="1.1" creator="VisuGPX - https://www.visugpx.com">
  <metadata>
    <name>Rando en foret de Lyons</name>
    <desc><![CDATA[Rando en foret de Lyons]]></desc>
  </metadata>
  <trk>
    <name><![CDATA[ACTIVE LOG 001-MNT-Lyons]]></name>
    <trkseg>
      <trkpt lat="49.3992" lon="1.47896">
        <ele>105.076302</ele>
        <time>2010-11-06T08:56:03Z</time>
      </trkpt>
      <trkpt lat="49.39921" lon="1.47895">
        <ele>104.917679</ele>
        <time>2010-11-06T08:56:40Z</time>
      </trkpt>
      <trkpt lat="49.39922" lon="1.47895">
        <ele>104.803909</ele>
        <time>2010-11-06T08:57:43Z</time>
      </trkpt>
      <trkpt lat="49.39924" lon="1.47896">
        <ele>104.669189</ele>
        <time>2010-11-06T08:58:12Z</time>
      </trkpt>
      <trkpt lat="49.39924" lon="1.47897">
        <ele>104.622002</ele>
        <time>2010-11-06T08:59:07Z</time>
      </trkpt>
      <trkpt lat="49.39926" lon="1.47898">
        <ele>104.355003</ele>
        <time>2010-11-06T09:00:13Z</time>
      </trkpt>
      <trkpt lat="49.39924" lon="1.47899">
        <ele>104.588753</ele>
        <time>2010-11-06T09:00:26Z</time>
      </trkpt>
      <trkpt lat="49.39923" lon="1.47899">
        <ele>104.77375</ele>
        <time>2010-11-06T09:01:05Z</time>
      </trkpt>
      <trkpt lat="49.39922" lon="1.47899">
        <ele>104.827499</ele>
        <time>2010-11-06T09:01:47Z</time>
      </trkpt>
      <trkpt lat="49.39922" lon="1.47898">
        <ele>104.936249</ele>
        <time>2010-11-06T09:02:51Z</time>
      </trkpt>
      <trkpt lat="49.39921" lon="1.47899">
        <ele>104.977501</ele>
        <time>2010-11-06T09:03:49Z</time>
      </trkpt>
      <trkpt lat="49.3992" lon="1.47899">
        <ele>105.16375</ele>
        <time>2010-11-06T09:05:03Z</time>
      </trkpt>
      <trkpt lat="49.39921" lon="1.47898">
        <ele>105.077499</ele>
        <time>2010-11-06T09:05:53Z</time>
      </trkpt>
      <trkpt lat="49.39921" lon="1.47898">
        <ele>105.018745</ele>
        <time>2010-11-06T09:07:05Z</time>
      </trkpt>
      <trkpt lat="49.39921" lon="1.47898">
        <ele>105.021248</ele>
        <time>2010-11-06T09:08:33Z</time>
      </trkpt>
      <trkpt lat="49.39923" lon="1.479">
        <ele>104.686249</ele>
        <time>2010-11-06T09:10:40Z</time>
      </trkpt>
      <trkpt lat="49.39923" lon="1.47899">
        <ele>104.802498</ele>
        <time>2010-11-06T09:12:25Z</time>
      </trkpt>
      <trkpt lat="49.39922" lon="1.47899">
        <ele>104.917503</ele>
        <time>2010-11-06T09:13:38Z</time>
      </trkpt>
      <trkpt lat="49.39922" lon="1.47899">
        <ele>104.860001</ele>
        <time>2010-11-06T09:14:36Z</time>
      </trkpt>
      <trkpt lat="49.3992" lon="1.47895">
        <ele>105.090904</ele>
        <time>2010-11-06T09:16:02Z</time>
      </trkpt>
      <trkpt lat="49.39919" lon="1.47899">
        <ele>105.216248</ele>
        <time>2010-11-06T09:20:18Z</time>
      </trkpt>
      <trkpt lat="49.3992" lon="1.47899">
        <ele>105.191246</ele>
        <time>2010-11-06T09:20:50Z</time>
      </trkpt>
      <trkpt lat="49.3992" lon="1.47899">
        <ele>105.161247</ele>
        <time>2010-11-06T09:21:24Z</time>
      </trkpt>
      <trkpt lat="49.3992" lon="1.47898">
        <ele>105.176247</ele>
        <time>2010-11-06T09:23:07Z</time>
      </trkpt>
      <trkpt lat="49.3992" lon="1.47899">
        <ele>105.105003</ele>
        <time>2010-11-06T09:23:33Z</time>
      </trkpt>
      <trkpt lat="49.39921" lon="1.47899">
        <ele>105.006248</ele>
        <time>2010-11-06T09:23:58Z</time>
      </trkpt>
      <trkpt lat="49.39921" lon="1.47902">
        <ele>104.941254</ele>
        <time>2010-11-06T09:24:00Z</time>
      </trkpt>
      <trkpt lat="49.39921" lon="1.47908">
        <ele>104.93</ele>
        <time>2010-11-06T09:24:07Z</time>
      </trkpt>
      <trkpt lat="49.39912" lon="1.47915">
        <ele>106.014999</ele>
        <time>2010-11-06T09:24:14Z</time>
      </trkpt>
      <trkpt lat="49.39909" lon="1.47912">
        <ele>106.443748</ele>
        <time>2010-11-06T09:24:16Z</time>
      </trkpt>
      <trkpt lat="49.39906" lon="1.47905">
        <ele>106.927498</ele>
        <time>2010-11-06T09:24:19Z</time>
      </trkpt>
      <trkpt lat="49.39901" lon="1.47897">
        <ele>107.63353</ele>
        <time>2010-11-06T09:24:23Z</time>
      </trkpt>
      <trkpt lat="49.39877" lon="1.47885">
        <ele>110.463783</ele>
        <time>2010-11-06T09:24:37Z</time>
      </trkpt>
      <trkpt lat="49.39839" lon="1.47886">
        <ele>115.496986</ele>
        <time>2010-11-06T09:24:56Z</time>
      </trkpt>
      <trkpt lat="49.39801" lon="1.47886">
        <ele>120.587502</ele>
        <time>2010-11-06T09:25:15Z</time>
      </trkpt>
      <trkpt lat="49.39765" lon="1.47884">
        <ele>125.345001</ele>
        <time>2010-11-06T09:25:34Z</time>
      </trkpt>
      <trkpt lat="49.39741" lon="1.4788">
        <ele>128.624176</ele>
        <time>2010-11-06T09:25:49Z</time>
      </trkpt>
      <trkpt lat="49.39723" lon="1.47877">
        <ele>131.026001</ele>
        <time>2010-11-06T09:26:05Z</time>
      </trkpt>
      <trkpt lat="49.39709" lon="1.4787">
        <ele>132.694504</ele>
        <time>2010-11-06T09:26:19Z</time>
      </trkpt>
      <trkpt lat="49.39691" lon="1.47849">
        <ele>134.782394</ele>
        <time>2010-11-06T09:26:34Z</time>
      </trkpt>
      <trkpt lat="49.39677" lon="1.47827">
        <ele>136.322891</ele>
        <time>2010-11-06T09:26:48Z</time>
      </trkpt>
      <trkpt lat="49.39662" lon="1.47805">
        <ele>137.324646</ele>
        <time>2010-11-06T09:26:59Z</time>
      </trkpt>
      <trkpt lat="49.39637" lon="1.47778">
        <ele>139.867752</ele>
        <time>2010-11-06T09:27:11Z</time>
      </trkpt>
      <trkpt lat="49.39633" lon="1.4777">
        <ele>140.385498</ele>
        <time>2010-11-06T09:27:14Z</time>
      </trkpt>
      <trkpt lat="49.39611" lon="1.47735">
        <ele>141.755554</ele>
        <time>2010-11-06T09:27:27Z</time>
      </trkpt>
      <trkpt lat="49.3959" lon="1.47705">
        <ele>143.316193</ele>
        <time>2010-11-06T09:27:38Z</time>
      </trkpt>
      <trkpt lat="49.3955" lon="1.47655">
        <ele>147.926254</ele>
        <time>2010-11-06T09:27:56Z</time>
      </trkpt>
      <trkpt lat="49.39515" lon="1.47612">
        <ele>151.037506</ele>
        <time>2010-11-06T09:28:14Z</time>
      </trkpt>
      <trkpt lat="49.39477" lon="1.47565">
        <ele>153.450302</ele>
        <time>2010-11-06T09:28:34Z</time>
      </trkpt>
      <trkpt lat="49.39435" lon="1.47515">
        <ele>155.861252</ele>
        <time>2010-11-06T09:28:53Z</time>
      </trkpt>
      <trkpt lat="49.39393" lon="1.47478">
        <ele>157.356247</ele>
        <time>2010-11-06T09:29:10Z</time>
      </trkpt>
      <trkpt lat="49.39339" lon="1.47434">
        <ele>158.468353</ele>
        <time>2010-11-06T09:29:30Z</time>
      </trkpt>
      <trkpt lat="49.39288" lon="1.47397">
        <ele>159.520004</ele>
        <time>2010-11-06T09:29:47Z</time>
      </trkpt>
      <trkpt lat="49.39228" lon="1.47357">
        <ele>160.823746</ele>
        <time>2010-11-06T09:30:06Z</time>
      </trkpt>
      <trkpt lat="49.39188" lon="1.47315">
        <ele>161.088745</ele>
        <time>2010-11-06T09:30:24Z</time>
      </trkpt>
      <trkpt lat="49.39174" lon="1.47269">
        <ele>160.722504</ele>
        <time>2010-11-06T09:30:44Z</time>
      </trkpt>
      <trkpt lat="49.39163" lon="1.47217">
        <ele>160.166046</ele>
        <time>2010-11-06T09:31:03Z</time>
      </trkpt>
      <trkpt lat="49.39157" lon="1.47198">
        <ele>159.828003</ele>
        <time>2010-11-06T09:31:09Z</time>
      </trkpt>
      <trkpt lat="49.39141" lon="1.47136">
        <ele>158.898056</ele>
        <time>2010-11-06T09:31:27Z</time>
      </trkpt>
      <trkpt lat="49.39113" lon="1.47073">
        <ele>158.435699</ele>
        <time>2010-11-06T09:31:47Z</time>
      </trkpt>
      <trkpt lat="49.391" lon="1.4704">
        <ele>158.39888</ele>
        <time>2010-11-06T09:31:58Z</time>
      </trkpt>
      <trkpt lat="49.39099" lon="1.4703">
        <ele>158.217194</ele>
        <time>2010-11-06T09:32:11Z</time>
      </trkpt>
      <trkpt lat="49.39099" lon="1.47028">
        <ele>158.216949</ele>
        <time>2010-11-06T09:32:20Z</time>
      </trkpt>
      <trkpt lat="49.39092" lon="1.46981">
        <ele>159.442505</ele>
        <time>2010-11-06T09:32:35Z</time>
      </trkpt>
      <trkpt lat="49.39101" lon="1.46923">
        <ele>160.302246</ele>
        <time>2010-11-06T09:32:48Z</time>
      </trkpt>
      <trkpt lat="49.39106" lon="1.46905">
        <ele>160.428131</ele>
        <time>2010-11-06T09:32:54Z</time>
      </trkpt>
      <trkpt lat="49.39108" lon="1.46885">
        <ele>160.740891</ele>
        <time>2010-11-06T09:33:00Z</time>
      </trkpt>
      <trkpt lat="49.39112" lon="1.46864">
        <ele>160.429428</ele>
        <time>2010-11-06T09:33:05Z</time>
      </trkpt>
      <trkpt lat="49.39107" lon="1.46807">
        <ele>159.664185</ele>
        <time>2010-11-06T09:33:16Z</time>
      </trkpt>
      <trkpt lat="49.39109" lon="1.46742">
        <ele>156.859375</ele>
        <time>2010-11-06T09:33:28Z</time>
      </trkpt>
      <trkpt lat="49.39099" lon="1.46704">
        <ele>156.125</ele>
        <time>2010-11-06T09:33:38Z</time>
      </trkpt>
      <trkpt lat="49.39093" lon="1.46643">
        <ele>153.370895</ele>
        <time>2010-11-06T09:33:49Z</time>
      </trkpt>
      <trkpt lat="49.39079" lon="1.46595">
        <ele>154.095001</ele>
        <time>2010-11-06T09:33:59Z</time>
      </trkpt>
      <trkpt lat="49.39064" lon="1.46558">
        <ele>155.717499</ele>
        <time>2010-11-06T09:34:09Z</time>
      </trkpt>
      <trkpt lat="49.39064" lon="1.46509">
        <ele>153.761856</ele>
        <time>2010-11-06T09:34:17Z</time>
      </trkpt>
      <trkpt lat="49.39059" lon="1.4645">
        <ele>153.257507</ele>
        <time>2010-11-06T09:34:28Z</time>
      </trkpt>
      <trkpt lat="49.39043" lon="1.46406">
        <ele>156.596451</ele>
        <time>2010-11-06T09:34:39Z</time>
      </trkpt>
      <trkpt lat="49.39033" lon="1.46398">
        <ele>159.213043</ele>
        <time>2010-11-06T09:34:43Z</time>
      </trkpt>
      <trkpt lat="49.39008" lon="1.46379">
        <ele>162.092575</ele>
        <time>2010-11-06T09:34:56Z</time>
      </trkpt>
      <trkpt lat="49.39003" lon="1.46372">
        <ele>162.723328</ele>
        <time>2010-11-06T09:35:05Z</time>
      </trkpt>
      <trkpt lat="49.38998" lon="1.46363">
        <ele>163.272324</ele>
        <time>2010-11-06T09:35:10Z</time>
      </trkpt>
      <trkpt lat="49.3899" lon="1.46354">
        <ele>164.214447</ele>
        <time>2010-11-06T09:35:15Z</time>
      </trkpt>
      <trkpt lat="49.38983" lon="1.4635">
        <ele>164.847702</ele>
        <time>2010-11-06T09:35:18Z</time>
      </trkpt>
      <trkpt lat="49.38968" lon="1.46361">
        <ele>166.502762</ele>
        <time>2010-11-06T09:35:25Z</time>
      </trkpt>
      <trkpt lat="49.38935" lon="1.46384">
        <ele>169.940002</ele>
        <time>2010-11-06T09:35:40Z</time>
      </trkpt>
      <trkpt lat="49.38925" lon="1.4639">
        <ele>170.595001</ele>
        <time>2010-11-06T09:35:45Z</time>
      </trkpt>
      <trkpt lat="49.38916" lon="1.4638">
        <ele>170.699997</ele>
        <time>2010-11-06T09:35:49Z</time>
      </trkpt>
      <trkpt lat="49.38883" lon="1.46303">
        <ele>170.136368</ele>
        <time>2010-11-06T09:36:07Z</time>
      </trkpt>
      <trkpt lat="49.38851" lon="1.46223">
        <ele>169.438705</ele>
        <time>2010-11-06T09:36:24Z</time>
      </trkpt>
      <trkpt lat="49.38834" lon="1.46184">
        <ele>169</ele>
        <time>2010-11-06T09:36:34Z</time>
      </trkpt>
      <trkpt lat="49.38813" lon="1.46137">
        <ele>169</ele>
        <time>2010-11-06T09:36:44Z</time>
      </trkpt>
      <trkpt lat="49.38796" lon="1.46099">
        <ele>168.589996</ele>
        <time>2010-11-06T09:36:51Z</time>
      </trkpt>
      <trkpt lat="49.3878" lon="1.46065">
        <ele>168.088745</ele>
        <time>2010-11-06T09:36:57Z</time>
      </trkpt>
      <trkpt lat="49.3877" lon="1.46042">
        <ele>167.509995</ele>
        <time>2010-11-06T09:37:01Z</time>
      </trkpt>
      <trkpt lat="49.38747" lon="1.45985">
        <ele>165.403748</ele>
        <time>2010-11-06T09:37:11Z</time>
      </trkpt>
      <trkpt lat="49.3873" lon="1.45939">
        <ele>163.047501</ele>
        <time>2010-11-06T09:37:18Z</time>
      </trkpt>
      <trkpt lat="49.38714" lon="1.45907">
        <ele>160.456497</ele>
        <time>2010-11-06T09:37:22Z</time>
      </trkpt>
      <trkpt lat="49.38691" lon="1.45851">
        <ele>153.419998</ele>
        <time>2010-11-06T09:37:33Z</time>
      </trkpt>
      <trkpt lat="49.38678" lon="1.45818">
        <ele>148.470001</ele>
        <time>2010-11-06T09:37:44Z</time>
      </trkpt>
      <trkpt lat="49.38673" lon="1.45801">
        <ele>146.050003</ele>
        <time>2010-11-06T09:37:47Z</time>
      </trkpt>
      <trkpt lat="49.38645" lon="1.45732">
        <ele>145.284805</ele>
        <time>2010-11-06T09:37:57Z</time>
      </trkpt>
      <trkpt lat="49.38634" lon="1.45711">
        <ele>147.192505</ele>
        <time>2010-11-06T09:38:06Z</time>
      </trkpt>
      <trkpt lat="49.38632" lon="1.45702">
        <ele>147.992508</ele>
        <time>2010-11-06T09:38:20Z</time>
      </trkpt>
      <trkpt lat="49.3865" lon="1.45673">
        <ele>144.779999</ele>
        <time>2010-11-06T09:38:32Z</time>
      </trkpt>
      <trkpt lat="49.38672" lon="1.45631">
        <ele>141.272751</ele>
        <time>2010-11-06T09:38:41Z</time>
      </trkpt>
      <trkpt lat="49.38683" lon="1.45613">
        <ele>139.565079</ele>
        <time>2010-11-06T09:38:44Z</time>
      </trkpt>
      <trkpt lat="49.38695" lon="1.45589">
        <ele>137.871094</ele>
        <time>2010-11-06T09:38:47Z</time>
      </trkpt>
      <trkpt lat="49.38715" lon="1.45552">
        <ele>133.748642</ele>
        <time>2010-11-06T09:38:53Z</time>
      </trkpt>
      <trkpt lat="49.3872" lon="1.45536">
        <ele>132.837311</ele>
        <time>2010-11-06T09:38:55Z</time>
      </trkpt>
      <trkpt lat="49.3873" lon="1.45495">
        <ele>130.379822</ele>
        <time>2010-11-06T09:39:00Z</time>
      </trkpt>
      <trkpt lat="49.38733" lon="1.45474">
        <ele>129.333221</ele>
        <time>2010-11-06T09:39:02Z</time>
      </trkpt>
      <trkpt lat="49.38746" lon="1.45367">
        <ele>123.118752</ele>
        <time>2010-11-06T09:39:13Z</time>
      </trkpt>
      <trkpt lat="49.38746" lon="1.45357">
        <ele>122.739998</ele>
        <time>2010-11-06T09:39:14Z</time>
      </trkpt>
      <trkpt lat="49.38739" lon="1.45272">
        <ele>119.845001</ele>
        <time>2010-11-06T09:39:22Z</time>
      </trkpt>
      <trkpt lat="49.38765" lon="1.45242">
        <ele>112.752708</ele>
        <time>2010-11-06T09:39:30Z</time>
      </trkpt>
      <trkpt lat="49.38772" lon="1.45247">
        <ele>111.587746</ele>
        <time>2010-11-06T09:39:32Z</time>
      </trkpt>
      <trkpt lat="49.38784" lon="1.4527">
        <ele>109.774254</ele>
        <time>2010-11-06T09:39:37Z</time>
      </trkpt>
      <trkpt lat="49.38807" lon="1.45336">
        <ele>106.359451</ele>
        <time>2010-11-06T09:39:46Z</time>
      </trkpt>
      <trkpt lat="49.38811" lon="1.4535">
        <ele>105.909996</ele>
        <time>2010-11-06T09:39:48Z</time>
      </trkpt>
      <trkpt lat="49.38816" lon="1.45363">
        <ele>105.413124</ele>
        <time>2010-11-06T09:39:50Z</time>
      </trkpt>
      <trkpt lat="49.3882" lon="1.4539">
        <ele>105.726677</ele>
        <time>2010-11-06T09:39:54Z</time>
      </trkpt>
      <trkpt lat="49.38819" lon="1.45404">
        <ele>106.528633</ele>
        <time>2010-11-06T09:39:56Z</time>
      </trkpt>
      <trkpt lat="49.38813" lon="1.45451">
        <ele>109.814423</ele>
        <time>2010-11-06T09:40:02Z</time>
      </trkpt>
      <trkpt lat="49.3882" lon="1.45481">
        <ele>110.761871</ele>
        <time>2010-11-06T09:40:08Z</time>
      </trkpt>
      <trkpt lat="49.3883" lon="1.45481">
        <ele>109.589798</ele>
        <time>2010-11-06T09:40:11Z</time>
      </trkpt>
      <trkpt lat="49.38843" lon="1.45455">
        <ele>105.514122</ele>
        <time>2010-11-06T09:40:15Z</time>
      </trkpt>
      <trkpt lat="49.38868" lon="1.45356">
        <ele>96.860786</ele>
        <time>2010-11-06T09:40:25Z</time>
      </trkpt>
      <trkpt lat="49.38894" lon="1.45307">
        <ele>92.537598</ele>
        <time>2010-11-06T09:40:31Z</time>
      </trkpt>
      <trkpt lat="49.3891" lon="1.45269">
        <ele>90.034271</ele>
        <time>2010-11-06T09:40:35Z</time>
      </trkpt>
      <trkpt lat="49.38922" lon="1.45232">
        <ele>87.396988</ele>
        <time>2010-11-06T09:40:39Z</time>
      </trkpt>
      <trkpt lat="49.38969" lon="1.45145">
        <ele>80.858063</ele>
        <time>2010-11-06T09:40:50Z</time>
      </trkpt>
      <trkpt lat="49.3899" lon="1.45119">
        <ele>78.441574</ele>
        <time>2010-11-06T09:40:55Z</time>
      </trkpt>
      <trkpt lat="49.38994" lon="1.45079">
        <ele>76.690002</ele>
        <time>2010-11-06T09:41:02Z</time>
      </trkpt>
      <trkpt lat="49.38994" lon="1.45077">
        <ele>76.620003</ele>
        <time>2010-11-06T09:41:11Z</time>
      </trkpt>
      <trkpt lat="49.38996" lon="1.45065">
        <ele>76.144997</ele>
        <time>2010-11-06T09:41:23Z</time>
      </trkpt>
      <trkpt lat="49.38999" lon="1.45051">
        <ele>75.567497</ele>
        <time>2010-11-06T09:41:32Z</time>
      </trkpt>
      <trkpt lat="49.39" lon="1.45053">
        <ele>75.517502</ele>
        <time>2010-11-06T09:41:45Z</time>
      </trkpt>
      <trkpt lat="49.39004" lon="1.4506">
        <ele>75.477501</ele>
        <time>2010-11-06T09:41:49Z</time>
      </trkpt>
      <trkpt lat="49.39014" lon="1.45072">
        <ele>75.1325</ele>
        <time>2010-11-06T09:41:53Z</time>
      </trkpt>
      <trkpt lat="49.39029" lon="1.45068">
        <ele>74.05162</ele>
        <time>2010-11-06T09:41:57Z</time>
      </trkpt>
      <trkpt lat="49.39086" lon="1.44967">
        <ele>70.426552</ele>
        <time>2010-11-06T09:42:11Z</time>
      </trkpt>
      <trkpt lat="49.39112" lon="1.44922">
        <ele>71.3871</ele>
        <time>2010-11-06T09:42:22Z</time>
      </trkpt>
      <trkpt lat="49.39152" lon="1.44868">
        <ele>77.241325</ele>
        <time>2010-11-06T09:42:39Z</time>
      </trkpt>
      <trkpt lat="49.39175" lon="1.4487">
        <ele>82.502373</ele>
        <time>2010-11-06T09:42:56Z</time>
      </trkpt>
      <trkpt lat="49.39195" lon="1.44889">
        <ele>85.807373</ele>
        <time>2010-11-06T09:43:13Z</time>
      </trkpt>
      <trkpt lat="49.39212" lon="1.44904">
        <ele>89.104004</ele>
        <time>2010-11-06T09:43:27Z</time>
      </trkpt>
      <trkpt lat="49.39216" lon="1.4491">
        <ele>89.4748</ele>
        <time>2010-11-06T09:43:33Z</time>
      </trkpt>
      <trkpt lat="49.39221" lon="1.4492">
        <ele>89.751328</ele>
        <time>2010-11-06T09:43:41Z</time>
      </trkpt>
      <trkpt lat="49.3922" lon="1.44914">
        <ele>90.339554</ele>
        <time>2010-11-06T09:43:45Z</time>
      </trkpt>
      <trkpt lat="49.39217" lon="1.44902">
        <ele>90.808716</ele>
        <time>2010-11-06T09:43:51Z</time>
      </trkpt>
      <trkpt lat="49.39216" lon="1.44895">
        <ele>91.274734</ele>
        <time>2010-11-06T09:43:54Z</time>
      </trkpt>
      <trkpt lat="49.39213" lon="1.4486">
        <ele>94.628441</ele>
        <time>2010-11-06T09:44:10Z</time>
      </trkpt>
      <trkpt lat="49.39208" lon="1.44825">
        <ele>97.108727</ele>
        <time>2010-11-06T09:44:28Z</time>
      </trkpt>
      <trkpt lat="49.39201" lon="1.44797">
        <ele>99.15464</ele>
        <time>2010-11-06T09:44:44Z</time>
      </trkpt>
      <trkpt lat="49.39194" lon="1.44759">
        <ele>103.919197</ele>
        <time>2010-11-06T09:45:04Z</time>
      </trkpt>
      <trkpt lat="49.39189" lon="1.4473">
        <ele>107.616577</ele>
        <time>2010-11-06T09:45:20Z</time>
      </trkpt>
      <trkpt lat="49.39184" lon="1.44709">
        <ele>109.895142</ele>
        <time>2010-11-06T09:45:32Z</time>
      </trkpt>
      <trkpt lat="49.3918" lon="1.44695">
        <ele>111.115929</ele>
        <time>2010-11-06T09:45:46Z</time>
      </trkpt>
      <trkpt lat="49.39173" lon="1.44696">
        <ele>108.815598</ele>
        <time>2010-11-06T09:46:35Z</time>
      </trkpt>
      <trkpt lat="49.39156" lon="1.44696">
        <ele>103.275574</ele>
        <time>2010-11-06T09:49:25Z</time>
      </trkpt>
      <trkpt lat="49.39172" lon="1.4469">
        <ele>109.465485</ele>
        <time>2010-11-06T09:50:17Z</time>
      </trkpt>
      <trkpt lat="49.3917" lon="1.44692">
        <ele>108.652565</ele>
        <time>2010-11-06T09:51:15Z</time>
      </trkpt>
      <trkpt lat="49.39173" lon="1.44693">
        <ele>109.17794</ele>
        <time>2010-11-06T09:52:13Z</time>
      </trkpt>
      <trkpt lat="49.39171" lon="1.44695">
        <ele>108.307587</ele>
        <time>2010-11-06T09:52:51Z</time>
      </trkpt>
      <trkpt lat="49.39166" lon="1.44697">
        <ele>106.364899</ele>
        <time>2010-11-06T09:53:26Z</time>
      </trkpt>
      <trkpt lat="49.39164" lon="1.44699">
        <ele>105.372002</ele>
        <time>2010-11-06T09:53:55Z</time>
      </trkpt>
      <trkpt lat="49.3917" lon="1.44694">
        <ele>108.139236</ele>
        <time>2010-11-06T09:54:23Z</time>
      </trkpt>
      <trkpt lat="49.39162" lon="1.447">
        <ele>104.426636</ele>
        <time>2010-11-06T09:55:01Z</time>
      </trkpt>
      <trkpt lat="49.39169" lon="1.44696">
        <ele>107.457848</ele>
        <time>2010-11-06T09:55:56Z</time>
      </trkpt>
      <trkpt lat="49.39172" lon="1.44695">
        <ele>108.807434</ele>
        <time>2010-11-06T09:56:38Z</time>
      </trkpt>
      <trkpt lat="49.39176" lon="1.44692">
        <ele>110.707703</ele>
        <time>2010-11-06T09:57:03Z</time>
      </trkpt>
      <trkpt lat="49.39173" lon="1.44692">
        <ele>109.449051</ele>
        <time>2010-11-06T09:57:55Z</time>
      </trkpt>
      <trkpt lat="49.39173" lon="1.44682">
        <ele>111.269417</ele>
        <time>2010-11-06T09:58:12Z</time>
      </trkpt>
      <trkpt lat="49.3917" lon="1.44662">
        <ele>113.979996</ele>
        <time>2010-11-06T09:58:26Z</time>
      </trkpt>
      <trkpt lat="49.39167" lon="1.4465">
        <ele>115.018501</ele>
        <time>2010-11-06T09:58:32Z</time>
      </trkpt>
      <trkpt lat="49.39164" lon="1.4464">
        <ele>116.000053</ele>
        <time>2010-11-06T09:58:37Z</time>
      </trkpt>
      <trkpt lat="49.39152" lon="1.44616">
        <ele>117.302322</ele>
        <time>2010-11-06T09:58:53Z</time>
      </trkpt>
      <trkpt lat="49.39141" lon="1.44591">
        <ele>119.236549</ele>
        <time>2010-11-06T09:59:08Z</time>
      </trkpt>
      <trkpt lat="49.39133" lon="1.4457">
        <ele>121.248985</ele>
        <time>2010-11-06T09:59:22Z</time>
      </trkpt>
      <trkpt lat="49.3913" lon="1.44562">
        <ele>121.918434</ele>
        <time>2010-11-06T09:59:38Z</time>
      </trkpt>
      <trkpt lat="49.39129" lon="1.44558">
        <ele>122.392639</ele>
        <time>2010-11-06T10:00:08Z</time>
      </trkpt>
      <trkpt lat="49.39127" lon="1.44556">
        <ele>122.378891</ele>
        <time>2010-11-06T10:00:38Z</time>
      </trkpt>
      <trkpt lat="49.3912" lon="1.4454">
        <ele>123.697563</ele>
        <time>2010-11-06T10:00:50Z</time>
      </trkpt>
      <trkpt lat="49.39119" lon="1.44539">
        <ele>123.757324</ele>
        <time>2010-11-06T10:00:51Z</time>
      </trkpt>
      <trkpt lat="49.39114" lon="1.44528">
        <ele>124.774399</ele>
        <time>2010-11-06T10:00:57Z</time>
      </trkpt>
      <trkpt lat="49.39098" lon="1.44502">
        <ele>127.127502</ele>
        <time>2010-11-06T10:01:12Z</time>
      </trkpt>
      <trkpt lat="49.3909" lon="1.44487">
        <ele>128.84375</ele>
        <time>2010-11-06T10:01:20Z</time>
      </trkpt>
      <trkpt lat="49.39085" lon="1.44457">
        <ele>132.869797</ele>
        <time>2010-11-06T10:01:33Z</time>
      </trkpt>
      <trkpt lat="49.39083" lon="1.44445">
        <ele>134.272995</ele>
        <time>2010-11-06T10:01:39Z</time>
      </trkpt>
      <trkpt lat="49.39081" lon="1.44429">
        <ele>136.041626</ele>
        <time>2010-11-06T10:01:47Z</time>
      </trkpt>
      <trkpt lat="49.39073" lon="1.44394">
        <ele>139.447281</ele>
        <time>2010-11-06T10:02:04Z</time>
      </trkpt>
      <trkpt lat="49.39071" lon="1.44382">
        <ele>140.063812</ele>
        <time>2010-11-06T10:02:10Z</time>
      </trkpt>
      <trkpt lat="49.3907" lon="1.44366">
        <ele>140.995605</ele>
        <time>2010-11-06T10:02:17Z</time>
      </trkpt>
      <trkpt lat="49.39066" lon="1.44344">
        <ele>142.360199</ele>
        <time>2010-11-06T10:02:27Z</time>
      </trkpt>
      <trkpt lat="49.39066" lon="1.44336">
        <ele>142.939697</ele>
        <time>2010-11-06T10:02:45Z</time>
      </trkpt>
      <trkpt lat="49.39063" lon="1.44328">
        <ele>142.967194</ele>
        <time>2010-11-06T10:03:14Z</time>
      </trkpt>
      <trkpt lat="49.39041" lon="1.4428">
        <ele>142.931458</ele>
        <time>2010-11-06T10:03:35Z</time>
      </trkpt>
      <trkpt lat="49.39028" lon="1.44221">
        <ele>143.210007</ele>
        <time>2010-11-06T10:03:51Z</time>
      </trkpt>
      <trkpt lat="49.3902" lon="1.44142">
        <ele>142.248749</ele>
        <time>2010-11-06T10:04:07Z</time>
      </trkpt>
      <trkpt lat="49.39019" lon="1.4413">
        <ele>142.044998</ele>
        <time>2010-11-06T10:04:09Z</time>
      </trkpt>
      <trkpt lat="49.39016" lon="1.44105">
        <ele>141.65715</ele>
        <time>2010-11-06T10:04:13Z</time>
      </trkpt>
      <trkpt lat="49.39013" lon="1.44074">
        <ele>141.139252</ele>
        <time>2010-11-06T10:04:18Z</time>
      </trkpt>
      <trkpt lat="49.39016" lon="1.44025">
        <ele>139.982498</ele>
        <time>2010-11-06T10:04:26Z</time>
      </trkpt>
      <trkpt lat="49.39053" lon="1.44012">
        <ele>141.005264</ele>
        <time>2010-11-06T10:04:39Z</time>
      </trkpt>
      <trkpt lat="49.39111" lon="1.44008">
        <ele>142.383759</ele>
        <time>2010-11-06T10:04:57Z</time>
      </trkpt>
      <trkpt lat="49.39171" lon="1.44006">
        <ele>143.690002</ele>
        <time>2010-11-06T10:05:14Z</time>
      </trkpt>
      <trkpt lat="49.39232" lon="1.44007">
        <ele>145.080002</ele>
        <time>2010-11-06T10:05:33Z</time>
      </trkpt>
      <trkpt lat="49.39266" lon="1.44002">
        <ele>145.369308</ele>
        <time>2010-11-06T10:05:49Z</time>
      </trkpt>
      <trkpt lat="49.39301" lon="1.43989">
        <ele>144.78067</ele>
        <time>2010-11-06T10:06:02Z</time>
      </trkpt>
      <trkpt lat="49.39342" lon="1.43977">
        <ele>143.770004</ele>
        <time>2010-11-06T10:06:17Z</time>
      </trkpt>
      <trkpt lat="49.39393" lon="1.43961">
        <ele>144.107498</ele>
        <time>2010-11-06T10:06:31Z</time>
      </trkpt>
      <trkpt lat="49.3944" lon="1.43947">
        <ele>145.824997</ele>
        <time>2010-11-06T10:06:46Z</time>
      </trkpt>
      <trkpt lat="49.39497" lon="1.43922">
        <ele>147.669998</ele>
        <time>2010-11-06T10:07:07Z</time>
      </trkpt>
      <trkpt lat="49.39544" lon="1.43896">
        <ele>147.974304</ele>
        <time>2010-11-06T10:07:27Z</time>
      </trkpt>
      <trkpt lat="49.39552" lon="1.43891">
        <ele>147.965195</ele>
        <time>2010-11-06T10:07:30Z</time>
      </trkpt>
      <trkpt lat="49.39557" lon="1.43872">
        <ele>147.287506</ele>
        <time>2010-11-06T10:07:35Z</time>
      </trkpt>
      <trkpt lat="49.39557" lon="1.43789">
        <ele>142.959122</ele>
        <time>2010-11-06T10:07:53Z</time>
      </trkpt>
      <trkpt lat="49.39561" lon="1.43723">
        <ele>139.969757</ele>
        <time>2010-11-06T10:08:06Z</time>
      </trkpt>
      <trkpt lat="49.39567" lon="1.43603">
        <ele>137.822495</ele>
        <time>2010-11-06T10:08:24Z</time>
      </trkpt>
      <trkpt lat="49.39568" lon="1.43571">
        <ele>137.381256</ele>
        <time>2010-11-06T10:08:29Z</time>
      </trkpt>
      <trkpt lat="49.39547" lon="1.43485">
        <ele>135.497498</ele>
        <time>2010-11-06T10:08:42Z</time>
      </trkpt>
      <trkpt lat="49.39526" lon="1.43392">
        <ele>132.881256</ele>
        <time>2010-11-06T10:08:54Z</time>
      </trkpt>
      <trkpt lat="49.39504" lon="1.43277">
        <ele>130.981186</ele>
        <time>2010-11-06T10:09:08Z</time>
      </trkpt>
      <trkpt lat="49.39485" lon="1.43205">
        <ele>131</ele>
        <time>2010-11-06T10:09:22Z</time>
      </trkpt>
      <trkpt lat="49.39467" lon="1.43162">
        <ele>131</ele>
        <time>2010-11-06T10:09:35Z</time>
      </trkpt>
      <trkpt lat="49.39436" lon="1.43135">
        <ele>131</ele>
        <time>2010-11-06T10:09:50Z</time>
      </trkpt>
      <trkpt lat="49.39413" lon="1.43107">
        <ele>130.964996</ele>
        <time>2010-11-06T10:10:01Z</time>
      </trkpt>
      <trkpt lat="49.39409" lon="1.43104">
        <ele>130.875</ele>
        <time>2010-11-06T10:10:16Z</time>
      </trkpt>
      <trkpt lat="49.39408" lon="1.43104">
        <ele>130.860001</ele>
        <time>2010-11-06T10:10:20Z</time>
      </trkpt>
      <trkpt lat="49.39396" lon="1.43108">
        <ele>130.600006</ele>
        <time>2010-11-06T10:10:26Z</time>
      </trkpt>
      <trkpt lat="49.39382" lon="1.43111">
        <ele>130.270004</ele>
        <time>2010-11-06T10:10:30Z</time>
      </trkpt>
      <trkpt lat="49.39354" lon="1.43124">
        <ele>129.654999</ele>
        <time>2010-11-06T10:10:36Z</time>
      </trkpt>
      <trkpt lat="49.39338" lon="1.43125">
        <ele>129.304993</ele>
        <time>2010-11-06T10:10:39Z</time>
      </trkpt>
      <trkpt lat="49.39318" lon="1.43131">
        <ele>128.753357</ele>
        <time>2010-11-06T10:10:43Z</time>
      </trkpt>
      <trkpt lat="49.39278" lon="1.43111">
        <ele>127.657486</ele>
        <time>2010-11-06T10:10:51Z</time>
      </trkpt>
      <trkpt lat="49.39264" lon="1.43088">
        <ele>127.328972</ele>
        <time>2010-11-06T10:10:55Z</time>
      </trkpt>
      <trkpt lat="49.39224" lon="1.43013">
        <ele>126.769997</ele>
        <time>2010-11-06T10:11:07Z</time>
      </trkpt>
      <trkpt lat="49.39158" lon="1.42882">
        <ele>125.267502</ele>
        <time>2010-11-06T10:11:28Z</time>
      </trkpt>
      <trkpt lat="49.39116" lon="1.42824">
        <ele>122.871254</ele>
        <time>2010-11-06T10:11:39Z</time>
      </trkpt>
      <trkpt lat="49.3911" lon="1.42797">
        <ele>122.146782</ele>
        <time>2010-11-06T10:11:44Z</time>
      </trkpt>
      <trkpt lat="49.39111" lon="1.42738">
        <ele>121.122498</ele>
        <time>2010-11-06T10:11:57Z</time>
      </trkpt>
      <trkpt lat="49.39101" lon="1.4269">
        <ele>120.231247</ele>
        <time>2010-11-06T10:12:08Z</time>
      </trkpt>
      <trkpt lat="49.39077" lon="1.42638">
        <ele>119.279503</ele>
        <time>2010-11-06T10:12:20Z</time>
      </trkpt>
      <trkpt lat="49.39058" lon="1.42584">
        <ele>117.809814</ele>
        <time>2010-11-06T10:12:31Z</time>
      </trkpt>
      <trkpt lat="49.39052" lon="1.4256">
        <ele>117.248222</ele>
        <time>2010-11-06T10:12:35Z</time>
      </trkpt>
      <trkpt lat="49.39043" lon="1.42537">
        <ele>116.72625</ele>
        <time>2010-11-06T10:12:39Z</time>
      </trkpt>
      <trkpt lat="49.39017" lon="1.42497">
        <ele>115.557503</ele>
        <time>2010-11-06T10:12:48Z</time>
      </trkpt>
      <trkpt lat="49.39006" lon="1.42469">
        <ele>114.79541</ele>
        <time>2010-11-06T10:12:53Z</time>
      </trkpt>
      <trkpt lat="49.38957" lon="1.42375">
        <ele>110.826248</ele>
        <time>2010-11-06T10:13:08Z</time>
      </trkpt>
      <trkpt lat="49.3895" lon="1.42363">
        <ele>109.772797</ele>
        <time>2010-11-06T10:13:10Z</time>
      </trkpt>
      <trkpt lat="49.38937" lon="1.42335">
        <ele>107.330002</ele>
        <time>2010-11-06T10:13:15Z</time>
      </trkpt>
      <trkpt lat="49.38925" lon="1.42316">
        <ele>105.447502</ele>
        <time>2010-11-06T10:13:19Z</time>
      </trkpt>
      <trkpt lat="49.38913" lon="1.42304">
        <ele>103.960648</ele>
        <time>2010-11-06T10:13:24Z</time>
      </trkpt>
      <trkpt lat="49.38881" lon="1.42292">
        <ele>104.429688</ele>
        <time>2010-11-06T10:13:34Z</time>
      </trkpt>
      <trkpt lat="49.38877" lon="1.42287">
        <ele>104.559532</ele>
        <time>2010-11-06T10:13:36Z</time>
      </trkpt>
      <trkpt lat="49.38877" lon="1.42271">
        <ele>104.680885</ele>
        <time>2010-11-06T10:13:49Z</time>
      </trkpt>
      <trkpt lat="49.3888" lon="1.42246">
        <ele>104.681099</ele>
        <time>2010-11-06T10:15:01Z</time>
      </trkpt>
      <trkpt lat="49.38902" lon="1.42182">
        <ele>102.915474</ele>
        <time>2010-11-06T10:15:14Z</time>
      </trkpt>
      <trkpt lat="49.38911" lon="1.42136">
        <ele>101.291611</ele>
        <time>2010-11-06T10:15:22Z</time>
      </trkpt>
      <trkpt lat="49.38918" lon="1.42069">
        <ele>101</ele>
        <time>2010-11-06T10:15:33Z</time>
      </trkpt>
      <trkpt lat="49.38927" lon="1.41976">
        <ele>100.700066</ele>
        <time>2010-11-06T10:15:45Z</time>
      </trkpt>
      <trkpt lat="49.38931" lon="1.41923">
        <ele>101.116249</ele>
        <time>2010-11-06T10:15:51Z</time>
      </trkpt>
      <trkpt lat="49.38932" lon="1.41907">
        <ele>100.985001</ele>
        <time>2010-11-06T10:15:53Z</time>
      </trkpt>
      <trkpt lat="49.38935" lon="1.41799">
        <ele>100.178902</ele>
        <time>2010-11-06T10:16:04Z</time>
      </trkpt>
      <trkpt lat="49.38954" lon="1.41679">
        <ele>96.18</ele>
        <time>2010-11-06T10:16:20Z</time>
      </trkpt>
      <trkpt lat="49.39005" lon="1.41569">
        <ele>92.04493</ele>
        <time>2010-11-06T10:16:35Z</time>
      </trkpt>
      <trkpt lat="49.39047" lon="1.41487">
        <ele>90.968246</ele>
        <time>2010-11-06T10:16:45Z</time>
      </trkpt>
      <trkpt lat="49.39107" lon="1.41363">
        <ele>89.433624</ele>
        <time>2010-11-06T10:17:01Z</time>
      </trkpt>
      <trkpt lat="49.39134" lon="1.41303">
        <ele>86.862106</ele>
        <time>2010-11-06T10:17:08Z</time>
      </trkpt>
      <trkpt lat="49.39146" lon="1.41244">
        <ele>90.298759</ele>
        <time>2010-11-06T10:17:14Z</time>
      </trkpt>
      <trkpt lat="49.39129" lon="1.41121">
        <ele>83.085487</ele>
        <time>2010-11-06T10:17:26Z</time>
      </trkpt>
      <trkpt lat="49.39123" lon="1.41079">
        <ele>82.895897</ele>
        <time>2010-11-06T10:17:30Z</time>
      </trkpt>
      <trkpt lat="49.39138" lon="1.40963">
        <ele>81.488297</ele>
        <time>2010-11-06T10:17:41Z</time>
      </trkpt>
      <trkpt lat="49.39177" lon="1.408">
        <ele>76.143753</ele>
        <time>2010-11-06T10:17:57Z</time>
      </trkpt>
      <trkpt lat="49.39178" lon="1.40789">
        <ele>76.382065</ele>
        <time>2010-11-06T10:17:58Z</time>
      </trkpt>
      <trkpt lat="49.39186" lon="1.40632">
        <ele>74.58876</ele>
        <time>2010-11-06T10:18:12Z</time>
      </trkpt>
      <trkpt lat="49.39186" lon="1.40507">
        <ele>71.240051</ele>
        <time>2010-11-06T10:18:22Z</time>
      </trkpt>
      <trkpt lat="49.39186" lon="1.40351">
        <ele>64.667503</ele>
        <time>2010-11-06T10:18:35Z</time>
      </trkpt>
      <trkpt lat="49.39203" lon="1.40329">
        <ele>65.863602</ele>
        <time>2010-11-06T10:18:41Z</time>
      </trkpt>
      <trkpt lat="49.3927" lon="1.4035">
        <ele>73.673752</ele>
        <time>2010-11-06T10:18:58Z</time>
      </trkpt>
      <trkpt lat="49.3927" lon="1.4035">
        <ele>73.729698</ele>
        <time>2010-11-06T10:19:09Z</time>
      </trkpt>
      <trkpt lat="49.39274" lon="1.40353">
        <ele>74.155251</ele>
        <time>2010-11-06T10:19:14Z</time>
      </trkpt>
      <trkpt lat="49.39299" lon="1.40355">
        <ele>75.273872</ele>
        <time>2010-11-06T10:19:31Z</time>
      </trkpt>
      <trkpt lat="49.3933" lon="1.40357">
        <ele>76.387497</ele>
        <time>2010-11-06T10:19:47Z</time>
      </trkpt>
      <trkpt lat="49.39371" lon="1.40361">
        <ele>77.462502</ele>
        <time>2010-11-06T10:20:02Z</time>
      </trkpt>
      <trkpt lat="49.39434" lon="1.40364">
        <ele>76.385002</ele>
        <time>2010-11-06T10:20:22Z</time>
      </trkpt>
      <trkpt lat="49.39482" lon="1.40382">
        <ele>75.520798</ele>
        <time>2010-11-06T10:20:40Z</time>
      </trkpt>
      <trkpt lat="49.39521" lon="1.40445">
        <ele>77.698128</ele>
        <time>2010-11-06T10:20:59Z</time>
      </trkpt>
      <trkpt lat="49.39538" lon="1.4049">
        <ele>80.162804</ele>
        <time>2010-11-06T10:21:13Z</time>
      </trkpt>
      <trkpt lat="49.3956" lon="1.4057">
        <ele>83.792122</ele>
        <time>2010-11-06T10:21:32Z</time>
      </trkpt>
      <trkpt lat="49.39577" lon="1.40635">
        <ele>80.890579</ele>
        <time>2010-11-06T10:21:48Z</time>
      </trkpt>
      <trkpt lat="49.39595" lon="1.40694">
        <ele>81.773804</ele>
        <time>2010-11-06T10:22:04Z</time>
      </trkpt>
      <trkpt lat="49.39622" lon="1.40729">
        <ele>79.414253</ele>
        <time>2010-11-06T10:22:19Z</time>
      </trkpt>
      <trkpt lat="49.39651" lon="1.40764">
        <ele>83.357124</ele>
        <time>2010-11-06T10:22:34Z</time>
      </trkpt>
      <trkpt lat="49.39675" lon="1.40792">
        <ele>87.062149</ele>
        <time>2010-11-06T10:22:47Z</time>
      </trkpt>
      <trkpt lat="49.39693" lon="1.40826">
        <ele>91.240402</ele>
        <time>2010-11-06T10:23:00Z</time>
      </trkpt>
      <trkpt lat="49.39704" lon="1.40863">
        <ele>95.325523</ele>
        <time>2010-11-06T10:23:13Z</time>
      </trkpt>
      <trkpt lat="49.39707" lon="1.40901">
        <ele>99.789101</ele>
        <time>2010-11-06T10:23:26Z</time>
      </trkpt>
      <trkpt lat="49.39703" lon="1.40951">
        <ele>105.599678</ele>
        <time>2010-11-06T10:23:40Z</time>
      </trkpt>
      <trkpt lat="49.39697" lon="1.40991">
        <ele>108.136353</ele>
        <time>2010-11-06T10:23:54Z</time>
      </trkpt>
      <trkpt lat="49.39688" lon="1.41025">
        <ele>110.004402</ele>
        <time>2010-11-06T10:24:06Z</time>
      </trkpt>
      <trkpt lat="49.39672" lon="1.41065">
        <ele>110.510864</ele>
        <time>2010-11-06T10:24:19Z</time>
      </trkpt>
      <trkpt lat="49.3967" lon="1.41072">
        <ele>110.821976</ele>
        <time>2010-11-06T10:24:22Z</time>
      </trkpt>
      <trkpt lat="49.39655" lon="1.41106">
        <ele>107.614128</ele>
        <time>2010-11-06T10:24:35Z</time>
      </trkpt>
      <trkpt lat="49.39643" lon="1.41133">
        <ele>104.401649</ele>
        <time>2010-11-06T10:24:48Z</time>
      </trkpt>
      <trkpt lat="49.39647" lon="1.41172">
        <ele>106.110001</ele>
        <time>2010-11-06T10:25:01Z</time>
      </trkpt>
      <trkpt lat="49.39655" lon="1.41188">
        <ele>107.699997</ele>
        <time>2010-11-06T10:25:07Z</time>
      </trkpt>
      <trkpt lat="49.39678" lon="1.41209">
        <ele>112.054398</ele>
        <time>2010-11-06T10:25:23Z</time>
      </trkpt>
      <trkpt lat="49.39702" lon="1.41227">
        <ele>114.080284</ele>
        <time>2010-11-06T10:25:39Z</time>
      </trkpt>
      <trkpt lat="49.39712" lon="1.41232">
        <ele>114.578339</ele>
        <time>2010-11-06T10:26:15Z</time>
      </trkpt>
      <trkpt lat="49.39711" lon="1.41232">
        <ele>114.481499</ele>
        <time>2010-11-06T10:26:19Z</time>
      </trkpt>
      <trkpt lat="49.39715" lon="1.41233">
        <ele>114.857346</ele>
        <time>2010-11-06T10:26:23Z</time>
      </trkpt>
      <trkpt lat="49.39722" lon="1.41239">
        <ele>114.57309</ele>
        <time>2010-11-06T10:26:30Z</time>
      </trkpt>
      <trkpt lat="49.39726" lon="1.41243">
        <ele>114.256248</ele>
        <time>2010-11-06T10:26:34Z</time>
      </trkpt>
      <trkpt lat="49.39737" lon="1.41247">
        <ele>114.541252</ele>
        <time>2010-11-06T10:26:41Z</time>
      </trkpt>
      <trkpt lat="49.39764" lon="1.41262">
        <ele>114.999001</ele>
        <time>2010-11-06T10:26:55Z</time>
      </trkpt>
      <trkpt lat="49.39784" lon="1.41275">
        <ele>115.755577</ele>
        <time>2010-11-06T10:27:06Z</time>
      </trkpt>
      <trkpt lat="49.3981" lon="1.41292">
        <ele>117.414017</ele>
        <time>2010-11-06T10:27:22Z</time>
      </trkpt>
      <trkpt lat="49.3982" lon="1.41298">
        <ele>117.957436</ele>
        <time>2010-11-06T10:27:36Z</time>
      </trkpt>
      <trkpt lat="49.39821" lon="1.41293">
        <ele>118.362373</ele>
        <time>2010-11-06T10:28:10Z</time>
      </trkpt>
      <trkpt lat="49.39825" lon="1.41293">
        <ele>118.729103</ele>
        <time>2010-11-06T10:28:33Z</time>
      </trkpt>
      <trkpt lat="49.39827" lon="1.41287">
        <ele>119.236252</ele>
        <time>2010-11-06T10:28:54Z</time>
      </trkpt>
      <trkpt lat="49.39836" lon="1.41278">
        <ele>120.256142</ele>
        <time>2010-11-06T10:29:15Z</time>
      </trkpt>
      <trkpt lat="49.39841" lon="1.41278">
        <ele>120.677002</ele>
        <time>2010-11-06T10:29:29Z</time>
      </trkpt>
      <trkpt lat="49.39857" lon="1.41264">
        <ele>122.225197</ele>
        <time>2010-11-06T10:29:44Z</time>
      </trkpt>
      <trkpt lat="49.39861" lon="1.4126">
        <ele>122.529137</ele>
        <time>2010-11-06T10:29:48Z</time>
      </trkpt>
      <trkpt lat="49.39875" lon="1.4125">
        <ele>123.567535</ele>
        <time>2010-11-06T10:29:59Z</time>
      </trkpt>
      <trkpt lat="49.39892" lon="1.41246">
        <ele>124.507675</ele>
        <time>2010-11-06T10:30:09Z</time>
      </trkpt>
      <trkpt lat="49.39922" lon="1.41245">
        <ele>125.269997</ele>
        <time>2010-11-06T10:30:26Z</time>
      </trkpt>
      <trkpt lat="49.39942" lon="1.41242">
        <ele>125.761253</ele>
        <time>2010-11-06T10:30:39Z</time>
      </trkpt>
      <trkpt lat="49.39946" lon="1.41242">
        <ele>125.846252</ele>
        <time>2010-11-06T10:30:42Z</time>
      </trkpt>
      <trkpt lat="49.39961" lon="1.41239">
        <ele>126.217499</ele>
        <time>2010-11-06T10:30:49Z</time>
      </trkpt>
      <trkpt lat="49.39993" lon="1.41234">
        <ele>126.832962</ele>
        <time>2010-11-06T10:31:02Z</time>
      </trkpt>
      <trkpt lat="49.40031" lon="1.41226">
        <ele>127.044998</ele>
        <time>2010-11-06T10:31:15Z</time>
      </trkpt>
      <trkpt lat="49.4007" lon="1.41219">
        <ele>127.910004</ele>
        <time>2010-11-06T10:31:27Z</time>
      </trkpt>
      <trkpt lat="49.40114" lon="1.4121">
        <ele>127.887497</ele>
        <time>2010-11-06T10:31:40Z</time>
      </trkpt>
      <trkpt lat="49.40155" lon="1.41202">
        <ele>127.785004</ele>
        <time>2010-11-06T10:31:51Z</time>
      </trkpt>
      <trkpt lat="49.40199" lon="1.4119">
        <ele>126.840004</ele>
        <time>2010-11-06T10:32:03Z</time>
      </trkpt>
      <trkpt lat="49.40238" lon="1.41185">
        <ele>126.257317</ele>
        <time>2010-11-06T10:32:14Z</time>
      </trkpt>
      <trkpt lat="49.40264" lon="1.41173">
        <ele>125.921562</ele>
        <time>2010-11-06T10:32:24Z</time>
      </trkpt>
      <trkpt lat="49.40302" lon="1.41169">
        <ele>126.333748</ele>
        <time>2010-11-06T10:32:36Z</time>
      </trkpt>
      <trkpt lat="49.40354" lon="1.41161">
        <ele>126.292572</ele>
        <time>2010-11-06T10:32:50Z</time>
      </trkpt>
      <trkpt lat="49.40395" lon="1.41164">
        <ele>126.574997</ele>
        <time>2010-11-06T10:33:03Z</time>
      </trkpt>
      <trkpt lat="49.40395" lon="1.41169">
        <ele>126.735001</ele>
        <time>2010-11-06T10:33:14Z</time>
      </trkpt>
      <trkpt lat="49.40394" lon="1.41168">
        <ele>126.707497</ele>
        <time>2010-11-06T10:33:38Z</time>
      </trkpt>
      <trkpt lat="49.40389" lon="1.41172">
        <ele>126.822502</ele>
        <time>2010-11-06T10:36:07Z</time>
      </trkpt>
      <trkpt lat="49.4039" lon="1.41172">
        <ele>126.807503</ele>
        <time>2010-11-06T10:36:45Z</time>
      </trkpt>
      <trkpt lat="49.40392" lon="1.41176">
        <ele>126.912498</ele>
        <time>2010-11-06T10:39:30Z</time>
      </trkpt>
      <trkpt lat="49.40384" lon="1.41184">
        <ele>127.094398</ele>
        <time>2010-11-06T10:41:10Z</time>
      </trkpt>
      <trkpt lat="49.40388" lon="1.41182">
        <ele>127.102501</ele>
        <time>2010-11-06T10:41:58Z</time>
      </trkpt>
      <trkpt lat="49.40393" lon="1.41183">
        <ele>127.114998</ele>
        <time>2010-11-06T10:42:44Z</time>
      </trkpt>
      <trkpt lat="49.40397" lon="1.41194">
        <ele>127.457497</ele>
        <time>2010-11-06T10:42:50Z</time>
      </trkpt>
      <trkpt lat="49.40401" lon="1.41227">
        <ele>128.199997</ele>
        <time>2010-11-06T10:42:59Z</time>
      </trkpt>
      <trkpt lat="49.40422" lon="1.41229">
        <ele>128.240005</ele>
        <time>2010-11-06T10:43:11Z</time>
      </trkpt>
      <trkpt lat="49.40445" lon="1.41231">
        <ele>128.282501</ele>
        <time>2010-11-06T10:43:20Z</time>
      </trkpt>
      <trkpt lat="49.40453" lon="1.41231">
        <ele>128.282501</ele>
        <time>2010-11-06T10:43:24Z</time>
      </trkpt>
      <trkpt lat="49.40485" lon="1.41225">
        <ele>128.193756</ele>
        <time>2010-11-06T10:43:36Z</time>
      </trkpt>
      <trkpt lat="49.40508" lon="1.41217">
        <ele>128.089996</ele>
        <time>2010-11-06T10:43:45Z</time>
      </trkpt>
      <trkpt lat="49.40542" lon="1.41211">
        <ele>127.573753</ele>
        <time>2010-11-06T10:43:57Z</time>
      </trkpt>
      <trkpt lat="49.40574" lon="1.41208">
        <ele>126.657501</ele>
        <time>2010-11-06T10:44:08Z</time>
      </trkpt>
      <trkpt lat="49.40613" lon="1.41202">
        <ele>124.784485</ele>
        <time>2010-11-06T10:44:19Z</time>
      </trkpt>
      <trkpt lat="49.40649" lon="1.41196">
        <ele>122.871078</ele>
        <time>2010-11-06T10:44:29Z</time>
      </trkpt>
      <trkpt lat="49.40658" lon="1.41195">
        <ele>122.413116</ele>
        <time>2010-11-06T10:44:31Z</time>
      </trkpt>
      <trkpt lat="49.4068" lon="1.41192">
        <ele>120.914268</ele>
        <time>2010-11-06T10:44:36Z</time>
      </trkpt>
      <trkpt lat="49.40696" lon="1.41194">
        <ele>120.031303</ele>
        <time>2010-11-06T10:44:41Z</time>
      </trkpt>
      <trkpt lat="49.40711" lon="1.41193">
        <ele>119.44519</ele>
        <time>2010-11-06T10:44:47Z</time>
      </trkpt>
      <trkpt lat="49.40749" lon="1.41187">
        <ele>118.892502</ele>
        <time>2010-11-06T10:45:02Z</time>
      </trkpt>
      <trkpt lat="49.40787" lon="1.41182">
        <ele>122.208748</ele>
        <time>2010-11-06T10:45:16Z</time>
      </trkpt>
      <trkpt lat="49.40817" lon="1.41178">
        <ele>124.058548</ele>
        <time>2010-11-06T10:45:28Z</time>
      </trkpt>
      <trkpt lat="49.40846" lon="1.41181">
        <ele>125.510002</ele>
        <time>2010-11-06T10:45:43Z</time>
      </trkpt>
      <trkpt lat="49.40876" lon="1.41178">
        <ele>126.105003</ele>
        <time>2010-11-06T10:45:56Z</time>
      </trkpt>
      <trkpt lat="49.40911" lon="1.4117">
        <ele>126.335724</ele>
        <time>2010-11-06T10:46:08Z</time>
      </trkpt>
      <trkpt lat="49.40951" lon="1.41164">
        <ele>126.531136</ele>
        <time>2010-11-06T10:46:21Z</time>
      </trkpt>
      <trkpt lat="49.41007" lon="1.41157">
        <ele>127.195</ele>
        <time>2010-11-06T10:46:37Z</time>
      </trkpt>
      <trkpt lat="49.41048" lon="1.41158">
        <ele>127.932388</ele>
        <time>2010-11-06T10:46:50Z</time>
      </trkpt>
      <trkpt lat="49.41098" lon="1.41155">
        <ele>128.28447</ele>
        <time>2010-11-06T10:47:04Z</time>
      </trkpt>
      <trkpt lat="49.4114" lon="1.41148">
        <ele>128</ele>
        <time>2010-11-06T10:47:16Z</time>
      </trkpt>
      <trkpt lat="49.41176" lon="1.41141">
        <ele>127.110001</ele>
        <time>2010-11-06T10:47:25Z</time>
      </trkpt>
      <trkpt lat="49.41226" lon="1.41133">
        <ele>126.868752</ele>
        <time>2010-11-06T10:47:37Z</time>
      </trkpt>
      <trkpt lat="49.41276" lon="1.41127">
        <ele>129.302505</ele>
        <time>2010-11-06T10:47:51Z</time>
      </trkpt>
      <trkpt lat="49.41319" lon="1.41121">
        <ele>131.272507</ele>
        <time>2010-11-06T10:48:05Z</time>
      </trkpt>
      <trkpt lat="49.41357" lon="1.41111">
        <ele>132.270157</ele>
        <time>2010-11-06T10:48:18Z</time>
      </trkpt>
      <trkpt lat="49.41401" lon="1.41099">
        <ele>133.173752</ele>
        <time>2010-11-06T10:48:32Z</time>
      </trkpt>
      <trkpt lat="49.41413" lon="1.41098">
        <ele>133.438751</ele>
        <time>2010-11-06T10:48:40Z</time>
      </trkpt>
      <trkpt lat="49.41426" lon="1.4109">
        <ele>133.664993</ele>
        <time>2010-11-06T10:48:47Z</time>
      </trkpt>
      <trkpt lat="49.41465" lon="1.41066">
        <ele>134.302505</ele>
        <time>2010-11-06T10:49:00Z</time>
      </trkpt>
      <trkpt lat="49.41477" lon="1.41054">
        <ele>133.941986</ele>
        <time>2010-11-06T10:49:10Z</time>
      </trkpt>
      <trkpt lat="49.41474" lon="1.41052">
        <ele>133.843063</ele>
        <time>2010-11-06T10:49:34Z</time>
      </trkpt>
      <trkpt lat="49.41492" lon="1.4104">
        <ele>133.466003</ele>
        <time>2010-11-06T10:49:50Z</time>
      </trkpt>
      <trkpt lat="49.41521" lon="1.41016">
        <ele>133.228973</ele>
        <time>2010-11-06T10:50:02Z</time>
      </trkpt>
      <trkpt lat="49.41545" lon="1.40997">
        <ele>133.270157</ele>
        <time>2010-11-06T10:50:10Z</time>
      </trkpt>
      <trkpt lat="49.41576" lon="1.4097">
        <ele>133.042496</ele>
        <time>2010-11-06T10:50:22Z</time>
      </trkpt>
      <trkpt lat="49.41614" lon="1.40929">
        <ele>132.722504</ele>
        <time>2010-11-06T10:50:36Z</time>
      </trkpt>
      <trkpt lat="49.41651" lon="1.40893">
        <ele>133.028748</ele>
        <time>2010-11-06T10:50:49Z</time>
      </trkpt>
      <trkpt lat="49.41684" lon="1.40865">
        <ele>134.103745</ele>
        <time>2010-11-06T10:51:00Z</time>
      </trkpt>
      <trkpt lat="49.41712" lon="1.40838">
        <ele>134.963745</ele>
        <time>2010-11-06T10:51:11Z</time>
      </trkpt>
      <trkpt lat="49.41748" lon="1.40804">
        <ele>135.950607</ele>
        <time>2010-11-06T10:51:23Z</time>
      </trkpt>
      <trkpt lat="49.41779" lon="1.40776">
        <ele>137.040955</ele>
        <time>2010-11-06T10:51:36Z</time>
      </trkpt>
      <trkpt lat="49.41806" lon="1.40758">
        <ele>137.396255</ele>
        <time>2010-11-06T10:51:46Z</time>
      </trkpt>
      <trkpt lat="49.41835" lon="1.40741">
        <ele>138.26178</ele>
        <time>2010-11-06T10:51:57Z</time>
      </trkpt>
      <trkpt lat="49.41868" lon="1.40722">
        <ele>139.569855</ele>
        <time>2010-11-06T10:52:09Z</time>
      </trkpt>
      <trkpt lat="49.41883" lon="1.40717">
        <ele>140.411545</ele>
        <time>2010-11-06T10:52:15Z</time>
      </trkpt>
      <trkpt lat="49.4191" lon="1.40744">
        <ele>142.472412</ele>
        <time>2010-11-06T10:52:28Z</time>
      </trkpt>
      <trkpt lat="49.41933" lon="1.40765">
        <ele>144.308746</ele>
        <time>2010-11-06T10:52:41Z</time>
      </trkpt>
      <trkpt lat="49.41953" lon="1.40786">
        <ele>146.135178</ele>
        <time>2010-11-06T10:52:52Z</time>
      </trkpt>
      <trkpt lat="49.41976" lon="1.40811">
        <ele>148.596405</ele>
        <time>2010-11-06T10:53:05Z</time>
      </trkpt>
      <trkpt lat="49.42001" lon="1.40836">
        <ele>150.840668</ele>
        <time>2010-11-06T10:53:19Z</time>
      </trkpt>
      <trkpt lat="49.42021" lon="1.40856">
        <ele>152.459991</ele>
        <time>2010-11-06T10:53:34Z</time>
      </trkpt>
      <trkpt lat="49.42022" lon="1.40857">
        <ele>152.554993</ele>
        <time>2010-11-06T10:53:35Z</time>
      </trkpt>
      <trkpt lat="49.42028" lon="1.40861">
        <ele>153.044998</ele>
        <time>2010-11-06T10:53:39Z</time>
      </trkpt>
      <trkpt lat="49.42051" lon="1.40866">
        <ele>154.506195</ele>
        <time>2010-11-06T10:53:53Z</time>
      </trkpt>
      <trkpt lat="49.4208" lon="1.40871">
        <ele>155.571243</ele>
        <time>2010-11-06T10:54:09Z</time>
      </trkpt>
      <trkpt lat="49.42114" lon="1.40882">
        <ele>156.485001</ele>
        <time>2010-11-06T10:54:22Z</time>
      </trkpt>
      <trkpt lat="49.42148" lon="1.40896">
        <ele>156.966537</ele>
        <time>2010-11-06T10:54:32Z</time>
      </trkpt>
      <trkpt lat="49.42155" lon="1.40898">
        <ele>156.957245</ele>
        <time>2010-11-06T10:54:34Z</time>
      </trkpt>
      <trkpt lat="49.42167" lon="1.40904">
        <ele>156.981995</ele>
        <time>2010-11-06T10:54:39Z</time>
      </trkpt>
      <trkpt lat="49.422" lon="1.40911">
        <ele>156.686874</ele>
        <time>2010-11-06T10:54:50Z</time>
      </trkpt>
      <trkpt lat="49.42233" lon="1.40918">
        <ele>156.282501</ele>
        <time>2010-11-06T10:55:01Z</time>
      </trkpt>
      <trkpt lat="49.42267" lon="1.40925">
        <ele>155.725006</ele>
        <time>2010-11-06T10:55:12Z</time>
      </trkpt>
      <trkpt lat="49.42298" lon="1.40932">
        <ele>155.267502</ele>
        <time>2010-11-06T10:55:22Z</time>
      </trkpt>
      <trkpt lat="49.42337" lon="1.40922">
        <ele>153.235001</ele>
        <time>2010-11-06T10:55:33Z</time>
      </trkpt>
      <trkpt lat="49.42371" lon="1.40904">
        <ele>150.647247</ele>
        <time>2010-11-06T10:55:41Z</time>
      </trkpt>
      <trkpt lat="49.42421" lon="1.40882">
        <ele>148.597977</ele>
        <time>2010-11-06T10:55:52Z</time>
      </trkpt>
      <trkpt lat="49.42427" lon="1.40879">
        <ele>148.422501</ele>
        <time>2010-11-06T10:55:53Z</time>
      </trkpt>
      <trkpt lat="49.42473" lon="1.40856">
        <ele>144.485001</ele>
        <time>2010-11-06T10:56:04Z</time>
      </trkpt>
      <trkpt lat="49.42508" lon="1.40839">
        <ele>137.940002</ele>
        <time>2010-11-06T10:56:14Z</time>
      </trkpt>
      <trkpt lat="49.42538" lon="1.40826">
        <ele>128.777786</ele>
        <time>2010-11-06T10:56:22Z</time>
      </trkpt>
      <trkpt lat="49.4255" lon="1.40817">
        <ele>128.912415</ele>
        <time>2010-11-06T10:56:33Z</time>
      </trkpt>
      <trkpt lat="49.42551" lon="1.40812">
        <ele>128.984726</ele>
        <time>2010-11-06T10:56:41Z</time>
      </trkpt>
      <trkpt lat="49.42548" lon="1.40788">
        <ele>128.223999</ele>
        <time>2010-11-06T10:56:49Z</time>
      </trkpt>
      <trkpt lat="49.42538" lon="1.40733">
        <ele>125.992836</ele>
        <time>2010-11-06T10:57:00Z</time>
      </trkpt>
      <trkpt lat="49.42514" lon="1.40659">
        <ele>124.782188</ele>
        <time>2010-11-06T10:57:11Z</time>
      </trkpt>
      <trkpt lat="49.42525" lon="1.40612">
        <ele>121.322502</ele>
        <time>2010-11-06T10:57:17Z</time>
      </trkpt>
      <trkpt lat="49.42557" lon="1.40563">
        <ele>121.360802</ele>
        <time>2010-11-06T10:57:24Z</time>
      </trkpt>
      <trkpt lat="49.42577" lon="1.40547">
        <ele>120.657654</ele>
        <time>2010-11-06T10:57:28Z</time>
      </trkpt>
      <trkpt lat="49.42593" lon="1.40539">
        <ele>120.587761</ele>
        <time>2010-11-06T10:57:31Z</time>
      </trkpt>
      <trkpt lat="49.4261" lon="1.40527">
        <ele>120.401192</ele>
        <time>2010-11-06T10:57:34Z</time>
      </trkpt>
      <trkpt lat="49.42651" lon="1.40482">
        <ele>118</ele>
        <time>2010-11-06T10:57:42Z</time>
      </trkpt>
      <trkpt lat="49.42664" lon="1.40448">
        <ele>117.383499</ele>
        <time>2010-11-06T10:57:46Z</time>
      </trkpt>
      <trkpt lat="49.42676" lon="1.40413">
        <ele>116.379379</ele>
        <time>2010-11-06T10:57:50Z</time>
      </trkpt>
      <trkpt lat="49.4272" lon="1.40319">
        <ele>118.465134</ele>
        <time>2010-11-06T10:58:01Z</time>
      </trkpt>
      <trkpt lat="49.42731" lon="1.40307">
        <ele>118.825722</ele>
        <time>2010-11-06T10:58:03Z</time>
      </trkpt>
      <trkpt lat="49.42762" lon="1.40291">
        <ele>117.847946</ele>
        <time>2010-11-06T10:58:09Z</time>
      </trkpt>
      <trkpt lat="49.42782" lon="1.40293">
        <ele>118.625504</ele>
        <time>2010-11-06T10:58:13Z</time>
      </trkpt>
      <trkpt lat="49.42847" lon="1.40327">
        <ele>115.484077</ele>
        <time>2010-11-06T10:58:24Z</time>
      </trkpt>
      <trkpt lat="49.42902" lon="1.40356">
        <ele>112.122498</ele>
        <time>2010-11-06T10:58:32Z</time>
      </trkpt>
      <trkpt lat="49.42923" lon="1.40365">
        <ele>110.932503</ele>
        <time>2010-11-06T10:58:36Z</time>
      </trkpt>
      <trkpt lat="49.42937" lon="1.40367">
        <ele>110.082497</ele>
        <time>2010-11-06T10:58:38Z</time>
      </trkpt>
      <trkpt lat="49.42949" lon="1.40373">
        <ele>109.779495</ele>
        <time>2010-11-06T10:58:40Z</time>
      </trkpt>
      <trkpt lat="49.42992" lon="1.40384">
        <ele>110.051529</ele>
        <time>2010-11-06T10:58:46Z</time>
      </trkpt>
      <trkpt lat="49.43076" lon="1.40311">
        <ele>107.610222</ele>
        <time>2010-11-06T10:59:02Z</time>
      </trkpt>
      <trkpt lat="49.43112" lon="1.4024">
        <ele>104.287552</ele>
        <time>2010-11-06T10:59:12Z</time>
      </trkpt>
      <trkpt lat="49.43134" lon="1.40194">
        <ele>102.082733</ele>
        <time>2010-11-06T10:59:19Z</time>
      </trkpt>
      <trkpt lat="49.43179" lon="1.40159">
        <ele>102.479599</ele>
        <time>2010-11-06T10:59:28Z</time>
      </trkpt>
      <trkpt lat="49.43198" lon="1.40162">
        <ele>101.914063</ele>
        <time>2010-11-06T10:59:31Z</time>
      </trkpt>
      <trkpt lat="49.43226" lon="1.40172">
        <ele>100.88253</ele>
        <time>2010-11-06T10:59:36Z</time>
      </trkpt>
      <trkpt lat="49.43237" lon="1.40181">
        <ele>100.026337</ele>
        <time>2010-11-06T10:59:38Z</time>
      </trkpt>
      <trkpt lat="49.43281" lon="1.40225">
        <ele>98.967804</ele>
        <time>2010-11-06T10:59:49Z</time>
      </trkpt>
      <trkpt lat="49.43292" lon="1.40234">
        <ele>98.584</ele>
        <time>2010-11-06T10:59:51Z</time>
      </trkpt>
      <trkpt lat="49.43348" lon="1.40281">
        <ele>96.778198</ele>
        <time>2010-11-06T11:00:01Z</time>
      </trkpt>
      <trkpt lat="49.43424" lon="1.40343">
        <ele>93.132454</ele>
        <time>2010-11-06T11:00:12Z</time>
      </trkpt>
      <trkpt lat="49.43439" lon="1.40354">
        <ele>92.943199</ele>
        <time>2010-11-06T11:00:14Z</time>
      </trkpt>
      <trkpt lat="49.43487" lon="1.40384">
        <ele>93.061249</ele>
        <time>2010-11-06T11:00:23Z</time>
      </trkpt>
      <trkpt lat="49.43492" lon="1.40416">
        <ele>93.64769</ele>
        <time>2010-11-06T11:00:29Z</time>
      </trkpt>
      <trkpt lat="49.43494" lon="1.40486">
        <ele>94.465309</ele>
        <time>2010-11-06T11:00:41Z</time>
      </trkpt>
      <trkpt lat="49.435" lon="1.40544">
        <ele>95</ele>
        <time>2010-11-06T11:00:51Z</time>
      </trkpt>
      <trkpt lat="49.43503" lon="1.40579">
        <ele>95</ele>
        <time>2010-11-06T11:00:56Z</time>
      </trkpt>
      <trkpt lat="49.43503" lon="1.40624">
        <ele>95.082352</ele>
        <time>2010-11-06T11:01:03Z</time>
      </trkpt>
      <trkpt lat="49.43494" lon="1.40671">
        <ele>94.708984</ele>
        <time>2010-11-06T11:01:09Z</time>
      </trkpt>
      <trkpt lat="49.43486" lon="1.40689">
        <ele>94.642876</ele>
        <time>2010-11-06T11:01:12Z</time>
      </trkpt>
      <trkpt lat="49.43442" lon="1.40765">
        <ele>96.079903</ele>
        <time>2010-11-06T11:01:28Z</time>
      </trkpt>
      <trkpt lat="49.43426" lon="1.40792">
        <ele>97.504997</ele>
        <time>2010-11-06T11:01:33Z</time>
      </trkpt>
      <trkpt lat="49.43385" lon="1.40864">
        <ele>98.302628</ele>
        <time>2010-11-06T11:01:47Z</time>
      </trkpt>
      <trkpt lat="49.43376" lon="1.40888">
        <ele>99.398422</ele>
        <time>2010-11-06T11:01:51Z</time>
      </trkpt>
      <trkpt lat="49.43374" lon="1.40902">
        <ele>99.938469</ele>
        <time>2010-11-06T11:01:53Z</time>
      </trkpt>
      <trkpt lat="49.43374" lon="1.40931">
        <ele>100.127022</ele>
        <time>2010-11-06T11:01:57Z</time>
      </trkpt>
      <trkpt lat="49.43385" lon="1.40974">
        <ele>99.852501</ele>
        <time>2010-11-06T11:02:03Z</time>
      </trkpt>
      <trkpt lat="49.43413" lon="1.41032">
        <ele>101.946548</ele>
        <time>2010-11-06T11:02:12Z</time>
      </trkpt>
      <trkpt lat="49.4342" lon="1.41045">
        <ele>102.380501</ele>
        <time>2010-11-06T11:02:14Z</time>
      </trkpt>
      <trkpt lat="49.43448" lon="1.41125">
        <ele>102.539375</ele>
        <time>2010-11-06T11:02:27Z</time>
      </trkpt>
      <trkpt lat="49.43452" lon="1.41163">
        <ele>103.751198</ele>
        <time>2010-11-06T11:02:33Z</time>
      </trkpt>
      <trkpt lat="49.43457" lon="1.41265">
        <ele>106.357498</ele>
        <time>2010-11-06T11:02:49Z</time>
      </trkpt>
      <trkpt lat="49.43463" lon="1.41355">
        <ele>107.796608</ele>
        <time>2010-11-06T11:03:04Z</time>
      </trkpt>
      <trkpt lat="49.43468" lon="1.41416">
        <ele>109.048531</ele>
        <time>2010-11-06T11:03:14Z</time>
      </trkpt>
      <trkpt lat="49.43468" lon="1.41442">
        <ele>109.200554</ele>
        <time>2010-11-06T11:03:18Z</time>
      </trkpt>
      <trkpt lat="49.43473" lon="1.41501">
        <ele>109.500938</ele>
        <time>2010-11-06T11:03:27Z</time>
      </trkpt>
      <trkpt lat="49.43502" lon="1.41582">
        <ele>109.46563</ele>
        <time>2010-11-06T11:03:42Z</time>
      </trkpt>
      <trkpt lat="49.43552" lon="1.41648">
        <ele>111.949852</ele>
        <time>2010-11-06T11:03:57Z</time>
      </trkpt>
      <trkpt lat="49.43582" lon="1.41704">
        <ele>110.32</ele>
        <time>2010-11-06T11:04:09Z</time>
      </trkpt>
      <trkpt lat="49.43583" lon="1.41709">
        <ele>110.517395</ele>
        <time>2010-11-06T11:04:10Z</time>
      </trkpt>
      <trkpt lat="49.43597" lon="1.41746">
        <ele>113.586746</ele>
        <time>2010-11-06T11:04:21Z</time>
      </trkpt>
      <trkpt lat="49.43608" lon="1.41793">
        <ele>114.454552</ele>
        <time>2010-11-06T11:04:34Z</time>
      </trkpt>
      <trkpt lat="49.43624" lon="1.41863">
        <ele>113.946251</ele>
        <time>2010-11-06T11:04:47Z</time>
      </trkpt>
      <trkpt lat="49.43644" lon="1.41936">
        <ele>115.820961</ele>
        <time>2010-11-06T11:05:00Z</time>
      </trkpt>
      <trkpt lat="49.43645" lon="1.41939">
        <ele>115.916</ele>
        <time>2010-11-06T11:05:01Z</time>
      </trkpt>
      <trkpt lat="49.43655" lon="1.41957">
        <ele>116.212723</ele>
        <time>2010-11-06T11:05:07Z</time>
      </trkpt>
      <trkpt lat="49.43667" lon="1.41983">
        <ele>115.259804</ele>
        <time>2010-11-06T11:05:13Z</time>
      </trkpt>
      <trkpt lat="49.43714" lon="1.42047">
        <ele>115.2686</ele>
        <time>2010-11-06T11:05:28Z</time>
      </trkpt>
      <trkpt lat="49.43741" lon="1.42085">
        <ele>118.699097</ele>
        <time>2010-11-06T11:05:39Z</time>
      </trkpt>
      <trkpt lat="49.43776" lon="1.42141">
        <ele>119.46891</ele>
        <time>2010-11-06T11:05:54Z</time>
      </trkpt>
      <trkpt lat="49.4378" lon="1.42149">
        <ele>119.933998</ele>
        <time>2010-11-06T11:05:56Z</time>
      </trkpt>
      <trkpt lat="49.43789" lon="1.4217">
        <ele>120.503494</ele>
        <time>2010-11-06T11:06:00Z</time>
      </trkpt>
      <trkpt lat="49.43807" lon="1.42252">
        <ele>120.154404</ele>
        <time>2010-11-06T11:06:15Z</time>
      </trkpt>
      <trkpt lat="49.43816" lon="1.42336">
        <ele>121.240997</ele>
        <time>2010-11-06T11:06:31Z</time>
      </trkpt>
      <trkpt lat="49.43817" lon="1.42383">
        <ele>121.466133</ele>
        <time>2010-11-06T11:06:44Z</time>
      </trkpt>
      <trkpt lat="49.43818" lon="1.42391">
        <ele>121.506065</ele>
        <time>2010-11-06T11:06:48Z</time>
      </trkpt>
      <trkpt lat="49.43822" lon="1.42399">
        <ele>123.107536</ele>
        <time>2010-11-06T11:07:05Z</time>
      </trkpt>
      <trkpt lat="49.43826" lon="1.42398">
        <ele>123.912598</ele>
        <time>2010-11-06T11:07:27Z</time>
      </trkpt>
      <trkpt lat="49.43831" lon="1.42383">
        <ele>124.497284</ele>
        <time>2010-11-06T11:07:34Z</time>
      </trkpt>
      <trkpt lat="49.43847" lon="1.42333">
        <ele>128.823395</ele>
        <time>2010-11-06T11:07:48Z</time>
      </trkpt>
      <trkpt lat="49.43842" lon="1.42283">
        <ele>128.603424</ele>
        <time>2010-11-06T11:08:00Z</time>
      </trkpt>
      <trkpt lat="49.43839" lon="1.42239">
        <ele>128.783752</ele>
        <time>2010-11-06T11:08:15Z</time>
      </trkpt>
      <trkpt lat="49.43835" lon="1.422">
        <ele>128.237503</ele>
        <time>2010-11-06T11:08:24Z</time>
      </trkpt>
      <trkpt lat="49.4383" lon="1.42147">
        <ele>130.124649</ele>
        <time>2010-11-06T11:08:36Z</time>
      </trkpt>
      <trkpt lat="49.4383" lon="1.42135">
        <ele>130.760773</ele>
        <time>2010-11-06T11:08:39Z</time>
      </trkpt>
      <trkpt lat="49.43821" lon="1.42101">
        <ele>131.220215</ele>
        <time>2010-11-06T11:08:54Z</time>
      </trkpt>
      <trkpt lat="49.43811" lon="1.42069">
        <ele>131.347809</ele>
        <time>2010-11-06T11:09:08Z</time>
      </trkpt>
      <trkpt lat="49.43799" lon="1.42043">
        <ele>131.191788</ele>
        <time>2010-11-06T11:09:21Z</time>
      </trkpt>
      <trkpt lat="49.43791" lon="1.42006">
        <ele>131.759079</ele>
        <time>2010-11-06T11:09:36Z</time>
      </trkpt>
      <trkpt lat="49.43792" lon="1.41967">
        <ele>134.337997</ele>
        <time>2010-11-06T11:09:51Z</time>
      </trkpt>
      <trkpt lat="49.43799" lon="1.41935">
        <ele>136.944656</ele>
        <time>2010-11-06T11:10:04Z</time>
      </trkpt>
      <trkpt lat="49.4381" lon="1.41899">
        <ele>140.372406</ele>
        <time>2010-11-06T11:10:20Z</time>
      </trkpt>
      <trkpt lat="49.43817" lon="1.41875">
        <ele>143.422256</ele>
        <time>2010-11-06T11:10:30Z</time>
      </trkpt>
      <trkpt lat="49.43829" lon="1.41842">
        <ele>146.877502</ele>
        <time>2010-11-06T11:10:46Z</time>
      </trkpt>
      <trkpt lat="49.43829" lon="1.41831">
        <ele>147.716217</ele>
        <time>2010-11-06T11:11:00Z</time>
      </trkpt>
      <trkpt lat="49.43828" lon="1.41826">
        <ele>148.128006</ele>
        <time>2010-11-06T11:11:08Z</time>
      </trkpt>
      <trkpt lat="49.43825" lon="1.41809">
        <ele>149.390228</ele>
        <time>2010-11-06T11:11:19Z</time>
      </trkpt>
      <trkpt lat="49.43807" lon="1.41802">
        <ele>148.861557</ele>
        <time>2010-11-06T11:11:29Z</time>
      </trkpt>
      <trkpt lat="49.43783" lon="1.4177">
        <ele>148.491074</ele>
        <time>2010-11-06T11:11:45Z</time>
      </trkpt>
      <trkpt lat="49.43779" lon="1.41734">
        <ele>149.63649</ele>
        <time>2010-11-06T11:11:58Z</time>
      </trkpt>
      <trkpt lat="49.43779" lon="1.41686">
        <ele>151.956558</ele>
        <time>2010-11-06T11:12:13Z</time>
      </trkpt>
      <trkpt lat="49.43781" lon="1.41635">
        <ele>154.111755</ele>
        <time>2010-11-06T11:12:30Z</time>
      </trkpt>
      <trkpt lat="49.43778" lon="1.41608">
        <ele>154.811371</ele>
        <time>2010-11-06T11:12:39Z</time>
      </trkpt>
      <trkpt lat="49.43773" lon="1.41594">
        <ele>154.537598</ele>
        <time>2010-11-06T11:12:53Z</time>
      </trkpt>
      <trkpt lat="49.4377" lon="1.4159">
        <ele>154.372406</ele>
        <time>2010-11-06T11:13:12Z</time>
      </trkpt>
      <trkpt lat="49.43767" lon="1.41589">
        <ele>153.93425</ele>
        <time>2010-11-06T11:13:46Z</time>
      </trkpt>
      <trkpt lat="49.43762" lon="1.41597">
        <ele>152.892227</ele>
        <time>2010-11-06T11:14:15Z</time>
      </trkpt>
      <trkpt lat="49.43767" lon="1.416">
        <ele>153.539993</ele>
        <time>2010-11-06T11:15:00Z</time>
      </trkpt>
      <trkpt lat="49.43768" lon="1.416">
        <ele>153.677048</ele>
        <time>2010-11-06T11:15:01Z</time>
      </trkpt>
      <trkpt lat="49.43795" lon="1.41595">
        <ele>157.65274</ele>
        <time>2010-11-06T11:15:16Z</time>
      </trkpt>
      <trkpt lat="49.43819" lon="1.41593">
        <ele>160.130005</ele>
        <time>2010-11-06T11:15:30Z</time>
      </trkpt>
      <trkpt lat="49.43845" lon="1.41593">
        <ele>161.804993</ele>
        <time>2010-11-06T11:15:43Z</time>
      </trkpt>
      <trkpt lat="49.43869" lon="1.41592">
        <ele>161.910599</ele>
        <time>2010-11-06T11:15:55Z</time>
      </trkpt>
      <trkpt lat="49.43897" lon="1.41592">
        <ele>161.561096</ele>
        <time>2010-11-06T11:16:07Z</time>
      </trkpt>
      <trkpt lat="49.43928" lon="1.41594">
        <ele>161.21492</ele>
        <time>2010-11-06T11:16:17Z</time>
      </trkpt>
      <trkpt lat="49.43952" lon="1.41595">
        <ele>161.602493</ele>
        <time>2010-11-06T11:16:29Z</time>
      </trkpt>
      <trkpt lat="49.43982" lon="1.41596">
        <ele>162.892502</ele>
        <time>2010-11-06T11:16:42Z</time>
      </trkpt>
      <trkpt lat="49.44004" lon="1.41596">
        <ele>164.083588</ele>
        <time>2010-11-06T11:16:51Z</time>
      </trkpt>
      <trkpt lat="49.44043" lon="1.41599">
        <ele>166.202744</ele>
        <time>2010-11-06T11:17:04Z</time>
      </trkpt>
      <trkpt lat="49.44073" lon="1.41598">
        <ele>167.897995</ele>
        <time>2010-11-06T11:17:18Z</time>
      </trkpt>
      <trkpt lat="49.44095" lon="1.41596">
        <ele>168.940002</ele>
        <time>2010-11-06T11:17:29Z</time>
      </trkpt>
      <trkpt lat="49.44122" lon="1.41597">
        <ele>170.054993</ele>
        <time>2010-11-06T11:17:41Z</time>
      </trkpt>
      <trkpt lat="49.44157" lon="1.41598">
        <ele>170.835007</ele>
        <time>2010-11-06T11:17:58Z</time>
      </trkpt>
      <trkpt lat="49.44183" lon="1.41602">
        <ele>171.690903</ele>
        <time>2010-11-06T11:18:11Z</time>
      </trkpt>
      <trkpt lat="49.44207" lon="1.416">
        <ele>172.515747</ele>
        <time>2010-11-06T11:18:21Z</time>
      </trkpt>
      <trkpt lat="49.44237" lon="1.41599">
        <ele>173.231247</ele>
        <time>2010-11-06T11:18:35Z</time>
      </trkpt>
      <trkpt lat="49.44266" lon="1.41598">
        <ele>173.600006</ele>
        <time>2010-11-06T11:18:48Z</time>
      </trkpt>
      <trkpt lat="49.44287" lon="1.41599">
        <ele>173.630005</ele>
        <time>2010-11-06T11:18:58Z</time>
      </trkpt>
      <trkpt lat="49.44299" lon="1.41598">
        <ele>173.618744</ele>
        <time>2010-11-06T11:19:03Z</time>
      </trkpt>
      <trkpt lat="49.44305" lon="1.41606">
        <ele>173.728745</ele>
        <time>2010-11-06T11:19:17Z</time>
      </trkpt>
      <trkpt lat="49.44307" lon="1.41608">
        <ele>173.764999</ele>
        <time>2010-11-06T11:19:52Z</time>
      </trkpt>
      <trkpt lat="49.44305" lon="1.41606">
        <ele>173.736252</ele>
        <time>2010-11-06T11:20:21Z</time>
      </trkpt>
      <trkpt lat="49.44299" lon="1.41606">
        <ele>173.735001</ele>
        <time>2010-11-06T11:20:57Z</time>
      </trkpt>
      <trkpt lat="49.44303" lon="1.41599">
        <ele>173.632507</ele>
        <time>2010-11-06T11:22:05Z</time>
      </trkpt>
      <trkpt lat="49.44329" lon="1.41617">
        <ele>173.892502</ele>
        <time>2010-11-06T11:22:19Z</time>
      </trkpt>
      <trkpt lat="49.4433" lon="1.41617">
        <ele>173.902496</ele>
        <time>2010-11-06T11:22:20Z</time>
      </trkpt>
      <trkpt lat="49.44346" lon="1.41621">
        <ele>173.903748</ele>
        <time>2010-11-06T11:22:31Z</time>
      </trkpt>
      <trkpt lat="49.44378" lon="1.41638">
        <ele>173.449997</ele>
        <time>2010-11-06T11:22:42Z</time>
      </trkpt>
      <trkpt lat="49.44417" lon="1.4166">
        <ele>172.321243</ele>
        <time>2010-11-06T11:22:52Z</time>
      </trkpt>
      <trkpt lat="49.44461" lon="1.4168">
        <ele>170.660004</ele>
        <time>2010-11-06T11:23:02Z</time>
      </trkpt>
      <trkpt lat="49.44469" lon="1.41686">
        <ele>170.397507</ele>
        <time>2010-11-06T11:23:04Z</time>
      </trkpt>
      <trkpt lat="49.44527" lon="1.41715">
        <ele>167.242004</ele>
        <time>2010-11-06T11:23:15Z</time>
      </trkpt>
      <trkpt lat="49.44558" lon="1.41729">
        <ele>165.685028</ele>
        <time>2010-11-06T11:23:20Z</time>
      </trkpt>
      <trkpt lat="49.44606" lon="1.41757">
        <ele>162.606247</ele>
        <time>2010-11-06T11:23:29Z</time>
      </trkpt>
      <trkpt lat="49.44636" lon="1.41774">
        <ele>161.221756</ele>
        <time>2010-11-06T11:23:34Z</time>
      </trkpt>
      <trkpt lat="49.44679" lon="1.41796">
        <ele>160.182693</ele>
        <time>2010-11-06T11:23:44Z</time>
      </trkpt>
      <trkpt lat="49.44696" lon="1.41798">
        <ele>160.3069</ele>
        <time>2010-11-06T11:23:55Z</time>
      </trkpt>
      <trkpt lat="49.44708" lon="1.41788">
        <ele>160.714371</ele>
        <time>2010-11-06T11:24:07Z</time>
      </trkpt>
      <trkpt lat="49.44731" lon="1.41772">
        <ele>162.341049</ele>
        <time>2010-11-06T11:24:19Z</time>
      </trkpt>
      <trkpt lat="49.44762" lon="1.41749">
        <ele>164.361252</ele>
        <time>2010-11-06T11:24:31Z</time>
      </trkpt>
      <trkpt lat="49.4479" lon="1.41725">
        <ele>165.316254</ele>
        <time>2010-11-06T11:24:43Z</time>
      </trkpt>
      <trkpt lat="49.44821" lon="1.41701">
        <ele>165.757507</ele>
        <time>2010-11-06T11:24:59Z</time>
      </trkpt>
      <trkpt lat="49.44815" lon="1.41702">
        <ele>165.744995</ele>
        <time>2010-11-06T11:25:16Z</time>
      </trkpt>
      <trkpt lat="49.44812" lon="1.41704">
        <ele>165.711243</ele>
        <time>2010-11-06T11:25:18Z</time>
      </trkpt>
      <trkpt lat="49.44793" lon="1.41723">
        <ele>165.429993</ele>
        <time>2010-11-06T11:25:30Z</time>
      </trkpt>
      <trkpt lat="49.44789" lon="1.41726">
        <ele>165.278748</ele>
        <time>2010-11-06T11:25:43Z</time>
      </trkpt>
      <trkpt lat="49.44788" lon="1.41732">
        <ele>165.169998</ele>
        <time>2010-11-06T11:26:33Z</time>
      </trkpt>
      <trkpt lat="49.44779" lon="1.41728">
        <ele>165.044998</ele>
        <time>2010-11-06T11:27:06Z</time>
      </trkpt>
      <trkpt lat="49.44774" lon="1.41734">
        <ele>164.832504</ele>
        <time>2010-11-06T11:27:50Z</time>
      </trkpt>
      <trkpt lat="49.44776" lon="1.41741">
        <ele>164.776245</ele>
        <time>2010-11-06T11:28:28Z</time>
      </trkpt>
      <trkpt lat="49.44768" lon="1.41745">
        <ele>164.550003</ele>
        <time>2010-11-06T11:29:26Z</time>
      </trkpt>
      <trkpt lat="49.4478" lon="1.41733">
        <ele>164.978745</ele>
        <time>2010-11-06T11:30:27Z</time>
      </trkpt>
      <trkpt lat="49.44787" lon="1.41736">
        <ele>165.104996</ele>
        <time>2010-11-06T11:31:26Z</time>
      </trkpt>
      <trkpt lat="49.44785" lon="1.41731">
        <ele>165.138748</ele>
        <time>2010-11-06T11:32:21Z</time>
      </trkpt>
      <trkpt lat="49.44813" lon="1.41699">
        <ele>165.787506</ele>
        <time>2010-11-06T11:32:32Z</time>
      </trkpt>
      <trkpt lat="49.4483" lon="1.41686">
        <ele>165.96875</ele>
        <time>2010-11-06T11:32:36Z</time>
      </trkpt>
      <trkpt lat="49.44842" lon="1.4168">
        <ele>165.933594</ele>
        <time>2010-11-06T11:32:38Z</time>
      </trkpt>
      <trkpt lat="49.44857" lon="1.41666">
        <ele>165.695572</ele>
        <time>2010-11-06T11:32:42Z</time>
      </trkpt>
      <trkpt lat="49.44873" lon="1.41649">
        <ele>165.607651</ele>
        <time>2010-11-06T11:32:46Z</time>
      </trkpt>
      <trkpt lat="49.44919" lon="1.41605">
        <ele>165.199997</ele>
        <time>2010-11-06T11:32:58Z</time>
      </trkpt>
      <trkpt lat="49.44953" lon="1.41577">
        <ele>164.440002</ele>
        <time>2010-11-06T11:33:04Z</time>
      </trkpt>
      <trkpt lat="49.44973" lon="1.41552">
        <ele>163.9832</ele>
        <time>2010-11-06T11:33:10Z</time>
      </trkpt>
      <trkpt lat="49.45046" lon="1.41484">
        <ele>162.250061</ele>
        <time>2010-11-06T11:33:25Z</time>
      </trkpt>
      <trkpt lat="49.45115" lon="1.41422">
        <ele>159.689499</ele>
        <time>2010-11-06T11:33:38Z</time>
      </trkpt>
      <trkpt lat="49.45131" lon="1.4141">
        <ele>159.33313</ele>
        <time>2010-11-06T11:33:41Z</time>
      </trkpt>
      <trkpt lat="49.45154" lon="1.41384">
        <ele>159.128754</ele>
        <time>2010-11-06T11:33:47Z</time>
      </trkpt>
      <trkpt lat="49.45176" lon="1.41382">
        <ele>158.178757</ele>
        <time>2010-11-06T11:33:57Z</time>
      </trkpt>
      <trkpt lat="49.45183" lon="1.41386">
        <ele>157.787506</ele>
        <time>2010-11-06T11:34:01Z</time>
      </trkpt>
      <trkpt lat="49.45186" lon="1.41397">
        <ele>157.524994</ele>
        <time>2010-11-06T11:34:05Z</time>
      </trkpt>
      <trkpt lat="49.45204" lon="1.41435">
        <ele>155.073334</ele>
        <time>2010-11-06T11:34:18Z</time>
      </trkpt>
      <trkpt lat="49.45219" lon="1.41464">
        <ele>152.797714</ele>
        <time>2010-11-06T11:34:29Z</time>
      </trkpt>
      <trkpt lat="49.45225" lon="1.41512">
        <ele>150.149918</ele>
        <time>2010-11-06T11:34:39Z</time>
      </trkpt>
      <trkpt lat="49.45231" lon="1.41553">
        <ele>148.175003</ele>
        <time>2010-11-06T11:34:48Z</time>
      </trkpt>
      <trkpt lat="49.45235" lon="1.41565">
        <ele>147.800003</ele>
        <time>2010-11-06T11:34:50Z</time>
      </trkpt>
      <trkpt lat="49.45243" lon="1.4163">
        <ele>147.302505</ele>
        <time>2010-11-06T11:35:00Z</time>
      </trkpt>
      <trkpt lat="49.45249" lon="1.41692">
        <ele>147.10112</ele>
        <time>2010-11-06T11:35:10Z</time>
      </trkpt>
      <trkpt lat="49.4525" lon="1.41698">
        <ele>146.932251</ele>
        <time>2010-11-06T11:35:11Z</time>
      </trkpt>
      <trkpt lat="49.45268" lon="1.41753">
        <ele>143.796173</ele>
        <time>2010-11-06T11:35:21Z</time>
      </trkpt>
      <trkpt lat="49.45267" lon="1.41792">
        <ele>139.07103</ele>
        <time>2010-11-06T11:35:30Z</time>
      </trkpt>
      <trkpt lat="49.45257" lon="1.41816">
        <ele>137.164246</ele>
        <time>2010-11-06T11:35:37Z</time>
      </trkpt>
      <trkpt lat="49.45245" lon="1.41827">
        <ele>135.629456</ele>
        <time>2010-11-06T11:35:50Z</time>
      </trkpt>
      <trkpt lat="49.45243" lon="1.41832">
        <ele>134.730286</ele>
        <time>2010-11-06T11:35:54Z</time>
      </trkpt>
      <trkpt lat="49.45228" lon="1.41847">
        <ele>133.377304</ele>
        <time>2010-11-06T11:36:04Z</time>
      </trkpt>
      <trkpt lat="49.45206" lon="1.41867">
        <ele>132.213516</ele>
        <time>2010-11-06T11:36:18Z</time>
      </trkpt>
      <trkpt lat="49.45186" lon="1.41907">
        <ele>129.299728</ele>
        <time>2010-11-06T11:36:29Z</time>
      </trkpt>
      <trkpt lat="49.45181" lon="1.41952">
        <ele>123.85675</ele>
        <time>2010-11-06T11:36:38Z</time>
      </trkpt>
      <trkpt lat="49.45174" lon="1.42004">
        <ele>122.347603</ele>
        <time>2010-11-06T11:36:48Z</time>
      </trkpt>
      <trkpt lat="49.45172" lon="1.42049">
        <ele>124.093552</ele>
        <time>2010-11-06T11:36:57Z</time>
      </trkpt>
      <trkpt lat="49.45173" lon="1.4205">
        <ele>124.142029</ele>
        <time>2010-11-06T11:36:58Z</time>
      </trkpt>
      <trkpt lat="49.45179" lon="1.4205">
        <ele>123.951599</ele>
        <time>2010-11-06T11:37:02Z</time>
      </trkpt>
      <trkpt lat="49.45219" lon="1.42021">
        <ele>117.401558</ele>
        <time>2010-11-06T11:37:15Z</time>
      </trkpt>
      <trkpt lat="49.45237" lon="1.42011">
        <ele>116.905502</ele>
        <time>2010-11-06T11:37:19Z</time>
      </trkpt>
      <trkpt lat="49.453" lon="1.42003">
        <ele>113.691093</ele>
        <time>2010-11-06T11:37:33Z</time>
      </trkpt>
      <trkpt lat="49.45312" lon="1.42011">
        <ele>113.294998</ele>
        <time>2010-11-06T11:37:36Z</time>
      </trkpt>
      <trkpt lat="49.4532" lon="1.42018">
        <ele>112.889404</ele>
        <time>2010-11-06T11:37:38Z</time>
      </trkpt>
      <trkpt lat="49.45333" lon="1.42031">
        <ele>112.627823</ele>
        <time>2010-11-06T11:37:41Z</time>
      </trkpt>
      <trkpt lat="49.45383" lon="1.4211">
        <ele>103.62574</ele>
        <time>2010-11-06T11:37:53Z</time>
      </trkpt>
      <trkpt lat="49.45396" lon="1.42142">
        <ele>102.427902</ele>
        <time>2010-11-06T11:37:57Z</time>
      </trkpt>
      <trkpt lat="49.45414" lon="1.42206">
        <ele>99.2686</ele>
        <time>2010-11-06T11:38:04Z</time>
      </trkpt>
      <trkpt lat="49.45422" lon="1.42254">
        <ele>96.918091</ele>
        <time>2010-11-06T11:38:09Z</time>
      </trkpt>
      <trkpt lat="49.45443" lon="1.4231">
        <ele>95.331551</ele>
        <time>2010-11-06T11:38:18Z</time>
      </trkpt>
      <trkpt lat="49.45445" lon="1.42326">
        <ele>94.954903</ele>
        <time>2010-11-06T11:38:25Z</time>
      </trkpt>
      <trkpt lat="49.45461" lon="1.42372">
        <ele>92.590622</ele>
        <time>2010-11-06T11:38:35Z</time>
      </trkpt>
      <trkpt lat="49.45472" lon="1.42401">
        <ele>91.754753</ele>
        <time>2010-11-06T11:38:40Z</time>
      </trkpt>
      <trkpt lat="49.45494" lon="1.42445">
        <ele>91.180191</ele>
        <time>2010-11-06T11:38:47Z</time>
      </trkpt>
      <trkpt lat="49.45504" lon="1.42464">
        <ele>91.094376</ele>
        <time>2010-11-06T11:38:50Z</time>
      </trkpt>
      <trkpt lat="49.45515" lon="1.4248">
        <ele>90.004311</ele>
        <time>2010-11-06T11:38:53Z</time>
      </trkpt>
      <trkpt lat="49.45545" lon="1.42523">
        <ele>90.362625</ele>
        <time>2010-11-06T11:39:00Z</time>
      </trkpt>
      <trkpt lat="49.45552" lon="1.42534">
        <ele>90.432297</ele>
        <time>2010-11-06T11:39:02Z</time>
      </trkpt>
      <trkpt lat="49.45568" lon="1.42559">
        <ele>90.3237</ele>
        <time>2010-11-06T11:39:06Z</time>
      </trkpt>
      <trkpt lat="49.45575" lon="1.42569">
        <ele>90.43</ele>
        <time>2010-11-06T11:39:08Z</time>
      </trkpt>
      <trkpt lat="49.45596" lon="1.42602">
        <ele>90.032227</ele>
        <time>2010-11-06T11:39:17Z</time>
      </trkpt>
      <trkpt lat="49.45617" lon="1.42601">
        <ele>88.512497</ele>
        <time>2010-11-06T11:39:34Z</time>
      </trkpt>
      <trkpt lat="49.4563" lon="1.42599">
        <ele>88.4925</ele>
        <time>2010-11-06T11:39:50Z</time>
      </trkpt>
      <trkpt lat="49.45627" lon="1.42599">
        <ele>88.482498</ele>
        <time>2010-11-06T11:39:54Z</time>
      </trkpt>
      <trkpt lat="49.45618" lon="1.4258">
        <ele>88.212502</ele>
        <time>2010-11-06T11:40:01Z</time>
      </trkpt>
      <trkpt lat="49.45619" lon="1.42573">
        <ele>88.107498</ele>
        <time>2010-11-06T11:40:03Z</time>
      </trkpt>
      <trkpt lat="49.45639" lon="1.42498">
        <ele>88.038948</ele>
        <time>2010-11-06T11:40:21Z</time>
      </trkpt>
      <trkpt lat="49.45672" lon="1.42409">
        <ele>88.325752</ele>
        <time>2010-11-06T11:40:36Z</time>
      </trkpt>
      <trkpt lat="49.45703" lon="1.42334">
        <ele>86.468597</ele>
        <time>2010-11-06T11:40:46Z</time>
      </trkpt>
      <trkpt lat="49.45711" lon="1.42265">
        <ele>86.850273</ele>
        <time>2010-11-06T11:40:54Z</time>
      </trkpt>
      <trkpt lat="49.4569" lon="1.42144">
        <ele>82.257347</ele>
        <time>2010-11-06T11:41:11Z</time>
      </trkpt>
      <trkpt lat="49.45695" lon="1.41987">
        <ele>81.128525</ele>
        <time>2010-11-06T11:41:30Z</time>
      </trkpt>
      <trkpt lat="49.45708" lon="1.4186">
        <ele>83.103561</ele>
        <time>2010-11-06T11:41:46Z</time>
      </trkpt>
      <trkpt lat="49.45706" lon="1.41688">
        <ele>80.493752</ele>
        <time>2010-11-06T11:42:06Z</time>
      </trkpt>
      <trkpt lat="49.45701" lon="1.41569">
        <ele>78.883751</ele>
        <time>2010-11-06T11:42:21Z</time>
      </trkpt>
      <trkpt lat="49.45721" lon="1.41403">
        <ele>80.352501</ele>
        <time>2010-11-06T11:42:40Z</time>
      </trkpt>
      <trkpt lat="49.45719" lon="1.41227">
        <ele>78.146721</ele>
        <time>2010-11-06T11:43:00Z</time>
      </trkpt>
      <trkpt lat="49.45728" lon="1.41039">
        <ele>74.796654</ele>
        <time>2010-11-06T11:43:20Z</time>
      </trkpt>
      <trkpt lat="49.45749" lon="1.40895">
        <ele>73.87133</ele>
        <time>2010-11-06T11:43:37Z</time>
      </trkpt>
      <trkpt lat="49.45736" lon="1.40757">
        <ele>74.097252</ele>
        <time>2010-11-06T11:43:53Z</time>
      </trkpt>
      <trkpt lat="49.45702" lon="1.40616">
        <ele>74.659302</ele>
        <time>2010-11-06T11:44:11Z</time>
      </trkpt>
      <trkpt lat="49.45702" lon="1.4055">
        <ele>74.360001</ele>
        <time>2010-11-06T11:44:19Z</time>
      </trkpt>
      <trkpt lat="49.45727" lon="1.40475">
        <ele>72.392372</ele>
        <time>2010-11-06T11:44:29Z</time>
      </trkpt>
      <trkpt lat="49.45752" lon="1.40443">
        <ele>71.695</ele>
        <time>2010-11-06T11:44:35Z</time>
      </trkpt>
      <trkpt lat="49.45769" lon="1.40422">
        <ele>71.21125</ele>
        <time>2010-11-06T11:44:39Z</time>
      </trkpt>
      <trkpt lat="49.45846" lon="1.40322">
        <ele>70.99334</ele>
        <time>2010-11-06T11:44:56Z</time>
      </trkpt>
      <trkpt lat="49.45887" lon="1.40195">
        <ele>75.75</ele>
        <time>2010-11-06T11:45:15Z</time>
      </trkpt>
      <trkpt lat="49.45928" lon="1.40071">
        <ele>79.010567</ele>
        <time>2010-11-06T11:45:36Z</time>
      </trkpt>
      <trkpt lat="49.45968" lon="1.39952">
        <ele>77.484772</ele>
        <time>2010-11-06T11:45:53Z</time>
      </trkpt>
      <trkpt lat="49.46018" lon="1.39805">
        <ele>73.255722</ele>
        <time>2010-11-06T11:46:09Z</time>
      </trkpt>
      <trkpt lat="49.46072" lon="1.39647">
        <ele>70.389999</ele>
        <time>2010-11-06T11:46:25Z</time>
      </trkpt>
      <trkpt lat="49.4608" lon="1.39614">
        <ele>70.010002</ele>
        <time>2010-11-06T11:46:29Z</time>
      </trkpt>
      <trkpt lat="49.46068" lon="1.39537">
        <ele>70.315903</ele>
        <time>2010-11-06T11:46:38Z</time>
      </trkpt>
      <trkpt lat="49.46059" lon="1.39523">
        <ele>70.422501</ele>
        <time>2010-11-06T11:46:40Z</time>
      </trkpt>
      <trkpt lat="49.4597" lon="1.39388">
        <ele>69.397499</ele>
        <time>2010-11-06T11:46:59Z</time>
      </trkpt>
      <trkpt lat="49.45925" lon="1.39321">
        <ele>68.995003</ele>
        <time>2010-11-06T11:47:10Z</time>
      </trkpt>
      <trkpt lat="49.45928" lon="1.39299">
        <ele>68.347504</ele>
        <time>2010-11-06T11:47:23Z</time>
      </trkpt>
      <trkpt lat="49.45931" lon="1.3929">
        <ele>68.082497</ele>
        <time>2010-11-06T11:47:38Z</time>
      </trkpt>
      <trkpt lat="49.45928" lon="1.39284">
        <ele>67.910004</ele>
        <time>2010-11-06T11:47:58Z</time>
      </trkpt>
      <trkpt lat="49.45926" lon="1.39284">
        <ele>67.922501</ele>
        <time>2010-11-06T11:48:49Z</time>
      </trkpt>
      <trkpt lat="49.45927" lon="1.39282">
        <ele>67.8675</ele>
        <time>2010-11-06T11:51:19Z</time>
      </trkpt>
      <trkpt lat="49.45925" lon="1.39283">
        <ele>67.894997</ele>
        <time>2010-11-06T11:52:09Z</time>
      </trkpt>
      <trkpt lat="49.45935" lon="1.39282">
        <ele>67.862503</ele>
        <time>2010-11-06T11:52:39Z</time>
      </trkpt>
      <trkpt lat="49.45944" lon="1.39285">
        <ele>67.945</ele>
        <time>2010-11-06T11:53:04Z</time>
      </trkpt>
      <trkpt lat="49.45941" lon="1.39284">
        <ele>67.927498</ele>
        <time>2010-11-06T11:53:42Z</time>
      </trkpt>
      <trkpt lat="49.45937" lon="1.39284">
        <ele>67.93</ele>
        <time>2010-11-06T11:54:14Z</time>
      </trkpt>
      <trkpt lat="49.45938" lon="1.39284">
        <ele>67.904999</ele>
        <time>2010-11-06T11:54:48Z</time>
      </trkpt>
      <trkpt lat="49.45937" lon="1.39287">
        <ele>68.002502</ele>
        <time>2010-11-06T11:55:22Z</time>
      </trkpt>
      <trkpt lat="49.45936" lon="1.3929">
        <ele>68.084999</ele>
        <time>2010-11-06T11:55:52Z</time>
      </trkpt>
      <trkpt lat="49.45935" lon="1.39286">
        <ele>67.970001</ele>
        <time>2010-11-06T11:57:48Z</time>
      </trkpt>
      <trkpt lat="49.45931" lon="1.39292">
        <ele>68.152496</ele>
        <time>2010-11-06T12:00:16Z</time>
      </trkpt>
      <trkpt lat="49.45936" lon="1.39296">
        <ele>68.267502</ele>
        <time>2010-11-06T12:02:24Z</time>
      </trkpt>
      <trkpt lat="49.45933" lon="1.39297">
        <ele>68.307503</ele>
        <time>2010-11-06T12:02:49Z</time>
      </trkpt>
      <trkpt lat="49.45932" lon="1.39294">
        <ele>68.220001</ele>
        <time>2010-11-06T12:03:17Z</time>
      </trkpt>
      <trkpt lat="49.45935" lon="1.39293">
        <ele>68.190002</ele>
        <time>2010-11-06T12:03:51Z</time>
      </trkpt>
      <trkpt lat="49.45934" lon="1.39293">
        <ele>68.175003</ele>
        <time>2010-11-06T12:05:12Z</time>
      </trkpt>
      <trkpt lat="49.45935" lon="1.39294">
        <ele>68.192497</ele>
        <time>2010-11-06T12:05:38Z</time>
      </trkpt>
      <trkpt lat="49.45933" lon="1.393">
        <ele>68.387497</ele>
        <time>2010-11-06T12:06:40Z</time>
      </trkpt>
      <trkpt lat="49.45933" lon="1.39298">
        <ele>68.327499</ele>
        <time>2010-11-06T12:07:47Z</time>
      </trkpt>
      <trkpt lat="49.45934" lon="1.39298">
        <ele>68.315002</ele>
        <time>2010-11-06T12:08:23Z</time>
      </trkpt>
      <trkpt lat="49.45932" lon="1.39295">
        <ele>68.222504</ele>
        <time>2010-11-06T12:08:47Z</time>
      </trkpt>
      <trkpt lat="49.45931" lon="1.39293">
        <ele>68.182503</ele>
        <time>2010-11-06T12:09:16Z</time>
      </trkpt>
      <trkpt lat="49.45934" lon="1.39294">
        <ele>68.199997</ele>
        <time>2010-11-06T12:09:51Z</time>
      </trkpt>
      <trkpt lat="49.45933" lon="1.39293">
        <ele>68.165001</ele>
        <time>2010-11-06T12:10:19Z</time>
      </trkpt>
      <trkpt lat="49.45934" lon="1.39292">
        <ele>68.152496</ele>
        <time>2010-11-06T12:10:42Z</time>
      </trkpt>
      <trkpt lat="49.45933" lon="1.39292">
        <ele>68.137497</ele>
        <time>2010-11-06T12:11:15Z</time>
      </trkpt>
      <trkpt lat="49.45933" lon="1.3929">
        <ele>68.089996</ele>
        <time>2010-11-06T12:11:43Z</time>
      </trkpt>
      <trkpt lat="49.45934" lon="1.3929">
        <ele>68.087502</ele>
        <time>2010-11-06T12:12:46Z</time>
      </trkpt>
      <trkpt lat="49.45931" lon="1.39291">
        <ele>68.110001</ele>
        <time>2010-11-06T12:13:25Z</time>
      </trkpt>
      <trkpt lat="49.4593" lon="1.39293">
        <ele>68.182503</ele>
        <time>2010-11-06T12:13:51Z</time>
      </trkpt>
      <trkpt lat="49.4593" lon="1.39294">
        <ele>68.199997</ele>
        <time>2010-11-06T12:14:14Z</time>
      </trkpt>
      <trkpt lat="49.45934" lon="1.39285">
        <ele>67.947502</ele>
        <time>2010-11-06T12:16:38Z</time>
      </trkpt>
      <trkpt lat="49.45935" lon="1.39284">
        <ele>67.93</ele>
        <time>2010-11-06T12:17:04Z</time>
      </trkpt>
      <trkpt lat="49.45929" lon="1.39287">
        <ele>68</ele>
        <time>2010-11-06T12:28:37Z</time>
      </trkpt>
      <trkpt lat="49.45927" lon="1.39288">
        <ele>68.017502</ele>
        <time>2010-11-06T12:33:30Z</time>
      </trkpt>
      <trkpt lat="49.45936" lon="1.39284">
        <ele>67.917503</ele>
        <time>2010-11-06T12:35:16Z</time>
      </trkpt>
      <trkpt lat="49.45932" lon="1.39285">
        <ele>67.93</ele>
        <time>2010-11-06T12:36:44Z</time>
      </trkpt>
      <trkpt lat="49.45926" lon="1.39294">
        <ele>68.1875</ele>
        <time>2010-11-06T12:53:10Z</time>
      </trkpt>
      <trkpt lat="49.45925" lon="1.39293">
        <ele>68.172501</ele>
        <time>2010-11-06T12:59:31Z</time>
      </trkpt>
      <trkpt lat="49.45928" lon="1.39293">
        <ele>68.172501</ele>
        <time>2010-11-06T13:00:07Z</time>
      </trkpt>
      <trkpt lat="49.45923" lon="1.39292">
        <ele>68.157501</ele>
        <time>2010-11-06T13:04:22Z</time>
      </trkpt>
      <trkpt lat="49.45931" lon="1.39286">
        <ele>67.959999</ele>
        <time>2010-11-06T13:06:53Z</time>
      </trkpt>
      <trkpt lat="49.45924" lon="1.39292">
        <ele>68.129997</ele>
        <time>2010-11-06T13:09:00Z</time>
      </trkpt>
      <trkpt lat="49.45929" lon="1.39289">
        <ele>68.052498</ele>
        <time>2010-11-06T13:19:07Z</time>
      </trkpt>
      <trkpt lat="49.45925" lon="1.3929">
        <ele>68.082497</ele>
        <time>2010-11-06T13:19:51Z</time>
      </trkpt>
      <trkpt lat="49.45937" lon="1.39288">
        <ele>68.042503</ele>
        <time>2010-11-06T13:21:39Z</time>
      </trkpt>
      <trkpt lat="49.45931" lon="1.39288">
        <ele>68.032501</ele>
        <time>2010-11-06T13:22:11Z</time>
      </trkpt>
      <trkpt lat="49.45929" lon="1.39294">
        <ele>68.195</ele>
        <time>2010-11-06T13:23:24Z</time>
      </trkpt>
      <trkpt lat="49.45929" lon="1.39295">
        <ele>68.224998</ele>
        <time>2010-11-06T13:23:25Z</time>
      </trkpt>
      <trkpt lat="49.45924" lon="1.39311">
        <ele>68.6875</ele>
        <time>2010-11-06T13:23:38Z</time>
      </trkpt>
      <trkpt lat="49.45917" lon="1.39312">
        <ele>68.712502</ele>
        <time>2010-11-06T13:23:44Z</time>
      </trkpt>
      <trkpt lat="49.45912" lon="1.39304">
        <ele>68.497498</ele>
        <time>2010-11-06T13:23:48Z</time>
      </trkpt>
      <trkpt lat="49.45885" lon="1.39256">
        <ele>67.35894</ele>
        <time>2010-11-06T13:24:03Z</time>
      </trkpt>
      <trkpt lat="49.45864" lon="1.39225">
        <ele>67.017189</ele>
        <time>2010-11-06T13:24:16Z</time>
      </trkpt>
      <trkpt lat="49.45856" lon="1.3923">
        <ele>67.249535</ele>
        <time>2010-11-06T13:24:25Z</time>
      </trkpt>
      <trkpt lat="49.45856" lon="1.39233">
        <ele>67.332001</ele>
        <time>2010-11-06T13:24:53Z</time>
      </trkpt>
      <trkpt lat="49.45857" lon="1.39229">
        <ele>67.235176</ele>
        <time>2010-11-06T13:25:25Z</time>
      </trkpt>
      <trkpt lat="49.45865" lon="1.39232">
        <ele>67.175156</ele>
        <time>2010-11-06T13:25:32Z</time>
      </trkpt>
      <trkpt lat="49.45885" lon="1.39266">
        <ele>67.598198</ele>
        <time>2010-11-06T13:25:48Z</time>
      </trkpt>
      <trkpt lat="49.45904" lon="1.39295">
        <ele>68.232498</ele>
        <time>2010-11-06T13:26:04Z</time>
      </trkpt>
      <trkpt lat="49.45924" lon="1.39328">
        <ele>69.139915</ele>
        <time>2010-11-06T13:26:23Z</time>
      </trkpt>
      <trkpt lat="49.45936" lon="1.39348">
        <ele>69.460686</ele>
        <time>2010-11-06T13:26:34Z</time>
      </trkpt>
      <trkpt lat="49.45936" lon="1.39338">
        <ele>69.288338</ele>
        <time>2010-11-06T13:26:40Z</time>
      </trkpt>
      <trkpt lat="49.45923" lon="1.3931">
        <ele>68.652496</ele>
        <time>2010-11-06T13:26:56Z</time>
      </trkpt>
      <trkpt lat="49.45919" lon="1.39308">
        <ele>68.610001</ele>
        <time>2010-11-06T13:27:02Z</time>
      </trkpt>
      <trkpt lat="49.45924" lon="1.39314">
        <ele>68.790001</ele>
        <time>2010-11-06T13:27:07Z</time>
      </trkpt>
      <trkpt lat="49.45927" lon="1.39315">
        <ele>68.809998</ele>
        <time>2010-11-06T13:27:09Z</time>
      </trkpt>
      <trkpt lat="49.45936" lon="1.39301">
        <ele>68.410004</ele>
        <time>2010-11-06T13:27:17Z</time>
      </trkpt>
      <trkpt lat="49.4596" lon="1.39247">
        <ele>66.448051</ele>
        <time>2010-11-06T13:27:28Z</time>
      </trkpt>
      <trkpt lat="49.45969" lon="1.39231">
        <ele>65.623253</ele>
        <time>2010-11-06T13:27:31Z</time>
      </trkpt>
      <trkpt lat="49.45977" lon="1.39219">
        <ele>64.922096</ele>
        <time>2010-11-06T13:27:33Z</time>
      </trkpt>
      <trkpt lat="49.45974" lon="1.39217">
        <ele>64.935738</ele>
        <time>2010-11-06T13:27:40Z</time>
      </trkpt>
      <trkpt lat="49.45949" lon="1.3927">
        <ele>67.385002</ele>
        <time>2010-11-06T13:27:53Z</time>
      </trkpt>
      <trkpt lat="49.45922" lon="1.39315">
        <ele>68.800003</ele>
        <time>2010-11-06T13:28:07Z</time>
      </trkpt>
      <trkpt lat="49.45914" lon="1.39303">
        <ele>68.472504</ele>
        <time>2010-11-06T13:28:20Z</time>
      </trkpt>
      <trkpt lat="49.45913" lon="1.39301">
        <ele>68.402496</ele>
        <time>2010-11-06T13:28:47Z</time>
      </trkpt>
      <trkpt lat="49.45913" lon="1.39299">
        <ele>68.347504</ele>
        <time>2010-11-06T13:29:03Z</time>
      </trkpt>
      <trkpt lat="49.4591" lon="1.39302">
        <ele>68.4375</ele>
        <time>2010-11-06T13:29:20Z</time>
      </trkpt>
      <trkpt lat="49.45909" lon="1.39303">
        <ele>68.464996</ele>
        <time>2010-11-06T13:29:35Z</time>
      </trkpt>
      <trkpt lat="49.45915" lon="1.39313">
        <ele>68.752502</ele>
        <time>2010-11-06T13:29:45Z</time>
      </trkpt>
      <trkpt lat="49.45917" lon="1.39314">
        <ele>68.772499</ele>
        <time>2010-11-06T13:29:52Z</time>
      </trkpt>
      <trkpt lat="49.45923" lon="1.39306">
        <ele>68.5625</ele>
        <time>2010-11-06T13:30:01Z</time>
      </trkpt>
      <trkpt lat="49.45925" lon="1.39303">
        <ele>68.449997</ele>
        <time>2010-11-06T13:30:18Z</time>
      </trkpt>
      <trkpt lat="49.45931" lon="1.39301">
        <ele>68.397499</ele>
        <time>2010-11-06T13:32:03Z</time>
      </trkpt>
      <trkpt lat="49.45931" lon="1.39297">
        <ele>68.279999</ele>
        <time>2010-11-06T13:32:21Z</time>
      </trkpt>
      <trkpt lat="49.4593" lon="1.39299">
        <ele>68.337502</ele>
        <time>2010-11-06T13:32:30Z</time>
      </trkpt>
      <trkpt lat="49.45926" lon="1.39303">
        <ele>68.470001</ele>
        <time>2010-11-06T13:32:35Z</time>
      </trkpt>
      <trkpt lat="49.45922" lon="1.39314">
        <ele>68.782501</ele>
        <time>2010-11-06T13:32:42Z</time>
      </trkpt>
      <trkpt lat="49.45914" lon="1.39303">
        <ele>68.464996</ele>
        <time>2010-11-06T13:32:51Z</time>
      </trkpt>
      <trkpt lat="49.45904" lon="1.39286">
        <ele>67.967499</ele>
        <time>2010-11-06T13:33:02Z</time>
      </trkpt>
      <trkpt lat="49.45902" lon="1.39292">
        <ele>68.142502</ele>
        <time>2010-11-06T13:33:06Z</time>
      </trkpt>
      <trkpt lat="49.45918" lon="1.39317">
        <ele>68.855003</ele>
        <time>2010-11-06T13:33:22Z</time>
      </trkpt>
      <trkpt lat="49.45922" lon="1.39325">
        <ele>69.075081</ele>
        <time>2010-11-06T13:33:27Z</time>
      </trkpt>
      <trkpt lat="49.45923" lon="1.39331">
        <ele>69.192284</ele>
        <time>2010-11-06T13:33:30Z</time>
      </trkpt>
      <trkpt lat="49.45917" lon="1.39344">
        <ele>69.518738</ele>
        <time>2010-11-06T13:33:40Z</time>
      </trkpt>
      <trkpt lat="49.45914" lon="1.3935">
        <ele>69.684753</ele>
        <time>2010-11-06T13:33:44Z</time>
      </trkpt>
      <trkpt lat="49.45915" lon="1.39354">
        <ele>69.758499</ele>
        <time>2010-11-06T13:33:47Z</time>
      </trkpt>
      <trkpt lat="49.45917" lon="1.39346">
        <ele>69.560242</ele>
        <time>2010-11-06T13:33:52Z</time>
      </trkpt>
      <trkpt lat="49.4593" lon="1.39316">
        <ele>68.830002</ele>
        <time>2010-11-06T13:34:10Z</time>
      </trkpt>
      <trkpt lat="49.45932" lon="1.39314">
        <ele>68.775002</ele>
        <time>2010-11-06T13:34:13Z</time>
      </trkpt>
      <trkpt lat="49.45944" lon="1.39289">
        <ele>68.044998</ele>
        <time>2010-11-06T13:34:25Z</time>
      </trkpt>
      <trkpt lat="49.45953" lon="1.39269">
        <ele>67.275002</ele>
        <time>2010-11-06T13:34:32Z</time>
      </trkpt>
      <trkpt lat="49.45952" lon="1.39264">
        <ele>67.144997</ele>
        <time>2010-11-06T13:34:35Z</time>
      </trkpt>
      <trkpt lat="49.45944" lon="1.39284">
        <ele>67.900002</ele>
        <time>2010-11-06T13:34:47Z</time>
      </trkpt>
      <trkpt lat="49.45929" lon="1.39313">
        <ele>68.745003</ele>
        <time>2010-11-06T13:35:04Z</time>
      </trkpt>
      <trkpt lat="49.45927" lon="1.39315">
        <ele>68.805</ele>
        <time>2010-11-06T13:35:16Z</time>
      </trkpt>
      <trkpt lat="49.45924" lon="1.39318">
        <ele>68.907501</ele>
        <time>2010-11-06T13:35:55Z</time>
      </trkpt>
      <trkpt lat="49.45924" lon="1.39317">
        <ele>68.8675</ele>
        <time>2010-11-06T13:36:23Z</time>
      </trkpt>
      <trkpt lat="49.45922" lon="1.39317">
        <ele>68.862503</ele>
        <time>2010-11-06T13:37:00Z</time>
      </trkpt>
      <trkpt lat="49.45923" lon="1.39322">
        <ele>69.01091</ele>
        <time>2010-11-06T13:37:04Z</time>
      </trkpt>
      <trkpt lat="49.45928" lon="1.39315">
        <ele>68.809998</ele>
        <time>2010-11-06T13:37:09Z</time>
      </trkpt>
      <trkpt lat="49.4595" lon="1.39269">
        <ele>67.327499</ele>
        <time>2010-11-06T13:37:21Z</time>
      </trkpt>
      <trkpt lat="49.45949" lon="1.39265">
        <ele>67.2425</ele>
        <time>2010-11-06T13:37:29Z</time>
      </trkpt>
      <trkpt lat="49.45939" lon="1.39294">
        <ele>68.202499</ele>
        <time>2010-11-06T13:37:44Z</time>
      </trkpt>
      <trkpt lat="49.45927" lon="1.39314">
        <ele>68.792503</ele>
        <time>2010-11-06T13:37:57Z</time>
      </trkpt>
      <trkpt lat="49.45923" lon="1.39316">
        <ele>68.845001</ele>
        <time>2010-11-06T13:38:19Z</time>
      </trkpt>
      <trkpt lat="49.45924" lon="1.39315">
        <ele>68.797501</ele>
        <time>2010-11-06T13:39:52Z</time>
      </trkpt>
      <trkpt lat="49.45921" lon="1.39313">
        <ele>68.760002</ele>
        <time>2010-11-06T13:41:28Z</time>
      </trkpt>
      <trkpt lat="49.45923" lon="1.39323">
        <ele>69.036377</ele>
        <time>2010-11-06T13:41:33Z</time>
      </trkpt>
      <trkpt lat="49.45959" lon="1.39381">
        <ele>69.532501</ele>
        <time>2010-11-06T13:41:53Z</time>
      </trkpt>
      <trkpt lat="49.45995" lon="1.39437">
        <ele>69.699997</ele>
        <time>2010-11-06T13:42:12Z</time>
      </trkpt>
      <trkpt lat="49.4604" lon="1.39508">
        <ele>70.613747</ele>
        <time>2010-11-06T13:42:31Z</time>
      </trkpt>
      <trkpt lat="49.46066" lon="1.39557">
        <ele>70.459114</ele>
        <time>2010-11-06T13:42:43Z</time>
      </trkpt>
      <trkpt lat="49.46081" lon="1.39623">
        <ele>69.959999</ele>
        <time>2010-11-06T13:42:54Z</time>
      </trkpt>
      <trkpt lat="49.46127" lon="1.39699">
        <ele>66.843292</ele>
        <time>2010-11-06T13:43:05Z</time>
      </trkpt>
      <trkpt lat="49.46204" lon="1.39815">
        <ele>62.739075</ele>
        <time>2010-11-06T13:43:19Z</time>
      </trkpt>
      <trkpt lat="49.46226" lon="1.39828">
        <ele>63.915001</ele>
        <time>2010-11-06T13:43:23Z</time>
      </trkpt>
      <trkpt lat="49.46247" lon="1.3984">
        <ele>65.089996</ele>
        <time>2010-11-06T13:43:28Z</time>
      </trkpt>
      <trkpt lat="49.46304" lon="1.3992">
        <ele>69.3032</ele>
        <time>2010-11-06T13:43:46Z</time>
      </trkpt>
      <trkpt lat="49.46337" lon="1.39972">
        <ele>70.910004</ele>
        <time>2010-11-06T13:44:02Z</time>
      </trkpt>
      <trkpt lat="49.46348" lon="1.39999">
        <ele>71.974998</ele>
        <time>2010-11-06T13:44:13Z</time>
      </trkpt>
      <trkpt lat="49.46366" lon="1.40033">
        <ele>72.449684</ele>
        <time>2010-11-06T13:44:28Z</time>
      </trkpt>
      <trkpt lat="49.4639" lon="1.40078">
        <ele>73.392555</ele>
        <time>2010-11-06T13:44:49Z</time>
      </trkpt>
      <trkpt lat="49.46398" lon="1.40113">
        <ele>76.319939</ele>
        <time>2010-11-06T13:45:02Z</time>
      </trkpt>
      <trkpt lat="49.46398" lon="1.40116">
        <ele>76.614059</ele>
        <time>2010-11-06T13:45:03Z</time>
      </trkpt>
      <trkpt lat="49.46406" lon="1.40141">
        <ele>78.598503</ele>
        <time>2010-11-06T13:45:18Z</time>
      </trkpt>
      <trkpt lat="49.46415" lon="1.40168">
        <ele>79.879776</ele>
        <time>2010-11-06T13:45:29Z</time>
      </trkpt>
      <trkpt lat="49.46417" lon="1.40174">
        <ele>80.220001</ele>
        <time>2010-11-06T13:45:32Z</time>
      </trkpt>
      <trkpt lat="49.46425" lon="1.40199">
        <ele>81.716827</ele>
        <time>2010-11-06T13:45:46Z</time>
      </trkpt>
      <trkpt lat="49.46431" lon="1.40227">
        <ele>83.370003</ele>
        <time>2010-11-06T13:45:59Z</time>
      </trkpt>
      <trkpt lat="49.46439" lon="1.40254">
        <ele>84.779999</ele>
        <time>2010-11-06T13:46:12Z</time>
      </trkpt>
      <trkpt lat="49.46444" lon="1.40267">
        <ele>85.470001</ele>
        <time>2010-11-06T13:46:19Z</time>
      </trkpt>
      <trkpt lat="49.46456" lon="1.40297">
        <ele>86.239998</ele>
        <time>2010-11-06T13:46:34Z</time>
      </trkpt>
      <trkpt lat="49.4646" lon="1.4032">
        <ele>87.215004</ele>
        <time>2010-11-06T13:46:49Z</time>
      </trkpt>
      <trkpt lat="49.4645" lon="1.40337">
        <ele>89.055</ele>
        <time>2010-11-06T13:47:04Z</time>
      </trkpt>
      <trkpt lat="49.46447" lon="1.40346">
        <ele>89.855003</ele>
        <time>2010-11-06T13:47:56Z</time>
      </trkpt>
      <trkpt lat="49.46447" lon="1.40349">
        <ele>90.202499</ele>
        <time>2010-11-06T13:47:58Z</time>
      </trkpt>
      <trkpt lat="49.46444" lon="1.40357">
        <ele>91.076599</ele>
        <time>2010-11-06T13:48:02Z</time>
      </trkpt>
      <trkpt lat="49.46437" lon="1.40407">
        <ele>95.894753</ele>
        <time>2010-11-06T13:48:20Z</time>
      </trkpt>
      <trkpt lat="49.46458" lon="1.40433">
        <ele>96.790001</ele>
        <time>2010-11-06T13:48:34Z</time>
      </trkpt>
      <trkpt lat="49.46479" lon="1.4046">
        <ele>97.758751</ele>
        <time>2010-11-06T13:48:46Z</time>
      </trkpt>
      <trkpt lat="49.46464" lon="1.40497">
        <ele>102.866249</ele>
        <time>2010-11-06T13:49:01Z</time>
      </trkpt>
      <trkpt lat="49.4646" lon="1.40511">
        <ele>104.631248</ele>
        <time>2010-11-06T13:49:08Z</time>
      </trkpt>
      <trkpt lat="49.46465" lon="1.4052">
        <ele>105.139999</ele>
        <time>2010-11-06T13:49:13Z</time>
      </trkpt>
      <trkpt lat="49.4649" lon="1.40552">
        <ele>106.222313</ele>
        <time>2010-11-06T13:49:28Z</time>
      </trkpt>
      <trkpt lat="49.46512" lon="1.40581">
        <ele>107.049454</ele>
        <time>2010-11-06T13:49:41Z</time>
      </trkpt>
      <trkpt lat="49.46522" lon="1.40607">
        <ele>108.731041</ele>
        <time>2010-11-06T13:49:49Z</time>
      </trkpt>
      <trkpt lat="49.4654" lon="1.40642">
        <ele>110.096626</ele>
        <time>2010-11-06T13:50:00Z</time>
      </trkpt>
      <trkpt lat="49.46548" lon="1.40656">
        <ele>110.041901</ele>
        <time>2010-11-06T13:50:04Z</time>
      </trkpt>
      <trkpt lat="49.4657" lon="1.40688">
        <ele>110.102303</ele>
        <time>2010-11-06T13:50:19Z</time>
      </trkpt>
      <trkpt lat="49.46589" lon="1.40718">
        <ele>109.578438</ele>
        <time>2010-11-06T13:50:30Z</time>
      </trkpt>
      <trkpt lat="49.46602" lon="1.4074">
        <ele>108.85453</ele>
        <time>2010-11-06T13:50:37Z</time>
      </trkpt>
      <trkpt lat="49.46609" lon="1.40757">
        <ele>108.568748</ele>
        <time>2010-11-06T13:50:42Z</time>
      </trkpt>
      <trkpt lat="49.46638" lon="1.40792">
        <ele>105.940483</ele>
        <time>2010-11-06T13:50:51Z</time>
      </trkpt>
      <trkpt lat="49.46655" lon="1.40811">
        <ele>103.490669</ele>
        <time>2010-11-06T13:50:55Z</time>
      </trkpt>
      <trkpt lat="49.46667" lon="1.40827">
        <ele>101.355095</ele>
        <time>2010-11-06T13:50:58Z</time>
      </trkpt>
      <trkpt lat="49.46684" lon="1.40884">
        <ele>98.861824</ele>
        <time>2010-11-06T13:51:09Z</time>
      </trkpt>
      <trkpt lat="49.46689" lon="1.40909">
        <ele>98.111603</ele>
        <time>2010-11-06T13:51:20Z</time>
      </trkpt>
      <trkpt lat="49.46696" lon="1.409">
        <ele>96.54615</ele>
        <time>2010-11-06T13:51:36Z</time>
      </trkpt>
      <trkpt lat="49.46707" lon="1.40897">
        <ele>94.350922</ele>
        <time>2010-11-06T13:52:23Z</time>
      </trkpt>
      <trkpt lat="49.46707" lon="1.40898">
        <ele>94.347984</ele>
        <time>2010-11-06T13:52:43Z</time>
      </trkpt>
      <trkpt lat="49.467" lon="1.40914">
        <ele>95.778313</ele>
        <time>2010-11-06T13:52:50Z</time>
      </trkpt>
      <trkpt lat="49.46691" lon="1.40953">
        <ele>97.844376</ele>
        <time>2010-11-06T13:53:01Z</time>
      </trkpt>
      <trkpt lat="49.46689" lon="1.41016">
        <ele>98.891624</ele>
        <time>2010-11-06T13:53:12Z</time>
      </trkpt>
      <trkpt lat="49.46695" lon="1.41064">
        <ele>96.364075</ele>
        <time>2010-11-06T13:53:21Z</time>
      </trkpt>
      <trkpt lat="49.46696" lon="1.41079">
        <ele>95.556198</ele>
        <time>2010-11-06T13:53:24Z</time>
      </trkpt>
      <trkpt lat="49.46704" lon="1.41113">
        <ele>92.722</ele>
        <time>2010-11-06T13:53:31Z</time>
      </trkpt>
      <trkpt lat="49.46718" lon="1.41135">
        <ele>89.125984</ele>
        <time>2010-11-06T13:53:36Z</time>
      </trkpt>
      <trkpt lat="49.46771" lon="1.41151">
        <ele>85.551437</ele>
        <time>2010-11-06T13:53:47Z</time>
      </trkpt>
      <trkpt lat="49.46793" lon="1.41153">
        <ele>88.045151</ele>
        <time>2010-11-06T13:53:51Z</time>
      </trkpt>
      <trkpt lat="49.46819" lon="1.41129">
        <ele>88.239922</ele>
        <time>2010-11-06T13:54:00Z</time>
      </trkpt>
      <trkpt lat="49.46854" lon="1.41084">
        <ele>87.832291</ele>
        <time>2010-11-06T13:54:12Z</time>
      </trkpt>
      <trkpt lat="49.46879" lon="1.41102">
        <ele>85.916847</ele>
        <time>2010-11-06T13:54:20Z</time>
      </trkpt>
      <trkpt lat="49.46892" lon="1.41149">
        <ele>83.807823</ele>
        <time>2010-11-06T13:54:29Z</time>
      </trkpt>
      <trkpt lat="49.46903" lon="1.41198">
        <ele>82.10125</ele>
        <time>2010-11-06T13:54:39Z</time>
      </trkpt>
      <trkpt lat="49.46907" lon="1.41253">
        <ele>82.641647</ele>
        <time>2010-11-06T13:54:51Z</time>
      </trkpt>
      <trkpt lat="49.46911" lon="1.41312">
        <ele>83.829193</ele>
        <time>2010-11-06T13:55:00Z</time>
      </trkpt>
      <trkpt lat="49.46915" lon="1.41338">
        <ele>84.1642</ele>
        <time>2010-11-06T13:55:04Z</time>
      </trkpt>
      <trkpt lat="49.46924" lon="1.41398">
        <ele>84.824272</ele>
        <time>2010-11-06T13:55:15Z</time>
      </trkpt>
      <trkpt lat="49.46932" lon="1.41445">
        <ele>85.06678</ele>
        <time>2010-11-06T13:55:24Z</time>
      </trkpt>
      <trkpt lat="49.46948" lon="1.41504">
        <ele>83.864677</ele>
        <time>2010-11-06T13:55:35Z</time>
      </trkpt>
      <trkpt lat="49.4695" lon="1.4151">
        <ele>83.834251</ele>
        <time>2010-11-06T13:55:36Z</time>
      </trkpt>
      <trkpt lat="49.46971" lon="1.41574">
        <ele>82.495872</ele>
        <time>2010-11-06T13:55:48Z</time>
      </trkpt>
      <trkpt lat="49.46992" lon="1.41644">
        <ele>81.446625</ele>
        <time>2010-11-06T13:56:01Z</time>
      </trkpt>
      <trkpt lat="49.47011" lon="1.41723">
        <ele>81.255539</ele>
        <time>2010-11-06T13:56:15Z</time>
      </trkpt>
      <trkpt lat="49.47027" lon="1.4179">
        <ele>81.538124</ele>
        <time>2010-11-06T13:56:28Z</time>
      </trkpt>
      <trkpt lat="49.47038" lon="1.41831">
        <ele>80.272156</ele>
        <time>2010-11-06T13:56:36Z</time>
      </trkpt>
      <trkpt lat="49.47046" lon="1.41863">
        <ele>79.858528</ele>
        <time>2010-11-06T13:56:41Z</time>
      </trkpt>
      <trkpt lat="49.47065" lon="1.41947">
        <ele>80.669312</ele>
        <time>2010-11-06T13:56:55Z</time>
      </trkpt>
      <trkpt lat="49.47074" lon="1.42002">
        <ele>81.816002</ele>
        <time>2010-11-06T13:57:06Z</time>
      </trkpt>
      <trkpt lat="49.47074" lon="1.42009">
        <ele>82.238136</ele>
        <time>2010-11-06T13:57:08Z</time>
      </trkpt>
      <trkpt lat="49.47088" lon="1.42062">
        <ele>82.29306</ele>
        <time>2010-11-06T13:57:23Z</time>
      </trkpt>
      <trkpt lat="49.471" lon="1.42108">
        <ele>82.622696</ele>
        <time>2010-11-06T13:57:34Z</time>
      </trkpt>
      <trkpt lat="49.47117" lon="1.4218">
        <ele>82.610001</ele>
        <time>2010-11-06T13:57:47Z</time>
      </trkpt>
      <trkpt lat="49.47123" lon="1.42211">
        <ele>82.494156</ele>
        <time>2010-11-06T13:57:52Z</time>
      </trkpt>
      <trkpt lat="49.47133" lon="1.42258">
        <ele>82.037277</ele>
        <time>2010-11-06T13:57:59Z</time>
      </trkpt>
      <trkpt lat="49.47149" lon="1.42301">
        <ele>81.061249</ele>
        <time>2010-11-06T13:58:06Z</time>
      </trkpt>
      <trkpt lat="49.4716" lon="1.42337">
        <ele>80.537498</ele>
        <time>2010-11-06T13:58:11Z</time>
      </trkpt>
      <trkpt lat="49.47182" lon="1.42425">
        <ele>80.156799</ele>
        <time>2010-11-06T13:58:23Z</time>
      </trkpt>
      <trkpt lat="49.47185" lon="1.42443">
        <ele>80.573196</ele>
        <time>2010-11-06T13:58:25Z</time>
      </trkpt>
      <trkpt lat="49.47189" lon="1.42462">
        <ele>80.942711</ele>
        <time>2010-11-06T13:58:27Z</time>
      </trkpt>
      <trkpt lat="49.47193" lon="1.42479">
        <ele>80.999176</ele>
        <time>2010-11-06T13:58:29Z</time>
      </trkpt>
      <trkpt lat="49.47204" lon="1.42513">
        <ele>80.580521</ele>
        <time>2010-11-06T13:58:33Z</time>
      </trkpt>
      <trkpt lat="49.47222" lon="1.42576">
        <ele>79.370003</ele>
        <time>2010-11-06T13:58:41Z</time>
      </trkpt>
      <trkpt lat="49.47226" lon="1.42591">
        <ele>79.245003</ele>
        <time>2010-11-06T13:58:43Z</time>
      </trkpt>
      <trkpt lat="49.47237" lon="1.42633">
        <ele>79.517532</ele>
        <time>2010-11-06T13:58:49Z</time>
      </trkpt>
      <trkpt lat="49.47252" lon="1.42705">
        <ele>78.9319</ele>
        <time>2010-11-06T13:58:59Z</time>
      </trkpt>
      <trkpt lat="49.47266" lon="1.42789">
        <ele>78.492203</ele>
        <time>2010-11-06T13:59:12Z</time>
      </trkpt>
      <trkpt lat="49.47267" lon="1.428">
        <ele>78.782501</ele>
        <time>2010-11-06T13:59:14Z</time>
      </trkpt>
      <trkpt lat="49.4728" lon="1.4287">
        <ele>79.033051</ele>
        <time>2010-11-06T13:59:26Z</time>
      </trkpt>
      <trkpt lat="49.47299" lon="1.42958">
        <ele>79.102417</ele>
        <time>2010-11-06T13:59:41Z</time>
      </trkpt>
      <trkpt lat="49.47326" lon="1.43001">
        <ele>75.022514</ele>
        <time>2010-11-06T13:59:50Z</time>
      </trkpt>
      <trkpt lat="49.47341" lon="1.43034">
        <ele>73.556465</ele>
        <time>2010-11-06T13:59:54Z</time>
      </trkpt>
      <trkpt lat="49.4736" lon="1.43095">
        <ele>71.128754</ele>
        <time>2010-11-06T14:00:01Z</time>
      </trkpt>
      <trkpt lat="49.47373" lon="1.43182">
        <ele>70.489998</ele>
        <time>2010-11-06T14:00:11Z</time>
      </trkpt>
      <trkpt lat="49.47382" lon="1.4326">
        <ele>70.77359</ele>
        <time>2010-11-06T14:00:21Z</time>
      </trkpt>
      <trkpt lat="49.47388" lon="1.4332">
        <ele>71.312622</ele>
        <time>2010-11-06T14:00:29Z</time>
      </trkpt>
      <trkpt lat="49.4739" lon="1.43361">
        <ele>71.4049</ele>
        <time>2010-11-06T14:00:35Z</time>
      </trkpt>
      <trkpt lat="49.47394" lon="1.43379">
        <ele>71.949501</ele>
        <time>2010-11-06T14:00:38Z</time>
      </trkpt>
      <trkpt lat="49.47415" lon="1.43449">
        <ele>72.513077</ele>
        <time>2010-11-06T14:00:51Z</time>
      </trkpt>
      <trkpt lat="49.47432" lon="1.43498">
        <ele>74.3834</ele>
        <time>2010-11-06T14:01:04Z</time>
      </trkpt>
      <trkpt lat="49.47448" lon="1.43574">
        <ele>77.860924</ele>
        <time>2010-11-06T14:01:24Z</time>
      </trkpt>
      <trkpt lat="49.47459" lon="1.43635">
        <ele>80.870201</ele>
        <time>2010-11-06T14:01:41Z</time>
      </trkpt>
      <trkpt lat="49.47473" lon="1.43696">
        <ele>78.760002</ele>
        <time>2010-11-06T14:01:56Z</time>
      </trkpt>
      <trkpt lat="49.47492" lon="1.43766">
        <ele>74.559898</ele>
        <time>2010-11-06T14:02:08Z</time>
      </trkpt>
      <trkpt lat="49.475" lon="1.43808">
        <ele>73.79734</ele>
        <time>2010-11-06T14:02:21Z</time>
      </trkpt>
      <trkpt lat="49.47501" lon="1.43854">
        <ele>74.39325</ele>
        <time>2010-11-06T14:02:38Z</time>
      </trkpt>
      <trkpt lat="49.47509" lon="1.43911">
        <ele>74.567497</ele>
        <time>2010-11-06T14:02:55Z</time>
      </trkpt>
      <trkpt lat="49.4752" lon="1.43979">
        <ele>75.143364</ele>
        <time>2010-11-06T14:03:12Z</time>
      </trkpt>
      <trkpt lat="49.47535" lon="1.44046">
        <ele>75.550781</ele>
        <time>2010-11-06T14:03:29Z</time>
      </trkpt>
      <trkpt lat="49.47562" lon="1.44133">
        <ele>74.76001</ele>
        <time>2010-11-06T14:03:46Z</time>
      </trkpt>
      <trkpt lat="49.47607" lon="1.4426">
        <ele>73.58873</ele>
        <time>2010-11-06T14:04:04Z</time>
      </trkpt>
      <trkpt lat="49.47641" lon="1.44393">
        <ele>73.384369</ele>
        <time>2010-11-06T14:04:24Z</time>
      </trkpt>
      <trkpt lat="49.47646" lon="1.4444">
        <ele>74.27504</ele>
        <time>2010-11-06T14:04:38Z</time>
      </trkpt>
      <trkpt lat="49.47624" lon="1.44484">
        <ele>78.995224</ele>
        <time>2010-11-06T14:04:54Z</time>
      </trkpt>
      <trkpt lat="49.47633" lon="1.44549">
        <ele>81.177498</ele>
        <time>2010-11-06T14:05:10Z</time>
      </trkpt>
      <trkpt lat="49.47678" lon="1.44655">
        <ele>83.321327</ele>
        <time>2010-11-06T14:05:38Z</time>
      </trkpt>
      <trkpt lat="49.47726" lon="1.44766">
        <ele>88.771599</ele>
        <time>2010-11-06T14:06:04Z</time>
      </trkpt>
      <trkpt lat="49.47782" lon="1.4485">
        <ele>89.19355</ele>
        <time>2010-11-06T14:06:27Z</time>
      </trkpt>
      <trkpt lat="49.4779" lon="1.44903">
        <ele>89.88855</ele>
        <time>2010-11-06T14:06:38Z</time>
      </trkpt>
      <trkpt lat="49.47761" lon="1.44917">
        <ele>93.489998</ele>
        <time>2010-11-06T14:06:48Z</time>
      </trkpt>
      <trkpt lat="49.4773" lon="1.44869">
        <ele>98.829285</ele>
        <time>2010-11-06T14:07:02Z</time>
      </trkpt>
      <trkpt lat="49.47703" lon="1.44826">
        <ele>99.848503</ele>
        <time>2010-11-06T14:07:15Z</time>
      </trkpt>
      <trkpt lat="49.47676" lon="1.44791">
        <ele>102.611183</ele>
        <time>2010-11-06T14:07:28Z</time>
      </trkpt>
      <trkpt lat="49.47638" lon="1.44739">
        <ele>104.889999</ele>
        <time>2010-11-06T14:07:43Z</time>
      </trkpt>
      <trkpt lat="49.47604" lon="1.44695">
        <ele>107.190323</ele>
        <time>2010-11-06T14:07:57Z</time>
      </trkpt>
      <trkpt lat="49.47594" lon="1.44683">
        <ele>108.040001</ele>
        <time>2010-11-06T14:08:04Z</time>
      </trkpt>
      <trkpt lat="49.47576" lon="1.44661">
        <ele>109.566826</ele>
        <time>2010-11-06T14:08:20Z</time>
      </trkpt>
      <trkpt lat="49.47575" lon="1.44665">
        <ele>110.535149</ele>
        <time>2010-11-06T14:08:34Z</time>
      </trkpt>
      <trkpt lat="49.47591" lon="1.44704">
        <ele>112.540001</ele>
        <time>2010-11-06T14:08:47Z</time>
      </trkpt>
      <trkpt lat="49.47613" lon="1.44755">
        <ele>114.445</ele>
        <time>2010-11-06T14:09:00Z</time>
      </trkpt>
      <trkpt lat="49.47641" lon="1.44827">
        <ele>115.590416</ele>
        <time>2010-11-06T14:09:18Z</time>
      </trkpt>
      <trkpt lat="49.47653" lon="1.44871">
        <ele>116.163246</ele>
        <time>2010-11-06T14:09:30Z</time>
      </trkpt>
      <trkpt lat="49.47641" lon="1.44913">
        <ele>118.678017</ele>
        <time>2010-11-06T14:09:44Z</time>
      </trkpt>
      <trkpt lat="49.47619" lon="1.44933">
        <ele>124.637314</ele>
        <time>2010-11-06T14:09:56Z</time>
      </trkpt>
      <trkpt lat="49.47604" lon="1.44953">
        <ele>127.290184</ele>
        <time>2010-11-06T14:10:05Z</time>
      </trkpt>
      <trkpt lat="49.47578" lon="1.4499">
        <ele>128.073853</ele>
        <time>2010-11-06T14:10:16Z</time>
      </trkpt>
      <trkpt lat="49.47555" lon="1.45026">
        <ele>127.991676</ele>
        <time>2010-11-06T14:10:26Z</time>
      </trkpt>
      <trkpt lat="49.47537" lon="1.45056">
        <ele>124.663895</ele>
        <time>2010-11-06T14:10:37Z</time>
      </trkpt>
      <trkpt lat="49.47526" lon="1.45064">
        <ele>124.670349</ele>
        <time>2010-11-06T14:10:48Z</time>
      </trkpt>
      <trkpt lat="49.47515" lon="1.45074">
        <ele>123.754059</ele>
        <time>2010-11-06T14:11:04Z</time>
      </trkpt>
      <trkpt lat="49.47489" lon="1.4508">
        <ele>125.875748</ele>
        <time>2010-11-06T14:11:15Z</time>
      </trkpt>
      <trkpt lat="49.47455" lon="1.45098">
        <ele>125.2743</ele>
        <time>2010-11-06T14:11:27Z</time>
      </trkpt>
      <trkpt lat="49.47422" lon="1.45114">
        <ele>124.015083</ele>
        <time>2010-11-06T14:11:37Z</time>
      </trkpt>
      <trkpt lat="49.47387" lon="1.45126">
        <ele>124.290451</ele>
        <time>2010-11-06T14:11:50Z</time>
      </trkpt>
      <trkpt lat="49.47358" lon="1.45136">
        <ele>125.356247</ele>
        <time>2010-11-06T14:12:02Z</time>
      </trkpt>
      <trkpt lat="49.47329" lon="1.4515">
        <ele>125.539589</ele>
        <time>2010-11-06T14:12:15Z</time>
      </trkpt>
      <trkpt lat="49.47313" lon="1.45157">
        <ele>126.143593</ele>
        <time>2010-11-06T14:12:25Z</time>
      </trkpt>
      <trkpt lat="49.47309" lon="1.45172">
        <ele>127.999886</ele>
        <time>2010-11-06T14:12:33Z</time>
      </trkpt>
      <trkpt lat="49.47305" lon="1.45175">
        <ele>128.534073</ele>
        <time>2010-11-06T14:12:36Z</time>
      </trkpt>
      <trkpt lat="49.47298" lon="1.45175">
        <ele>129.112442</ele>
        <time>2010-11-06T14:12:41Z</time>
      </trkpt>
      <trkpt lat="49.47276" lon="1.45177">
        <ele>131.593658</ele>
        <time>2010-11-06T14:12:58Z</time>
      </trkpt>
      <trkpt lat="49.47268" lon="1.45176">
        <ele>132.490631</ele>
        <time>2010-11-06T14:13:06Z</time>
      </trkpt>
      <trkpt lat="49.47269" lon="1.45191">
        <ele>133.74675</ele>
        <time>2010-11-06T14:13:15Z</time>
      </trkpt>
      <trkpt lat="49.47292" lon="1.45202">
        <ele>131.969849</ele>
        <time>2010-11-06T14:13:28Z</time>
      </trkpt>
      <trkpt lat="49.47319" lon="1.45205">
        <ele>130.344757</ele>
        <time>2010-11-06T14:13:39Z</time>
      </trkpt>
      <trkpt lat="49.47356" lon="1.4521">
        <ele>128.882507</ele>
        <time>2010-11-06T14:13:51Z</time>
      </trkpt>
      <trkpt lat="49.47394" lon="1.45223">
        <ele>129.276245</ele>
        <time>2010-11-06T14:14:05Z</time>
      </trkpt>
      <trkpt lat="49.47434" lon="1.4525">
        <ele>131.860001</ele>
        <time>2010-11-06T14:14:22Z</time>
      </trkpt>
      <trkpt lat="49.47463" lon="1.45277">
        <ele>135.038757</ele>
        <time>2010-11-06T14:14:37Z</time>
      </trkpt>
      <trkpt lat="49.47482" lon="1.45303">
        <ele>137.750015</ele>
        <time>2010-11-06T14:14:49Z</time>
      </trkpt>
      <trkpt lat="49.47501" lon="1.45323">
        <ele>139.147156</ele>
        <time>2010-11-06T14:15:00Z</time>
      </trkpt>
      <trkpt lat="49.47529" lon="1.45352">
        <ele>141.610825</ele>
        <time>2010-11-06T14:15:16Z</time>
      </trkpt>
      <trkpt lat="49.4754" lon="1.45363">
        <ele>142.579895</ele>
        <time>2010-11-06T14:15:32Z</time>
      </trkpt>
      <trkpt lat="49.47547" lon="1.45366">
        <ele>142.638931</ele>
        <time>2010-11-06T14:16:34Z</time>
      </trkpt>
      <trkpt lat="49.47546" lon="1.4537">
        <ele>143.021423</ele>
        <time>2010-11-06T14:16:45Z</time>
      </trkpt>
      <trkpt lat="49.47541" lon="1.45378">
        <ele>144.109283</ele>
        <time>2010-11-06T14:16:51Z</time>
      </trkpt>
      <trkpt lat="49.47534" lon="1.45384">
        <ele>145.127426</ele>
        <time>2010-11-06T14:16:57Z</time>
      </trkpt>
      <trkpt lat="49.47511" lon="1.45411">
        <ele>148.706696</ele>
        <time>2010-11-06T14:17:14Z</time>
      </trkpt>
      <trkpt lat="49.47494" lon="1.45439">
        <ele>151.967545</ele>
        <time>2010-11-06T14:17:31Z</time>
      </trkpt>
      <trkpt lat="49.47465" lon="1.45474">
        <ele>156.591324</ele>
        <time>2010-11-06T14:17:51Z</time>
      </trkpt>
      <trkpt lat="49.4744" lon="1.45505">
        <ele>160.404922</ele>
        <time>2010-11-06T14:18:07Z</time>
      </trkpt>
      <trkpt lat="49.4741" lon="1.4554">
        <ele>162.796005</ele>
        <time>2010-11-06T14:18:27Z</time>
      </trkpt>
      <trkpt lat="49.47401" lon="1.45553">
        <ele>163.332977</ele>
        <time>2010-11-06T14:18:41Z</time>
      </trkpt>
      <trkpt lat="49.474" lon="1.45554">
        <ele>163.365707</ele>
        <time>2010-11-06T14:19:13Z</time>
      </trkpt>
      <trkpt lat="49.47398" lon="1.45553">
        <ele>163.397766</ele>
        <time>2010-11-06T14:20:19Z</time>
      </trkpt>
      <trkpt lat="49.47393" lon="1.45558">
        <ele>163.615753</ele>
        <time>2010-11-06T14:20:32Z</time>
      </trkpt>
      <trkpt lat="49.47397" lon="1.45557">
        <ele>163.503448</ele>
        <time>2010-11-06T14:21:37Z</time>
      </trkpt>
      <trkpt lat="49.47385" lon="1.45573">
        <ele>163.961945</ele>
        <time>2010-11-06T14:24:41Z</time>
      </trkpt>
      <trkpt lat="49.47345" lon="1.45625">
        <ele>164.138123</ele>
        <time>2010-11-06T14:24:59Z</time>
      </trkpt>
      <trkpt lat="49.47302" lon="1.45686">
        <ele>164.125</ele>
        <time>2010-11-06T14:25:15Z</time>
      </trkpt>
      <trkpt lat="49.47296" lon="1.45695">
        <ele>164.132492</ele>
        <time>2010-11-06T14:25:17Z</time>
      </trkpt>
      <trkpt lat="49.47239" lon="1.45769">
        <ele>160.881805</ele>
        <time>2010-11-06T14:25:33Z</time>
      </trkpt>
      <trkpt lat="49.472" lon="1.4578">
        <ele>158.342606</ele>
        <time>2010-11-06T14:25:40Z</time>
      </trkpt>
      <trkpt lat="49.47112" lon="1.45752">
        <ele>157.089813</ele>
        <time>2010-11-06T14:25:56Z</time>
      </trkpt>
      <trkpt lat="49.47106" lon="1.45753">
        <ele>157.485001</ele>
        <time>2010-11-06T14:25:57Z</time>
      </trkpt>
      <trkpt lat="49.47083" lon="1.4579">
        <ele>159.054398</ele>
        <time>2010-11-06T14:26:04Z</time>
      </trkpt>
      <trkpt lat="49.47088" lon="1.45806">
        <ele>159.333054</ele>
        <time>2010-11-06T14:26:07Z</time>
      </trkpt>
      <trkpt lat="49.47115" lon="1.45856">
        <ele>160.156876</ele>
        <time>2010-11-06T14:26:17Z</time>
      </trkpt>
      <trkpt lat="49.47122" lon="1.459">
        <ele>160.222931</ele>
        <time>2010-11-06T14:26:24Z</time>
      </trkpt>
      <trkpt lat="49.47093" lon="1.45964">
        <ele>162.882675</ele>
        <time>2010-11-06T14:26:39Z</time>
      </trkpt>
      <trkpt lat="49.47042" lon="1.46034">
        <ele>165.574249</ele>
        <time>2010-11-06T14:26:58Z</time>
      </trkpt>
      <trkpt lat="49.46985" lon="1.46112">
        <ele>166.176941</ele>
        <time>2010-11-06T14:27:19Z</time>
      </trkpt>
      <trkpt lat="49.46926" lon="1.46192">
        <ele>165.095001</ele>
        <time>2010-11-06T14:27:37Z</time>
      </trkpt>
      <trkpt lat="49.46879" lon="1.46241">
        <ele>162.692505</ele>
        <time>2010-11-06T14:27:48Z</time>
      </trkpt>
      <trkpt lat="49.46845" lon="1.46247">
        <ele>161.846497</ele>
        <time>2010-11-06T14:27:52Z</time>
      </trkpt>
      <trkpt lat="49.46826" lon="1.46255">
        <ele>161.902176</ele>
        <time>2010-11-06T14:27:55Z</time>
      </trkpt>
      <trkpt lat="49.46805" lon="1.46306">
        <ele>161.976242</ele>
        <time>2010-11-06T14:28:02Z</time>
      </trkpt>
      <trkpt lat="49.4678" lon="1.46378">
        <ele>164.287506</ele>
        <time>2010-11-06T14:28:16Z</time>
      </trkpt>
      <trkpt lat="49.46721" lon="1.46457">
        <ele>166.126251</ele>
        <time>2010-11-06T14:28:34Z</time>
      </trkpt>
      <trkpt lat="49.4671" lon="1.46472">
        <ele>166.164719</ele>
        <time>2010-11-06T14:28:37Z</time>
      </trkpt>
      <trkpt lat="49.46658" lon="1.46544">
        <ele>166.300003</ele>
        <time>2010-11-06T14:28:52Z</time>
      </trkpt>
      <trkpt lat="49.46646" lon="1.46559">
        <ele>166.574997</ele>
        <time>2010-11-06T14:28:56Z</time>
      </trkpt>
      <trkpt lat="49.46617" lon="1.46596">
        <ele>167.449997</ele>
        <time>2010-11-06T14:29:10Z</time>
      </trkpt>
      <trkpt lat="49.46589" lon="1.46592">
        <ele>168.699997</ele>
        <time>2010-11-06T14:29:22Z</time>
      </trkpt>
      <trkpt lat="49.46538" lon="1.46576">
        <ele>169.970001</ele>
        <time>2010-11-06T14:29:37Z</time>
      </trkpt>
      <trkpt lat="49.46493" lon="1.4656">
        <ele>170.975006</ele>
        <time>2010-11-06T14:29:51Z</time>
      </trkpt>
      <trkpt lat="49.46459" lon="1.46548">
        <ele>171.740005</ele>
        <time>2010-11-06T14:30:03Z</time>
      </trkpt>
      <trkpt lat="49.46418" lon="1.46536">
        <ele>172.525467</ele>
        <time>2010-11-06T14:30:19Z</time>
      </trkpt>
      <trkpt lat="49.46399" lon="1.46528">
        <ele>172.714478</ele>
        <time>2010-11-06T14:30:32Z</time>
      </trkpt>
      <trkpt lat="49.4639" lon="1.46523">
        <ele>172.722488</ele>
        <time>2010-11-06T14:30:46Z</time>
      </trkpt>
      <trkpt lat="49.46381" lon="1.46517">
        <ele>172.748611</ele>
        <time>2010-11-06T14:30:51Z</time>
      </trkpt>
      <trkpt lat="49.46352" lon="1.4651">
        <ele>173</ele>
        <time>2010-11-06T14:31:04Z</time>
      </trkpt>
      <trkpt lat="49.46321" lon="1.46502">
        <ele>173</ele>
        <time>2010-11-06T14:31:15Z</time>
      </trkpt>
      <trkpt lat="49.46288" lon="1.46491">
        <ele>172.464996</ele>
        <time>2010-11-06T14:31:25Z</time>
      </trkpt>
      <trkpt lat="49.46258" lon="1.46488">
        <ele>171.818253</ele>
        <time>2010-11-06T14:31:35Z</time>
      </trkpt>
      <trkpt lat="49.46235" lon="1.46478">
        <ele>171.300003</ele>
        <time>2010-11-06T14:31:44Z</time>
      </trkpt>
      <trkpt lat="49.46199" lon="1.46465">
        <ele>170.617615</ele>
        <time>2010-11-06T14:31:56Z</time>
      </trkpt>
      <trkpt lat="49.46175" lon="1.46454">
        <ele>170.410126</ele>
        <time>2010-11-06T14:32:07Z</time>
      </trkpt>
      <trkpt lat="49.46142" lon="1.46447">
        <ele>170.120377</ele>
        <time>2010-11-06T14:32:20Z</time>
      </trkpt>
      <trkpt lat="49.46114" lon="1.46441">
        <ele>169.468628</ele>
        <time>2010-11-06T14:32:31Z</time>
      </trkpt>
      <trkpt lat="49.46103" lon="1.46439">
        <ele>169.145599</ele>
        <time>2010-11-06T14:32:36Z</time>
      </trkpt>
      <trkpt lat="49.46096" lon="1.46453">
        <ele>168.762314</ele>
        <time>2010-11-06T14:32:42Z</time>
      </trkpt>
      <trkpt lat="49.46083" lon="1.46549">
        <ele>168.731827</ele>
        <time>2010-11-06T14:32:59Z</time>
      </trkpt>
      <trkpt lat="49.46073" lon="1.46633">
        <ele>168.320007</ele>
        <time>2010-11-06T14:33:14Z</time>
      </trkpt>
      <trkpt lat="49.46061" lon="1.46752">
        <ele>167.417633</ele>
        <time>2010-11-06T14:33:29Z</time>
      </trkpt>
      <trkpt lat="49.46054" lon="1.46785">
        <ele>166.862503</ele>
        <time>2010-11-06T14:33:34Z</time>
      </trkpt>
      <trkpt lat="49.46035" lon="1.46786">
        <ele>166.434998</ele>
        <time>2010-11-06T14:33:39Z</time>
      </trkpt>
      <trkpt lat="49.45953" lon="1.46764">
        <ele>164.949997</ele>
        <time>2010-11-06T14:33:53Z</time>
      </trkpt>
      <trkpt lat="49.45886" lon="1.46747">
        <ele>163.615036</ele>
        <time>2010-11-06T14:34:07Z</time>
      </trkpt>
      <trkpt lat="49.45806" lon="1.46725">
        <ele>164.29657</ele>
        <time>2010-11-06T14:34:24Z</time>
      </trkpt>
      <trkpt lat="49.45763" lon="1.46714">
        <ele>164.762497</ele>
        <time>2010-11-06T14:34:33Z</time>
      </trkpt>
      <trkpt lat="49.45684" lon="1.46693">
        <ele>163.985001</ele>
        <time>2010-11-06T14:34:50Z</time>
      </trkpt>
      <trkpt lat="49.45581" lon="1.46668">
        <ele>160.770126</ele>
        <time>2010-11-06T14:35:09Z</time>
      </trkpt>
      <trkpt lat="49.45562" lon="1.46662">
        <ele>159.579849</ele>
        <time>2010-11-06T14:35:16Z</time>
      </trkpt>
      <trkpt lat="49.45559" lon="1.46677">
        <ele>159.804184</ele>
        <time>2010-11-06T14:35:23Z</time>
      </trkpt>
      <trkpt lat="49.45577" lon="1.46704">
        <ele>161.210007</ele>
        <time>2010-11-06T14:35:37Z</time>
      </trkpt>
      <trkpt lat="49.45603" lon="1.46735">
        <ele>162.179993</ele>
        <time>2010-11-06T14:35:49Z</time>
      </trkpt>
      <trkpt lat="49.45639" lon="1.4677">
        <ele>162.941254</ele>
        <time>2010-11-06T14:36:02Z</time>
      </trkpt>
      <trkpt lat="49.45672" lon="1.468">
        <ele>162.860504</ele>
        <time>2010-11-06T14:36:13Z</time>
      </trkpt>
      <trkpt lat="49.45694" lon="1.46821">
        <ele>163.042175</ele>
        <time>2010-11-06T14:36:21Z</time>
      </trkpt>
      <trkpt lat="49.45725" lon="1.46849">
        <ele>162.783432</ele>
        <time>2010-11-06T14:36:31Z</time>
      </trkpt>
      <trkpt lat="49.45757" lon="1.46883">
        <ele>161.711243</ele>
        <time>2010-11-06T14:36:42Z</time>
      </trkpt>
      <trkpt lat="49.45764" lon="1.46891">
        <ele>161.452499</ele>
        <time>2010-11-06T14:36:44Z</time>
      </trkpt>
      <trkpt lat="49.45772" lon="1.46912">
        <ele>160.815628</ele>
        <time>2010-11-06T14:36:48Z</time>
      </trkpt>
      <trkpt lat="49.45771" lon="1.46969">
        <ele>159.116592</ele>
        <time>2010-11-06T14:36:56Z</time>
      </trkpt>
      <trkpt lat="49.45769" lon="1.47006">
        <ele>158.74472</ele>
        <time>2010-11-06T14:37:00Z</time>
      </trkpt>
      <trkpt lat="49.45762" lon="1.47075">
        <ele>159.017502</ele>
        <time>2010-11-06T14:37:08Z</time>
      </trkpt>
      <trkpt lat="49.45757" lon="1.47109">
        <ele>159.574997</ele>
        <time>2010-11-06T14:37:12Z</time>
      </trkpt>
      <trkpt lat="49.45748" lon="1.47144">
        <ele>160.321381</ele>
        <time>2010-11-06T14:37:17Z</time>
      </trkpt>
      <trkpt lat="49.45719" lon="1.47199">
        <ele>161.327408</ele>
        <time>2010-11-06T14:37:29Z</time>
      </trkpt>
      <trkpt lat="49.45691" lon="1.47256">
        <ele>163.101181</ele>
        <time>2010-11-06T14:37:42Z</time>
      </trkpt>
      <trkpt lat="49.45685" lon="1.47305">
        <ele>163.636856</ele>
        <time>2010-11-06T14:37:53Z</time>
      </trkpt>
      <trkpt lat="49.45681" lon="1.47354">
        <ele>163.128754</ele>
        <time>2010-11-06T14:38:02Z</time>
      </trkpt>
      <trkpt lat="49.45677" lon="1.47412">
        <ele>162.365494</ele>
        <time>2010-11-06T14:38:14Z</time>
      </trkpt>
      <trkpt lat="49.45669" lon="1.47483">
        <ele>161.404373</ele>
        <time>2010-11-06T14:38:26Z</time>
      </trkpt>
      <trkpt lat="49.45661" lon="1.47547">
        <ele>160.575027</ele>
        <time>2010-11-06T14:38:37Z</time>
      </trkpt>
      <trkpt lat="49.45653" lon="1.4759">
        <ele>160.159943</ele>
        <time>2010-11-06T14:38:48Z</time>
      </trkpt>
      <trkpt lat="49.45649" lon="1.47605">
        <ele>160.340744</ele>
        <time>2010-11-06T14:39:04Z</time>
      </trkpt>
      <trkpt lat="49.45644" lon="1.47623">
        <ele>160.853882</ele>
        <time>2010-11-06T14:39:49Z</time>
      </trkpt>
      <trkpt lat="49.45631" lon="1.47656">
        <ele>161.798126</ele>
        <time>2010-11-06T14:40:03Z</time>
      </trkpt>
      <trkpt lat="49.45606" lon="1.47718">
        <ele>162.783752</ele>
        <time>2010-11-06T14:40:23Z</time>
      </trkpt>
      <trkpt lat="49.45572" lon="1.47801">
        <ele>163.992981</ele>
        <time>2010-11-06T14:40:44Z</time>
      </trkpt>
      <trkpt lat="49.45542" lon="1.47875">
        <ele>165.01181</ele>
        <time>2010-11-06T14:41:01Z</time>
      </trkpt>
      <trkpt lat="49.4551" lon="1.47956">
        <ele>166.096207</ele>
        <time>2010-11-06T14:41:18Z</time>
      </trkpt>
      <trkpt lat="49.45475" lon="1.48045">
        <ele>167.819702</ele>
        <time>2010-11-06T14:41:36Z</time>
      </trkpt>
      <trkpt lat="49.45426" lon="1.48167">
        <ele>168</ele>
        <time>2010-11-06T14:41:57Z</time>
      </trkpt>
      <trkpt lat="49.45365" lon="1.48316">
        <ele>168</ele>
        <time>2010-11-06T14:42:19Z</time>
      </trkpt>
      <trkpt lat="49.45294" lon="1.48498">
        <ele>167.980392</ele>
        <time>2010-11-06T14:42:43Z</time>
      </trkpt>
      <trkpt lat="49.45237" lon="1.4864">
        <ele>165.02063</ele>
        <time>2010-11-06T14:43:00Z</time>
      </trkpt>
      <trkpt lat="49.45179" lon="1.48785">
        <ele>166.065094</ele>
        <time>2010-11-06T14:43:19Z</time>
      </trkpt>
      <trkpt lat="49.45129" lon="1.48905">
        <ele>165.920685</ele>
        <time>2010-11-06T14:43:37Z</time>
      </trkpt>
      <trkpt lat="49.45108" lon="1.48962">
        <ele>165.815002</ele>
        <time>2010-11-06T14:43:47Z</time>
      </trkpt>
      <trkpt lat="49.45067" lon="1.49062">
        <ele>165.869995</ele>
        <time>2010-11-06T14:44:04Z</time>
      </trkpt>
      <trkpt lat="49.45034" lon="1.49144">
        <ele>165.130005</ele>
        <time>2010-11-06T14:44:17Z</time>
      </trkpt>
      <trkpt lat="49.44986" lon="1.49264">
        <ele>165.070007</ele>
        <time>2010-11-06T14:44:34Z</time>
      </trkpt>
      <trkpt lat="49.44972" lon="1.49298">
        <ele>165.40242</ele>
        <time>2010-11-06T14:44:39Z</time>
      </trkpt>
      <trkpt lat="49.4494" lon="1.49379">
        <ele>165.725113</ele>
        <time>2010-11-06T14:44:51Z</time>
      </trkpt>
      <trkpt lat="49.44929" lon="1.49408">
        <ele>165.740005</ele>
        <time>2010-11-06T14:44:55Z</time>
      </trkpt>
      <trkpt lat="49.44882" lon="1.49523">
        <ele>164.753708</ele>
        <time>2010-11-06T14:45:10Z</time>
      </trkpt>
      <trkpt lat="49.44837" lon="1.49634">
        <ele>163.598755</ele>
        <time>2010-11-06T14:45:24Z</time>
      </trkpt>
      <trkpt lat="49.44788" lon="1.49752">
        <ele>162.608505</ele>
        <time>2010-11-06T14:45:39Z</time>
      </trkpt>
      <trkpt lat="49.44746" lon="1.49861">
        <ele>163.40535</ele>
        <time>2010-11-06T14:45:54Z</time>
      </trkpt>
      <trkpt lat="49.4472" lon="1.49926">
        <ele>163.620483</ele>
        <time>2010-11-06T14:46:03Z</time>
      </trkpt>
      <trkpt lat="49.44714" lon="1.49939">
        <ele>163.710403</ele>
        <time>2010-11-06T14:46:05Z</time>
      </trkpt>
      <trkpt lat="49.44676" lon="1.50038">
        <ele>163.011658</ele>
        <time>2010-11-06T14:46:21Z</time>
      </trkpt>
      <trkpt lat="49.44652" lon="1.50097">
        <ele>162.362534</ele>
        <time>2010-11-06T14:46:35Z</time>
      </trkpt>
      <trkpt lat="49.44639" lon="1.50127">
        <ele>161.572815</ele>
        <time>2010-11-06T14:46:48Z</time>
      </trkpt>
      <trkpt lat="49.44635" lon="1.50149">
        <ele>161.188522</ele>
        <time>2010-11-06T14:47:21Z</time>
      </trkpt>
      <trkpt lat="49.44612" lon="1.50198">
        <ele>158.865005</ele>
        <time>2010-11-06T14:47:33Z</time>
      </trkpt>
      <trkpt lat="49.44609" lon="1.50201">
        <ele>158.669998</ele>
        <time>2010-11-06T14:47:34Z</time>
      </trkpt>
      <trkpt lat="49.446" lon="1.5024">
        <ele>155.925552</ele>
        <time>2010-11-06T14:47:44Z</time>
      </trkpt>
      <trkpt lat="49.44599" lon="1.50249">
        <ele>155.012482</ele>
        <time>2010-11-06T14:47:52Z</time>
      </trkpt>
      <trkpt lat="49.44601" lon="1.50283">
        <ele>151.381973</ele>
        <time>2010-11-06T14:48:03Z</time>
      </trkpt>
      <trkpt lat="49.44591" lon="1.50328">
        <ele>146.642502</ele>
        <time>2010-11-06T14:48:16Z</time>
      </trkpt>
      <trkpt lat="49.44581" lon="1.50374">
        <ele>142.317703</ele>
        <time>2010-11-06T14:48:26Z</time>
      </trkpt>
      <trkpt lat="49.44576" lon="1.50424">
        <ele>139.822403</ele>
        <time>2010-11-06T14:48:36Z</time>
      </trkpt>
      <trkpt lat="49.44566" lon="1.50446">
        <ele>140.252457</ele>
        <time>2010-11-06T14:48:44Z</time>
      </trkpt>
      <trkpt lat="49.44558" lon="1.5044">
        <ele>139.9207</ele>
        <time>2010-11-06T14:48:59Z</time>
      </trkpt>
      <trkpt lat="49.44545" lon="1.50428">
        <ele>139.975525</ele>
        <time>2010-11-06T14:49:50Z</time>
      </trkpt>
      <trkpt lat="49.44515" lon="1.504">
        <ele>140.121994</ele>
        <time>2010-11-06T14:50:08Z</time>
      </trkpt>
      <trkpt lat="49.44504" lon="1.50384">
        <ele>139.177063</ele>
        <time>2010-11-06T14:50:19Z</time>
      </trkpt>
      <trkpt lat="49.44496" lon="1.50378">
        <ele>138.677994</ele>
        <time>2010-11-06T14:50:30Z</time>
      </trkpt>
      <trkpt lat="49.44481" lon="1.50364">
        <ele>138.898758</ele>
        <time>2010-11-06T14:50:57Z</time>
      </trkpt>
      <trkpt lat="49.44453" lon="1.50332">
        <ele>138.881882</ele>
        <time>2010-11-06T14:51:14Z</time>
      </trkpt>
      <trkpt lat="49.4442" lon="1.50295">
        <ele>138.176407</ele>
        <time>2010-11-06T14:51:29Z</time>
      </trkpt>
      <trkpt lat="49.4439" lon="1.50261">
        <ele>137.93248</ele>
        <time>2010-11-06T14:51:40Z</time>
      </trkpt>
      <trkpt lat="49.44372" lon="1.50241">
        <ele>136.267273</ele>
        <time>2010-11-06T14:51:45Z</time>
      </trkpt>
      <trkpt lat="49.44323" lon="1.50183">
        <ele>135.182953</ele>
        <time>2010-11-06T14:51:59Z</time>
      </trkpt>
      <trkpt lat="49.4427" lon="1.50143">
        <ele>134.660568</ele>
        <time>2010-11-06T14:52:13Z</time>
      </trkpt>
      <trkpt lat="49.44243" lon="1.5014">
        <ele>134.289688</ele>
        <time>2010-11-06T14:52:19Z</time>
      </trkpt>
      <trkpt lat="49.44219" lon="1.50142">
        <ele>133.730026</ele>
        <time>2010-11-06T14:52:24Z</time>
      </trkpt>
      <trkpt lat="49.44163" lon="1.5015">
        <ele>131.972351</ele>
        <time>2010-11-06T14:52:36Z</time>
      </trkpt>
      <trkpt lat="49.44124" lon="1.50151">
        <ele>130.865433</ele>
        <time>2010-11-06T14:52:45Z</time>
      </trkpt>
      <trkpt lat="49.44064" lon="1.50158">
        <ele>128.84375</ele>
        <time>2010-11-06T14:52:57Z</time>
      </trkpt>
      <trkpt lat="49.44048" lon="1.50163">
        <ele>128.518753</ele>
        <time>2010-11-06T14:53:00Z</time>
      </trkpt>
      <trkpt lat="49.43998" lon="1.50186">
        <ele>128.328293</ele>
        <time>2010-11-06T14:53:10Z</time>
      </trkpt>
      <trkpt lat="49.43924" lon="1.50223">
        <ele>126.369598</ele>
        <time>2010-11-06T14:53:26Z</time>
      </trkpt>
      <trkpt lat="49.43919" lon="1.50225">
        <ele>126.139626</ele>
        <time>2010-11-06T14:53:27Z</time>
      </trkpt>
      <trkpt lat="49.43895" lon="1.50249">
        <ele>125.030998</ele>
        <time>2010-11-06T14:53:32Z</time>
      </trkpt>
      <trkpt lat="49.43833" lon="1.50349">
        <ele>122.546638</ele>
        <time>2010-11-06T14:53:46Z</time>
      </trkpt>
      <trkpt lat="49.43801" lon="1.50392">
        <ele>122.8125</ele>
        <time>2010-11-06T14:53:59Z</time>
      </trkpt>
      <trkpt lat="49.43789" lon="1.50406">
        <ele>123.529999</ele>
        <time>2010-11-06T14:54:11Z</time>
      </trkpt>
      <trkpt lat="49.43773" lon="1.50463">
        <ele>126.295059</ele>
        <time>2010-11-06T14:54:27Z</time>
      </trkpt>
      <trkpt lat="49.43782" lon="1.50535">
        <ele>127.562126</ele>
        <time>2010-11-06T14:54:43Z</time>
      </trkpt>
      <trkpt lat="49.43803" lon="1.50595">
        <ele>128.437057</ele>
        <time>2010-11-06T14:55:00Z</time>
      </trkpt>
      <trkpt lat="49.43822" lon="1.50634">
        <ele>129.063797</ele>
        <time>2010-11-06T14:55:14Z</time>
      </trkpt>
      <trkpt lat="49.43846" lon="1.50694">
        <ele>130.976868</ele>
        <time>2010-11-06T14:55:34Z</time>
      </trkpt>
      <trkpt lat="49.43853" lon="1.50761">
        <ele>133.605194</ele>
        <time>2010-11-06T14:55:52Z</time>
      </trkpt>
      <trkpt lat="49.43849" lon="1.50833">
        <ele>136.419296</ele>
        <time>2010-11-06T14:56:10Z</time>
      </trkpt>
      <trkpt lat="49.43833" lon="1.50891">
        <ele>138.865005</ele>
        <time>2010-11-06T14:56:27Z</time>
      </trkpt>
      <trkpt lat="49.43798" lon="1.50925">
        <ele>144.540207</ele>
        <time>2010-11-06T14:56:43Z</time>
      </trkpt>
      <trkpt lat="49.43757" lon="1.50959">
        <ele>149.26564</ele>
        <time>2010-11-06T14:57:01Z</time>
      </trkpt>
      <trkpt lat="49.4372" lon="1.50992">
        <ele>153.190765</ele>
        <time>2010-11-06T14:57:17Z</time>
      </trkpt>
      <trkpt lat="49.43683" lon="1.51024">
        <ele>157.236679</ele>
        <time>2010-11-06T14:57:32Z</time>
      </trkpt>
      <trkpt lat="49.43639" lon="1.5106">
        <ele>159.214996</ele>
        <time>2010-11-06T14:57:49Z</time>
      </trkpt>
      <trkpt lat="49.436" lon="1.51094">
        <ele>159.970901</ele>
        <time>2010-11-06T14:58:05Z</time>
      </trkpt>
      <trkpt lat="49.43578" lon="1.51111">
        <ele>159.676971</ele>
        <time>2010-11-06T14:58:19Z</time>
      </trkpt>
      <trkpt lat="49.43545" lon="1.5114">
        <ele>159.023621</ele>
        <time>2010-11-06T14:58:35Z</time>
      </trkpt>
      <trkpt lat="49.43512" lon="1.5117">
        <ele>158.601044</ele>
        <time>2010-11-06T14:58:48Z</time>
      </trkpt>
      <trkpt lat="49.43493" lon="1.51179">
        <ele>158.499298</ele>
        <time>2010-11-06T14:59:01Z</time>
      </trkpt>
      <trkpt lat="49.43473" lon="1.51175">
        <ele>158.453278</ele>
        <time>2010-11-06T14:59:19Z</time>
      </trkpt>
      <trkpt lat="49.43455" lon="1.5114">
        <ele>158.289581</ele>
        <time>2010-11-06T14:59:29Z</time>
      </trkpt>
      <trkpt lat="49.43425" lon="1.51065">
        <ele>156.861252</ele>
        <time>2010-11-06T14:59:42Z</time>
      </trkpt>
      <trkpt lat="49.43401" lon="1.51">
        <ele>155.897507</ele>
        <time>2010-11-06T14:59:52Z</time>
      </trkpt>
      <trkpt lat="49.43385" lon="1.50954">
        <ele>155.220001</ele>
        <time>2010-11-06T14:59:58Z</time>
      </trkpt>
      <trkpt lat="49.43365" lon="1.50906">
        <ele>155</ele>
        <time>2010-11-06T15:00:04Z</time>
      </trkpt>
      <trkpt lat="49.43353" lon="1.50875">
        <ele>155</ele>
        <time>2010-11-06T15:00:08Z</time>
      </trkpt>
      <trkpt lat="49.43338" lon="1.50834">
        <ele>155.053375</ele>
        <time>2010-11-06T15:00:13Z</time>
      </trkpt>
      <trkpt lat="49.43311" lon="1.50758">
        <ele>155.149994</ele>
        <time>2010-11-06T15:00:22Z</time>
      </trkpt>
      <trkpt lat="49.43297" lon="1.50722">
        <ele>155.25235</ele>
        <time>2010-11-06T15:00:30Z</time>
      </trkpt>
      <trkpt lat="49.43294" lon="1.5072">
        <ele>155.173462</ele>
        <time>2010-11-06T15:00:42Z</time>
      </trkpt>
      <trkpt lat="49.43292" lon="1.50735">
        <ele>155.076248</ele>
        <time>2010-11-06T15:02:59Z</time>
      </trkpt>
      <trkpt lat="49.43291" lon="1.50737">
        <ele>155.042496</ele>
        <time>2010-11-06T15:03:02Z</time>
      </trkpt>
      <trkpt lat="49.43272" lon="1.50776">
        <ele>154.120132</ele>
        <time>2010-11-06T15:03:16Z</time>
      </trkpt>
      <trkpt lat="49.43249" lon="1.50826">
        <ele>154.324997</ele>
        <time>2010-11-06T15:03:29Z</time>
      </trkpt>
      <trkpt lat="49.4322" lon="1.50888">
        <ele>155.839844</ele>
        <time>2010-11-06T15:03:42Z</time>
      </trkpt>
      <trkpt lat="49.432" lon="1.50933">
        <ele>156.873779</ele>
        <time>2010-11-06T15:03:50Z</time>
      </trkpt>
      <trkpt lat="49.43155" lon="1.51033">
        <ele>158.313751</ele>
        <time>2010-11-06T15:04:07Z</time>
      </trkpt>
      <trkpt lat="49.43137" lon="1.51073">
        <ele>158.536942</ele>
        <time>2010-11-06T15:04:19Z</time>
      </trkpt>
      <trkpt lat="49.43135" lon="1.51075">
        <ele>158.522629</ele>
        <time>2010-11-06T15:04:22Z</time>
      </trkpt>
      <trkpt lat="49.43124" lon="1.5111">
        <ele>158.737503</ele>
        <time>2010-11-06T15:04:35Z</time>
      </trkpt>
      <trkpt lat="49.43128" lon="1.51116">
        <ele>158.902496</ele>
        <time>2010-11-06T15:04:37Z</time>
      </trkpt>
      <trkpt lat="49.43154" lon="1.51145">
        <ele>159.914993</ele>
        <time>2010-11-06T15:04:50Z</time>
      </trkpt>
      <trkpt lat="49.43206" lon="1.51198">
        <ele>160.716248</ele>
        <time>2010-11-06T15:05:09Z</time>
      </trkpt>
      <trkpt lat="49.43253" lon="1.51254">
        <ele>161</ele>
        <time>2010-11-06T15:05:27Z</time>
      </trkpt>
      <trkpt lat="49.43279" lon="1.51285">
        <ele>161</ele>
        <time>2010-11-06T15:05:41Z</time>
      </trkpt>
      <trkpt lat="49.43316" lon="1.51328">
        <ele>161</ele>
        <time>2010-11-06T15:05:58Z</time>
      </trkpt>
      <trkpt lat="49.43343" lon="1.51359">
        <ele>161</ele>
        <time>2010-11-06T15:06:12Z</time>
      </trkpt>
      <trkpt lat="49.43385" lon="1.51405">
        <ele>161</ele>
        <time>2010-11-06T15:06:29Z</time>
      </trkpt>
      <trkpt lat="49.43421" lon="1.51445">
        <ele>161.356247</ele>
        <time>2010-11-06T15:06:45Z</time>
      </trkpt>
      <trkpt lat="49.43466" lon="1.51494">
        <ele>162</ele>
        <time>2010-11-06T15:07:03Z</time>
      </trkpt>
      <trkpt lat="49.43494" lon="1.51558">
        <ele>162</ele>
        <time>2010-11-06T15:07:17Z</time>
      </trkpt>
      <trkpt lat="49.43507" lon="1.51603">
        <ele>162</ele>
        <time>2010-11-06T15:07:32Z</time>
      </trkpt>
      <trkpt lat="49.43507" lon="1.51605">
        <ele>162</ele>
        <time>2010-11-06T15:07:33Z</time>
      </trkpt>
      <trkpt lat="49.43508" lon="1.51615">
        <ele>162</ele>
        <time>2010-11-06T15:07:48Z</time>
      </trkpt>
      <trkpt lat="49.43511" lon="1.51619">
        <ele>162</ele>
        <time>2010-11-06T15:08:37Z</time>
      </trkpt>
      <trkpt lat="49.43519" lon="1.51628">
        <ele>162.039001</ele>
        <time>2010-11-06T15:08:47Z</time>
      </trkpt>
      <trkpt lat="49.43521" lon="1.51632">
        <ele>162.089783</ele>
        <time>2010-11-06T15:09:06Z</time>
      </trkpt>
      <trkpt lat="49.43518" lon="1.51631">
        <ele>162.077957</ele>
        <time>2010-11-06T15:09:22Z</time>
      </trkpt>
      <trkpt lat="49.4351" lon="1.51618">
        <ele>162</ele>
        <time>2010-11-06T15:09:39Z</time>
      </trkpt>
      <trkpt lat="49.43512" lon="1.51617">
        <ele>162</ele>
        <time>2010-11-06T15:10:27Z</time>
      </trkpt>
      <trkpt lat="49.43534" lon="1.51659">
        <ele>162.315247</ele>
        <time>2010-11-06T15:10:43Z</time>
      </trkpt>
      <trkpt lat="49.43557" lon="1.51722">
        <ele>162.495544</ele>
        <time>2010-11-06T15:10:58Z</time>
      </trkpt>
      <trkpt lat="49.43594" lon="1.51815">
        <ele>163</ele>
        <time>2010-11-06T15:11:17Z</time>
      </trkpt>
      <trkpt lat="49.43629" lon="1.51908">
        <ele>163.071869</ele>
        <time>2010-11-06T15:11:34Z</time>
      </trkpt>
      <trkpt lat="49.43661" lon="1.51995">
        <ele>162.875</ele>
        <time>2010-11-06T15:11:51Z</time>
      </trkpt>
      <trkpt lat="49.43684" lon="1.52058">
        <ele>162.693756</ele>
        <time>2010-11-06T15:12:04Z</time>
      </trkpt>
      <trkpt lat="49.43706" lon="1.52127">
        <ele>163.335007</ele>
        <time>2010-11-06T15:12:17Z</time>
      </trkpt>
      <trkpt lat="49.43728" lon="1.52203">
        <ele>164.434998</ele>
        <time>2010-11-06T15:12:32Z</time>
      </trkpt>
      <trkpt lat="49.4375" lon="1.52272">
        <ele>165.026703</ele>
        <time>2010-11-06T15:12:47Z</time>
      </trkpt>
      <trkpt lat="49.43773" lon="1.52348">
        <ele>165.800858</ele>
        <time>2010-11-06T15:13:05Z</time>
      </trkpt>
      <trkpt lat="49.4379" lon="1.52413">
        <ele>166.503754</ele>
        <time>2010-11-06T15:13:21Z</time>
      </trkpt>
      <trkpt lat="49.43795" lon="1.52476">
        <ele>167</ele>
        <time>2010-11-06T15:13:37Z</time>
      </trkpt>
      <trkpt lat="49.43801" lon="1.52554">
        <ele>167.087799</ele>
        <time>2010-11-06T15:13:54Z</time>
      </trkpt>
      <trkpt lat="49.43806" lon="1.52647">
        <ele>167.25</ele>
        <time>2010-11-06T15:14:11Z</time>
      </trkpt>
      <trkpt lat="49.43807" lon="1.52694">
        <ele>167.270004</ele>
        <time>2010-11-06T15:14:18Z</time>
      </trkpt>
      <trkpt lat="49.43785" lon="1.52747">
        <ele>166.433746</ele>
        <time>2010-11-06T15:14:27Z</time>
      </trkpt>
      <trkpt lat="49.43704" lon="1.52813">
        <ele>163.931503</ele>
        <time>2010-11-06T15:14:44Z</time>
      </trkpt>
      <trkpt lat="49.43632" lon="1.52872">
        <ele>163.202942</ele>
        <time>2010-11-06T15:15:01Z</time>
      </trkpt>
      <trkpt lat="49.43624" lon="1.52878">
        <ele>163.384094</ele>
        <time>2010-11-06T15:15:15Z</time>
      </trkpt>
      <trkpt lat="49.43624" lon="1.52882">
        <ele>163.499588</ele>
        <time>2010-11-06T15:15:44Z</time>
      </trkpt>
      <trkpt lat="49.43644" lon="1.5292">
        <ele>164.146744</ele>
        <time>2010-11-06T15:15:59Z</time>
      </trkpt>
      <trkpt lat="49.43672" lon="1.52995">
        <ele>164.923752</ele>
        <time>2010-11-06T15:16:14Z</time>
      </trkpt>
      <trkpt lat="49.43709" lon="1.53098">
        <ele>165.411942</ele>
        <time>2010-11-06T15:16:31Z</time>
      </trkpt>
      <trkpt lat="49.43711" lon="1.53104">
        <ele>165.478683</ele>
        <time>2010-11-06T15:16:32Z</time>
      </trkpt>
      <trkpt lat="49.43719" lon="1.53131">
        <ele>165.677948</ele>
        <time>2010-11-06T15:16:36Z</time>
      </trkpt>
      <trkpt lat="49.43728" lon="1.53158">
        <ele>165.554993</ele>
        <time>2010-11-06T15:16:40Z</time>
      </trkpt>
      <trkpt lat="49.43732" lon="1.53172">
        <ele>165.464996</ele>
        <time>2010-11-06T15:16:42Z</time>
      </trkpt>
      <trkpt lat="49.4374" lon="1.53199">
        <ele>165.285004</ele>
        <time>2010-11-06T15:16:46Z</time>
      </trkpt>
      <trkpt lat="49.43768" lon="1.53274">
        <ele>165.999146</ele>
        <time>2010-11-06T15:17:01Z</time>
      </trkpt>
      <trkpt lat="49.43759" lon="1.5331">
        <ele>165.551208</ele>
        <time>2010-11-06T15:17:09Z</time>
      </trkpt>
      <trkpt lat="49.43738" lon="1.53322">
        <ele>165.315002</ele>
        <time>2010-11-06T15:17:21Z</time>
      </trkpt>
      <trkpt lat="49.43729" lon="1.53326">
        <ele>165.262497</ele>
        <time>2010-11-06T15:17:36Z</time>
      </trkpt>
      <trkpt lat="49.43724" lon="1.53333">
        <ele>165.154999</ele>
        <time>2010-11-06T15:17:50Z</time>
      </trkpt>
      <trkpt lat="49.43723" lon="1.53334">
        <ele>165.146255</ele>
        <time>2010-11-06T15:17:51Z</time>
      </trkpt>
      <trkpt lat="49.43716" lon="1.53334">
        <ele>165.141251</ele>
        <time>2010-11-06T15:17:55Z</time>
      </trkpt>
      <trkpt lat="49.43694" lon="1.53345">
        <ele>164.627502</ele>
        <time>2010-11-06T15:18:02Z</time>
      </trkpt>
      <trkpt lat="49.43627" lon="1.5338">
        <ele>162.990005</ele>
        <time>2010-11-06T15:18:16Z</time>
      </trkpt>
      <trkpt lat="49.43572" lon="1.53409">
        <ele>162.166031</ele>
        <time>2010-11-06T15:18:26Z</time>
      </trkpt>
      <trkpt lat="49.4348" lon="1.5347">
        <ele>159.172501</ele>
        <time>2010-11-06T15:18:42Z</time>
      </trkpt>
      <trkpt lat="49.43371" lon="1.53534">
        <ele>152.906754</ele>
        <time>2010-11-06T15:18:58Z</time>
      </trkpt>
      <trkpt lat="49.43298" lon="1.53584">
        <ele>147.491257</ele>
        <time>2010-11-06T15:19:08Z</time>
      </trkpt>
      <trkpt lat="49.43271" lon="1.53613">
        <ele>144.848465</ele>
        <time>2010-11-06T15:19:12Z</time>
      </trkpt>
      <trkpt lat="49.43231" lon="1.53721">
        <ele>134.771622</ele>
        <time>2010-11-06T15:19:23Z</time>
      </trkpt>
      <trkpt lat="49.43224" lon="1.53835">
        <ele>128.00563</ele>
        <time>2010-11-06T15:19:33Z</time>
      </trkpt>
      <trkpt lat="49.43223" lon="1.53847">
        <ele>128.039749</ele>
        <time>2010-11-06T15:19:35Z</time>
      </trkpt>
      <trkpt lat="49.43202" lon="1.53838">
        <ele>128.055496</ele>
        <time>2010-11-06T15:19:43Z</time>
      </trkpt>
      <trkpt lat="49.43154" lon="1.53793">
        <ele>126.686501</ele>
        <time>2010-11-06T15:19:59Z</time>
      </trkpt>
      <trkpt lat="49.43088" lon="1.53759">
        <ele>125.5895</ele>
        <time>2010-11-06T15:20:15Z</time>
      </trkpt>
      <trkpt lat="49.43004" lon="1.53718">
        <ele>126.222038</ele>
        <time>2010-11-06T15:20:32Z</time>
      </trkpt>
      <trkpt lat="49.42986" lon="1.53704">
        <ele>125.771225</ele>
        <time>2010-11-06T15:20:36Z</time>
      </trkpt>
      <trkpt lat="49.42968" lon="1.53676">
        <ele>125.695297</ele>
        <time>2010-11-06T15:20:41Z</time>
      </trkpt>
      <trkpt lat="49.42957" lon="1.53647">
        <ele>124.906151</ele>
        <time>2010-11-06T15:20:45Z</time>
      </trkpt>
      <trkpt lat="49.42923" lon="1.53566">
        <ele>124.519203</ele>
        <time>2010-11-06T15:20:59Z</time>
      </trkpt>
      <trkpt lat="49.42898" lon="1.53532">
        <ele>122.960258</ele>
        <time>2010-11-06T15:21:12Z</time>
      </trkpt>
      <trkpt lat="49.42875" lon="1.5352">
        <ele>124.512505</ele>
        <time>2010-11-06T15:21:25Z</time>
      </trkpt>
      <trkpt lat="49.42848" lon="1.53506">
        <ele>125.974007</ele>
        <time>2010-11-06T15:21:42Z</time>
      </trkpt>
      <trkpt lat="49.42824" lon="1.53496">
        <ele>129.658676</ele>
        <time>2010-11-06T15:21:57Z</time>
      </trkpt>
      <trkpt lat="49.42796" lon="1.53488">
        <ele>133.963196</ele>
        <time>2010-11-06T15:22:14Z</time>
      </trkpt>
      <trkpt lat="49.42777" lon="1.53479">
        <ele>136.238892</ele>
        <time>2010-11-06T15:22:27Z</time>
      </trkpt>
      <trkpt lat="49.42763" lon="1.53464">
        <ele>137.730606</ele>
        <time>2010-11-06T15:22:40Z</time>
      </trkpt>
      <trkpt lat="49.42744" lon="1.53439">
        <ele>140.250031</ele>
        <time>2010-11-06T15:22:55Z</time>
      </trkpt>
      <trkpt lat="49.42735" lon="1.53425">
        <ele>141.22467</ele>
        <time>2010-11-06T15:23:06Z</time>
      </trkpt>
      <trkpt lat="49.42717" lon="1.53396">
        <ele>143.095001</ele>
        <time>2010-11-06T15:23:23Z</time>
      </trkpt>
      <trkpt lat="49.42709" lon="1.53384">
        <ele>143.537506</ele>
        <time>2010-11-06T15:23:32Z</time>
      </trkpt>
      <trkpt lat="49.42696" lon="1.53364">
        <ele>144.309998</ele>
        <time>2010-11-06T15:23:46Z</time>
      </trkpt>
      <trkpt lat="49.42675" lon="1.53351">
        <ele>147.196182</ele>
        <time>2010-11-06T15:24:02Z</time>
      </trkpt>
      <trkpt lat="49.42652" lon="1.53339">
        <ele>148.259232</ele>
        <time>2010-11-06T15:24:17Z</time>
      </trkpt>
      <trkpt lat="49.42623" lon="1.53336">
        <ele>150.509506</ele>
        <time>2010-11-06T15:24:32Z</time>
      </trkpt>
      <trkpt lat="49.42597" lon="1.53339">
        <ele>152.102707</ele>
        <time>2010-11-06T15:24:46Z</time>
      </trkpt>
      <trkpt lat="49.42566" lon="1.5335">
        <ele>153.794998</ele>
        <time>2010-11-06T15:25:02Z</time>
      </trkpt>
      <trkpt lat="49.4253" lon="1.53379">
        <ele>155.542206</ele>
        <time>2010-11-06T15:25:21Z</time>
      </trkpt>
      <trkpt lat="49.42504" lon="1.53397">
        <ele>156.164993</ele>
        <time>2010-11-06T15:25:36Z</time>
      </trkpt>
      <trkpt lat="49.42477" lon="1.53421">
        <ele>157.627319</ele>
        <time>2010-11-06T15:25:51Z</time>
      </trkpt>
      <trkpt lat="49.4245" lon="1.53443">
        <ele>158.089996</ele>
        <time>2010-11-06T15:26:05Z</time>
      </trkpt>
      <trkpt lat="49.4242" lon="1.53471">
        <ele>157.818756</ele>
        <time>2010-11-06T15:26:21Z</time>
      </trkpt>
      <trkpt lat="49.42392" lon="1.53496">
        <ele>157.544998</ele>
        <time>2010-11-06T15:26:35Z</time>
      </trkpt>
      <trkpt lat="49.42367" lon="1.53528">
        <ele>157.458755</ele>
        <time>2010-11-06T15:26:49Z</time>
      </trkpt>
      <trkpt lat="49.42339" lon="1.53549">
        <ele>157.133759</ele>
        <time>2010-11-06T15:27:02Z</time>
      </trkpt>
      <trkpt lat="49.42326" lon="1.5357">
        <ele>157.132492</ele>
        <time>2010-11-06T15:27:12Z</time>
      </trkpt>
      <trkpt lat="49.42314" lon="1.53592">
        <ele>157.181244</ele>
        <time>2010-11-06T15:27:23Z</time>
      </trkpt>
      <trkpt lat="49.42305" lon="1.53622">
        <ele>157.40625</ele>
        <time>2010-11-06T15:27:35Z</time>
      </trkpt>
      <trkpt lat="49.42291" lon="1.53666">
        <ele>157.380005</ele>
        <time>2010-11-06T15:27:48Z</time>
      </trkpt>
      <trkpt lat="49.42277" lon="1.53736">
        <ele>157.044998</ele>
        <time>2010-11-06T15:28:02Z</time>
      </trkpt>
      <trkpt lat="49.42269" lon="1.53792">
        <ele>156.916245</ele>
        <time>2010-11-06T15:28:15Z</time>
      </trkpt>
      <trkpt lat="49.4225" lon="1.5385">
        <ele>156.860001</ele>
        <time>2010-11-06T15:28:28Z</time>
      </trkpt>
      <trkpt lat="49.42216" lon="1.53918">
        <ele>154.660004</ele>
        <time>2010-11-06T15:28:44Z</time>
      </trkpt>
      <trkpt lat="49.42188" lon="1.53975">
        <ele>152.119995</ele>
        <time>2010-11-06T15:28:55Z</time>
      </trkpt>
      <trkpt lat="49.42185" lon="1.53981">
        <ele>151.758286</ele>
        <time>2010-11-06T15:28:56Z</time>
      </trkpt>
      <trkpt lat="49.42174" lon="1.53999">
        <ele>150.078415</ele>
        <time>2010-11-06T15:28:59Z</time>
      </trkpt>
      <trkpt lat="49.42156" lon="1.54022">
        <ele>147.774689</ele>
        <time>2010-11-06T15:29:03Z</time>
      </trkpt>
      <trkpt lat="49.42135" lon="1.54029">
        <ele>146.613907</ele>
        <time>2010-11-06T15:29:08Z</time>
      </trkpt>
      <trkpt lat="49.42108" lon="1.54007">
        <ele>146.853027</ele>
        <time>2010-11-06T15:29:20Z</time>
      </trkpt>
      <trkpt lat="49.42085" lon="1.53989">
        <ele>147.779678</ele>
        <time>2010-11-06T15:29:36Z</time>
      </trkpt>
      <trkpt lat="49.42081" lon="1.53986">
        <ele>148.278137</ele>
        <time>2010-11-06T15:29:39Z</time>
      </trkpt>
      <trkpt lat="49.4206" lon="1.53979">
        <ele>150.896225</ele>
        <time>2010-11-06T15:29:55Z</time>
      </trkpt>
      <trkpt lat="49.42042" lon="1.53975">
        <ele>152.602051</ele>
        <time>2010-11-06T15:30:07Z</time>
      </trkpt>
      <trkpt lat="49.42015" lon="1.53969">
        <ele>154.131104</ele>
        <time>2010-11-06T15:30:23Z</time>
      </trkpt>
      <trkpt lat="49.42014" lon="1.53969">
        <ele>154.246002</ele>
        <time>2010-11-06T15:30:24Z</time>
      </trkpt>
      <trkpt lat="49.41991" lon="1.53965">
        <ele>155.451599</ele>
        <time>2010-11-06T15:30:40Z</time>
      </trkpt>
      <trkpt lat="49.4199" lon="1.53966">
        <ele>155.589554</ele>
        <time>2010-11-06T15:30:56Z</time>
      </trkpt>
      <trkpt lat="49.41987" lon="1.53973">
        <ele>156.079681</ele>
        <time>2010-11-06T15:31:20Z</time>
      </trkpt>
      <trkpt lat="49.41988" lon="1.53966">
        <ele>155.655319</ele>
        <time>2010-11-06T15:32:13Z</time>
      </trkpt>
      <trkpt lat="49.41992" lon="1.53964">
        <ele>155.378281</ele>
        <time>2010-11-06T15:32:19Z</time>
      </trkpt>
      <trkpt lat="49.41997" lon="1.53964">
        <ele>155.023361</ele>
        <time>2010-11-06T15:32:23Z</time>
      </trkpt>
      <trkpt lat="49.42013" lon="1.53911">
        <ele>150.956192</ele>
        <time>2010-11-06T15:32:38Z</time>
      </trkpt>
      <trkpt lat="49.42019" lon="1.53869">
        <ele>148.059494</ele>
        <time>2010-11-06T15:32:47Z</time>
      </trkpt>
      <trkpt lat="49.42018" lon="1.53817">
        <ele>145.679749</ele>
        <time>2010-11-06T15:32:59Z</time>
      </trkpt>
      <trkpt lat="49.42014" lon="1.53766">
        <ele>143.669998</ele>
        <time>2010-11-06T15:33:07Z</time>
      </trkpt>
      <trkpt lat="49.42013" lon="1.53701">
        <ele>140.117508</ele>
        <time>2010-11-06T15:33:18Z</time>
      </trkpt>
      <trkpt lat="49.4203" lon="1.53646">
        <ele>135.098755</ele>
        <time>2010-11-06T15:33:28Z</time>
      </trkpt>
      <trkpt lat="49.42044" lon="1.53593">
        <ele>131.979004</ele>
        <time>2010-11-06T15:33:35Z</time>
      </trkpt>
      <trkpt lat="49.42055" lon="1.53554">
        <ele>130.905197</ele>
        <time>2010-11-06T15:33:44Z</time>
      </trkpt>
      <trkpt lat="49.42058" lon="1.53549">
        <ele>130.882507</ele>
        <time>2010-11-06T15:33:48Z</time>
      </trkpt>
      <trkpt lat="49.42062" lon="1.53538">
        <ele>130.656998</ele>
        <time>2010-11-06T15:33:52Z</time>
      </trkpt>
      <trkpt lat="49.42069" lon="1.53519">
        <ele>130.031082</ele>
        <time>2010-11-06T15:33:59Z</time>
      </trkpt>
      <trkpt lat="49.42091" lon="1.5348">
        <ele>128.35733</ele>
        <time>2010-11-06T15:34:09Z</time>
      </trkpt>
      <trkpt lat="49.42109" lon="1.53437">
        <ele>126.666672</ele>
        <time>2010-11-06T15:34:19Z</time>
      </trkpt>
      <trkpt lat="49.42128" lon="1.53378">
        <ele>125.503998</ele>
        <time>2010-11-06T15:34:30Z</time>
      </trkpt>
      <trkpt lat="49.42156" lon="1.53311">
        <ele>124.053925</ele>
        <time>2010-11-06T15:34:43Z</time>
      </trkpt>
      <trkpt lat="49.42159" lon="1.53305">
        <ele>123.67614</ele>
        <time>2010-11-06T15:34:44Z</time>
      </trkpt>
      <trkpt lat="49.42183" lon="1.53249">
        <ele>120.399727</ele>
        <time>2010-11-06T15:34:54Z</time>
      </trkpt>
      <trkpt lat="49.42191" lon="1.53215">
        <ele>120.191628</ele>
        <time>2010-11-06T15:35:04Z</time>
      </trkpt>
      <trkpt lat="49.42193" lon="1.53205">
        <ele>120.040497</ele>
        <time>2010-11-06T15:35:23Z</time>
      </trkpt>
      <trkpt lat="49.42196" lon="1.53192">
        <ele>119.734375</ele>
        <time>2010-11-06T15:35:38Z</time>
      </trkpt>
      <trkpt lat="49.42205" lon="1.5314">
        <ele>117.641998</ele>
        <time>2010-11-06T15:35:50Z</time>
      </trkpt>
      <trkpt lat="49.42197" lon="1.53099">
        <ele>116.486252</ele>
        <time>2010-11-06T15:36:00Z</time>
      </trkpt>
      <trkpt lat="49.42137" lon="1.53051">
        <ele>116.477676</ele>
        <time>2010-11-06T15:36:18Z</time>
      </trkpt>
      <trkpt lat="49.42086" lon="1.52999">
        <ele>115.734627</ele>
        <time>2010-11-06T15:36:34Z</time>
      </trkpt>
      <trkpt lat="49.42058" lon="1.52965">
        <ele>116.602249</ele>
        <time>2010-11-06T15:36:47Z</time>
      </trkpt>
      <trkpt lat="49.42039" lon="1.52938">
        <ele>117.246773</ele>
        <time>2010-11-06T15:36:59Z</time>
      </trkpt>
      <trkpt lat="49.42024" lon="1.52917">
        <ele>118.202812</ele>
        <time>2010-11-06T15:37:11Z</time>
      </trkpt>
      <trkpt lat="49.42003" lon="1.52879">
        <ele>118.137596</ele>
        <time>2010-11-06T15:37:23Z</time>
      </trkpt>
      <trkpt lat="49.41979" lon="1.52831">
        <ele>117.995178</ele>
        <time>2010-11-06T15:37:37Z</time>
      </trkpt>
      <trkpt lat="49.41953" lon="1.52794">
        <ele>118.513336</ele>
        <time>2010-11-06T15:37:48Z</time>
      </trkpt>
      <trkpt lat="49.41918" lon="1.52736">
        <ele>118.751999</ele>
        <time>2010-11-06T15:38:03Z</time>
      </trkpt>
      <trkpt lat="49.41887" lon="1.52679">
        <ele>118.529999</ele>
        <time>2010-11-06T15:38:16Z</time>
      </trkpt>
      <trkpt lat="49.4186" lon="1.52607">
        <ele>118.355728</ele>
        <time>2010-11-06T15:38:29Z</time>
      </trkpt>
      <trkpt lat="49.41839" lon="1.52515">
        <ele>118.724998</ele>
        <time>2010-11-06T15:38:44Z</time>
      </trkpt>
      <trkpt lat="49.41818" lon="1.52423">
        <ele>117.631248</ele>
        <time>2010-11-06T15:39:01Z</time>
      </trkpt>
      <trkpt lat="49.4179" lon="1.52344">
        <ele>118.057747</ele>
        <time>2010-11-06T15:39:17Z</time>
      </trkpt>
      <trkpt lat="49.4177" lon="1.52258">
        <ele>115.2211</ele>
        <time>2010-11-06T15:39:30Z</time>
      </trkpt>
      <trkpt lat="49.41737" lon="1.52128">
        <ele>111.864204</ele>
        <time>2010-11-06T15:39:45Z</time>
      </trkpt>
      <trkpt lat="49.41725" lon="1.52043">
        <ele>109.2789</ele>
        <time>2010-11-06T15:39:56Z</time>
      </trkpt>
      <trkpt lat="49.417" lon="1.51923">
        <ele>108.51815</ele>
        <time>2010-11-06T15:40:14Z</time>
      </trkpt>
      <trkpt lat="49.41679" lon="1.51814">
        <ele>107.092316</ele>
        <time>2010-11-06T15:40:31Z</time>
      </trkpt>
      <trkpt lat="49.41667" lon="1.51678">
        <ele>106.947952</ele>
        <time>2010-11-06T15:40:53Z</time>
      </trkpt>
      <trkpt lat="49.41663" lon="1.51553">
        <ele>106.57</ele>
        <time>2010-11-06T15:41:13Z</time>
      </trkpt>
      <trkpt lat="49.41663" lon="1.51421">
        <ele>105.120003</ele>
        <time>2010-11-06T15:41:34Z</time>
      </trkpt>
      <trkpt lat="49.41646" lon="1.51313">
        <ele>104.034653</ele>
        <time>2010-11-06T15:41:52Z</time>
      </trkpt>
      <trkpt lat="49.41613" lon="1.51201">
        <ele>104.579002</ele>
        <time>2010-11-06T15:42:11Z</time>
      </trkpt>
      <trkpt lat="49.41581" lon="1.51071">
        <ele>103.040398</ele>
        <time>2010-11-06T15:42:32Z</time>
      </trkpt>
      <trkpt lat="49.41554" lon="1.50962">
        <ele>101.894379</ele>
        <time>2010-11-06T15:42:51Z</time>
      </trkpt>
      <trkpt lat="49.4154" lon="1.50853">
        <ele>102.273811</ele>
        <time>2010-11-06T15:43:08Z</time>
      </trkpt>
      <trkpt lat="49.41545" lon="1.50744">
        <ele>102.520752</ele>
        <time>2010-11-06T15:43:24Z</time>
      </trkpt>
      <trkpt lat="49.41558" lon="1.50657">
        <ele>101.722198</ele>
        <time>2010-11-06T15:43:34Z</time>
      </trkpt>
      <trkpt lat="49.41534" lon="1.50574">
        <ele>99.00399</ele>
        <time>2010-11-06T15:43:47Z</time>
      </trkpt>
      <trkpt lat="49.41519" lon="1.50551">
        <ele>98.974876</ele>
        <time>2010-11-06T15:43:58Z</time>
      </trkpt>
      <trkpt lat="49.41517" lon="1.5055">
        <ele>98.969528</ele>
        <time>2010-11-06T15:44:38Z</time>
      </trkpt>
      <trkpt lat="49.41514" lon="1.50548">
        <ele>98.948853</ele>
        <time>2010-11-06T15:44:48Z</time>
      </trkpt>
      <trkpt lat="49.41498" lon="1.5054">
        <ele>98.808472</ele>
        <time>2010-11-06T15:44:56Z</time>
      </trkpt>
      <trkpt lat="49.41478" lon="1.50527">
        <ele>98.845573</ele>
        <time>2010-11-06T15:45:02Z</time>
      </trkpt>
      <trkpt lat="49.41464" lon="1.50503">
        <ele>98.448875</ele>
        <time>2010-11-06T15:45:07Z</time>
      </trkpt>
      <trkpt lat="49.41449" lon="1.50382">
        <ele>98.193283</ele>
        <time>2010-11-06T15:45:24Z</time>
      </trkpt>
      <trkpt lat="49.41463" lon="1.5026">
        <ele>98.919998</ele>
        <time>2010-11-06T15:45:39Z</time>
      </trkpt>
      <trkpt lat="49.41432" lon="1.50106">
        <ele>97.354233</ele>
        <time>2010-11-06T15:45:58Z</time>
      </trkpt>
      <trkpt lat="49.41408" lon="1.50006">
        <ele>97.078972</ele>
        <time>2010-11-06T15:46:10Z</time>
      </trkpt>
      <trkpt lat="49.41374" lon="1.49942">
        <ele>96.516388</ele>
        <time>2010-11-06T15:46:19Z</time>
      </trkpt>
      <trkpt lat="49.41356" lon="1.49897">
        <ele>96.720795</ele>
        <time>2010-11-06T15:46:25Z</time>
      </trkpt>
      <trkpt lat="49.41323" lon="1.49869">
        <ele>96.383652</ele>
        <time>2010-11-06T15:46:32Z</time>
      </trkpt>
      <trkpt lat="49.4131" lon="1.4987">
        <ele>96.101723</ele>
        <time>2010-11-06T15:46:34Z</time>
      </trkpt>
      <trkpt lat="49.41277" lon="1.49848">
        <ele>95.658752</ele>
        <time>2010-11-06T15:46:40Z</time>
      </trkpt>
      <trkpt lat="49.41197" lon="1.49742">
        <ele>93.750191</ele>
        <time>2010-11-06T15:46:57Z</time>
      </trkpt>
      <trkpt lat="49.41116" lon="1.49643">
        <ele>93.652496</ele>
        <time>2010-11-06T15:47:14Z</time>
      </trkpt>
      <trkpt lat="49.41102" lon="1.49605">
        <ele>93.145004</ele>
        <time>2010-11-06T15:47:19Z</time>
      </trkpt>
      <trkpt lat="49.41104" lon="1.49537">
        <ele>92.986671</ele>
        <time>2010-11-06T15:47:27Z</time>
      </trkpt>
      <trkpt lat="49.41104" lon="1.49464">
        <ele>96.787064</ele>
        <time>2010-11-06T15:47:36Z</time>
      </trkpt>
      <trkpt lat="49.411" lon="1.49457">
        <ele>96.971199</ele>
        <time>2010-11-06T15:47:37Z</time>
      </trkpt>
      <trkpt lat="49.40995" lon="1.49271">
        <ele>98.739799</ele>
        <time>2010-11-06T15:48:02Z</time>
      </trkpt>
      <trkpt lat="49.40973" lon="1.4923">
        <ele>97.397102</ele>
        <time>2010-11-06T15:48:07Z</time>
      </trkpt>
      <trkpt lat="49.40906" lon="1.4911">
        <ele>96.497711</ele>
        <time>2010-11-06T15:48:22Z</time>
      </trkpt>
      <trkpt lat="49.4084" lon="1.48988">
        <ele>97.908752</ele>
        <time>2010-11-06T15:48:38Z</time>
      </trkpt>
      <trkpt lat="49.40756" lon="1.48837">
        <ele>98.259148</ele>
        <time>2010-11-06T15:48:58Z</time>
      </trkpt>
      <trkpt lat="49.4064" lon="1.48625">
        <ele>95.175003</ele>
        <time>2010-11-06T15:49:23Z</time>
      </trkpt>
      <trkpt lat="49.40545" lon="1.48454">
        <ele>97.658997</ele>
        <time>2010-11-06T15:49:44Z</time>
      </trkpt>
      <trkpt lat="49.40493" lon="1.4835">
        <ele>95.378128</ele>
        <time>2010-11-06T15:49:58Z</time>
      </trkpt>
      <trkpt lat="49.40454" lon="1.4826">
        <ele>98.279999</ele>
        <time>2010-11-06T15:50:14Z</time>
      </trkpt>
      <trkpt lat="49.4042" lon="1.48141">
        <ele>103.17675</ele>
        <time>2010-11-06T15:50:33Z</time>
      </trkpt>
      <trkpt lat="49.40394" lon="1.48003">
        <ele>99.476936</ele>
        <time>2010-11-06T15:50:47Z</time>
      </trkpt>
      <trkpt lat="49.4036" lon="1.47825">
        <ele>93.180672</ele>
        <time>2010-11-06T15:51:01Z</time>
      </trkpt>
      <trkpt lat="49.40324" lon="1.47783">
        <ele>87.276901</ele>
        <time>2010-11-06T15:51:07Z</time>
      </trkpt>
      <trkpt lat="49.403" lon="1.4779">
        <ele>83.472504</ele>
        <time>2010-11-06T15:51:10Z</time>
      </trkpt>
      <trkpt lat="49.40191" lon="1.47845">
        <ele>86.625198</ele>
        <time>2010-11-06T15:51:25Z</time>
      </trkpt>
      <trkpt lat="49.40154" lon="1.47806">
        <ele>87.507767</ele>
        <time>2010-11-06T15:51:32Z</time>
      </trkpt>
      <trkpt lat="49.40107" lon="1.47651">
        <ele>89.087502</ele>
        <time>2010-11-06T15:51:48Z</time>
      </trkpt>
      <trkpt lat="49.40078" lon="1.47611">
        <ele>89.694344</ele>
        <time>2010-11-06T15:51:55Z</time>
      </trkpt>
      <trkpt lat="49.40042" lon="1.47622">
        <ele>92.27327</ele>
        <time>2010-11-06T15:52:04Z</time>
      </trkpt>
      <trkpt lat="49.39998" lon="1.47688">
        <ele>95.980003</ele>
        <time>2010-11-06T15:52:22Z</time>
      </trkpt>
      <trkpt lat="49.39959" lon="1.47738">
        <ele>98.6698</ele>
        <time>2010-11-06T15:52:43Z</time>
      </trkpt>
      <trkpt lat="49.39932" lon="1.47775">
        <ele>101.198288</ele>
        <time>2010-11-06T15:52:57Z</time>
      </trkpt>
      <trkpt lat="49.3993" lon="1.47786">
        <ele>101.646973</ele>
        <time>2010-11-06T15:53:00Z</time>
      </trkpt>
      <trkpt lat="49.39937" lon="1.47804">
        <ele>101.295303</ele>
        <time>2010-11-06T15:53:05Z</time>
      </trkpt>
      <trkpt lat="49.39951" lon="1.47827">
        <ele>100.25</ele>
        <time>2010-11-06T15:53:11Z</time>
      </trkpt>
      <trkpt lat="49.39948" lon="1.47842">
        <ele>100.777504</ele>
        <time>2010-11-06T15:53:15Z</time>
      </trkpt>
      <trkpt lat="49.39905" lon="1.47883">
        <ele>106.716125</ele>
        <time>2010-11-06T15:53:34Z</time>
      </trkpt>
      <trkpt lat="49.39902" lon="1.47889">
        <ele>107.282402</ele>
        <time>2010-11-06T15:53:36Z</time>
      </trkpt>
      <trkpt lat="49.39918" lon="1.47905">
        <ele>105.286247</ele>
        <time>2010-11-06T15:53:47Z</time>
      </trkpt>
      <trkpt lat="49.39921" lon="1.47899">
        <ele>105.004997</ele>
        <time>2010-11-06T15:53:58Z</time>
      </trkpt>
      <trkpt lat="49.39922" lon="1.47898">
        <ele>104.839996</ele>
        <time>2010-11-06T15:54:31Z</time>
      </trkpt>
    </trkseg>
  </trk>
</gpx>